<?xml version="1.0" encoding="UTF-8" standalone="no" ?>
<gpx xmlns="http://www.topografix.com/GPX/1/1" xmlns:xsi="http://www.w3.org/2001/XMLSchema-instance" xsi:schemaLocation="http://www.topografix.com/GPX/1/1 http://www.topografix.com/GPX/1/1/gpx.xsd" version="1.1" creator="VisuGPX - https://www.visugpx.com">
  <metadata>
    <name>Rochefort en Terre 17 Mai 2015</name>
    <desc><![CDATA[Rochefort en Terre 17/05/15]]></desc>
  </metadata>
  <trk>
    <name><![CDATA[Rochefort en Terre 17 Mai 2015_1]]></name>
    <trkseg>
      <trkpt lat="47.69322" lon="-2.36615">
        <ele>127.8</ele>
        <time>2015-05-17T06:29:47Z</time>
      </trkpt>
      <trkpt lat="47.69322" lon="-2.36615">
        <ele>127.8</ele>
        <time>2015-05-17T06:54:08Z</time>
      </trkpt>
      <trkpt lat="47.69329" lon="-2.36603">
        <ele>151.7</ele>
        <time>2015-05-17T06:54:10Z</time>
      </trkpt>
      <trkpt lat="47.69343" lon="-2.3659">
        <ele>169.7</ele>
        <time>2015-05-17T06:54:14Z</time>
      </trkpt>
      <trkpt lat="47.69333" lon="-2.36592">
        <ele>171.8</ele>
        <time>2015-05-17T06:54:15Z</time>
      </trkpt>
      <trkpt lat="47.69328" lon="-2.36618">
        <ele>100.8</ele>
        <time>2015-05-17T06:54:30Z</time>
      </trkpt>
      <trkpt lat="47.69318" lon="-2.36612">
        <ele>102.7</ele>
        <time>2015-05-17T06:54:32Z</time>
      </trkpt>
      <trkpt lat="47.69317" lon="-2.36601">
        <ele>106.7</ele>
        <time>2015-05-17T06:54:34Z</time>
      </trkpt>
      <trkpt lat="47.69309" lon="-2.36602">
        <ele>107.5</ele>
        <time>2015-05-17T06:54:36Z</time>
      </trkpt>
      <trkpt lat="47.69301" lon="-2.36602">
        <ele>108.9</ele>
        <time>2015-05-17T06:54:38Z</time>
      </trkpt>
      <trkpt lat="47.69307" lon="-2.36598">
        <ele>109.6</ele>
        <time>2015-05-17T06:54:45Z</time>
      </trkpt>
      <trkpt lat="47.69306" lon="-2.36592">
        <ele>110.8</ele>
        <time>2015-05-17T06:54:52Z</time>
      </trkpt>
      <trkpt lat="47.69303" lon="-2.36583">
        <ele>112.6</ele>
        <time>2015-05-17T06:54:59Z</time>
      </trkpt>
      <trkpt lat="47.69298" lon="-2.36575">
        <ele>114.4</ele>
        <time>2015-05-17T06:55:06Z</time>
      </trkpt>
      <trkpt lat="47.69296" lon="-2.36566">
        <ele>116</ele>
        <time>2015-05-17T06:55:13Z</time>
      </trkpt>
      <trkpt lat="47.69291" lon="-2.36557">
        <ele>116.8</ele>
        <time>2015-05-17T06:55:19Z</time>
      </trkpt>
      <trkpt lat="47.69285" lon="-2.36548">
        <ele>118.1</ele>
        <time>2015-05-17T06:55:26Z</time>
      </trkpt>
      <trkpt lat="47.69279" lon="-2.36543">
        <ele>120</ele>
        <time>2015-05-17T06:55:33Z</time>
      </trkpt>
      <trkpt lat="47.69279" lon="-2.36532">
        <ele>121.8</ele>
        <time>2015-05-17T06:55:40Z</time>
      </trkpt>
      <trkpt lat="47.69279" lon="-2.36526">
        <ele>122.6</ele>
        <time>2015-05-17T06:55:47Z</time>
      </trkpt>
      <trkpt lat="47.69278" lon="-2.36525">
        <ele>123.1</ele>
        <time>2015-05-17T06:55:54Z</time>
      </trkpt>
      <trkpt lat="47.69314" lon="-2.36504">
        <ele>121.7</ele>
        <time>2015-05-17T06:56:21Z</time>
      </trkpt>
      <trkpt lat="47.69314" lon="-2.36502">
        <ele>120.8</ele>
        <time>2015-05-17T06:56:28Z</time>
      </trkpt>
      <trkpt lat="47.6932" lon="-2.36502">
        <ele>117.9</ele>
        <time>2015-05-17T06:56:49Z</time>
      </trkpt>
      <trkpt lat="47.69321" lon="-2.36495">
        <ele>117.8</ele>
        <time>2015-05-17T06:56:56Z</time>
      </trkpt>
      <trkpt lat="47.69324" lon="-2.36486">
        <ele>117.7</ele>
        <time>2015-05-17T06:57:03Z</time>
      </trkpt>
      <trkpt lat="47.69328" lon="-2.3648">
        <ele>117.5</ele>
        <time>2015-05-17T06:57:10Z</time>
      </trkpt>
      <trkpt lat="47.69335" lon="-2.36475">
        <ele>117.3</ele>
        <time>2015-05-17T06:57:16Z</time>
      </trkpt>
      <trkpt lat="47.69341" lon="-2.36467">
        <ele>116.3</ele>
        <time>2015-05-17T06:57:23Z</time>
      </trkpt>
      <trkpt lat="47.69345" lon="-2.36464">
        <ele>116</ele>
        <time>2015-05-17T06:57:30Z</time>
      </trkpt>
      <trkpt lat="47.69351" lon="-2.36459">
        <ele>116</ele>
        <time>2015-05-17T06:57:37Z</time>
      </trkpt>
      <trkpt lat="47.69357" lon="-2.36456">
        <ele>115.8</ele>
        <time>2015-05-17T06:57:44Z</time>
      </trkpt>
      <trkpt lat="47.69363" lon="-2.36453">
        <ele>115.8</ele>
        <time>2015-05-17T06:57:51Z</time>
      </trkpt>
      <trkpt lat="47.69371" lon="-2.36448">
        <ele>115.7</ele>
        <time>2015-05-17T06:57:56Z</time>
      </trkpt>
      <trkpt lat="47.69378" lon="-2.36445">
        <ele>115.7</ele>
        <time>2015-05-17T06:58:02Z</time>
      </trkpt>
      <trkpt lat="47.69386" lon="-2.36442">
        <ele>115.7</ele>
        <time>2015-05-17T06:58:07Z</time>
      </trkpt>
      <trkpt lat="47.69393" lon="-2.36439">
        <ele>115.6</ele>
        <time>2015-05-17T06:58:12Z</time>
      </trkpt>
      <trkpt lat="47.694" lon="-2.36436">
        <ele>115.5</ele>
        <time>2015-05-17T06:58:19Z</time>
      </trkpt>
      <trkpt lat="47.6941" lon="-2.36438">
        <ele>115.4</ele>
        <time>2015-05-17T06:58:24Z</time>
      </trkpt>
      <trkpt lat="47.69417" lon="-2.36433">
        <ele>115.3</ele>
        <time>2015-05-17T06:58:29Z</time>
      </trkpt>
      <trkpt lat="47.69424" lon="-2.36432">
        <ele>115.2</ele>
        <time>2015-05-17T06:58:33Z</time>
      </trkpt>
      <trkpt lat="47.69431" lon="-2.36428">
        <ele>115</ele>
        <time>2015-05-17T06:58:39Z</time>
      </trkpt>
      <trkpt lat="47.69439" lon="-2.36423">
        <ele>114.4</ele>
        <time>2015-05-17T06:58:45Z</time>
      </trkpt>
      <trkpt lat="47.69447" lon="-2.3642">
        <ele>113.9</ele>
        <time>2015-05-17T06:58:51Z</time>
      </trkpt>
      <trkpt lat="47.69455" lon="-2.36418">
        <ele>113.5</ele>
        <time>2015-05-17T06:58:56Z</time>
      </trkpt>
      <trkpt lat="47.69462" lon="-2.36418">
        <ele>113</ele>
        <time>2015-05-17T06:59:00Z</time>
      </trkpt>
      <trkpt lat="47.69469" lon="-2.36415">
        <ele>112.3</ele>
        <time>2015-05-17T06:59:05Z</time>
      </trkpt>
      <trkpt lat="47.69476" lon="-2.36412">
        <ele>111.6</ele>
        <time>2015-05-17T06:59:11Z</time>
      </trkpt>
      <trkpt lat="47.69484" lon="-2.36409">
        <ele>111</ele>
        <time>2015-05-17T06:59:16Z</time>
      </trkpt>
      <trkpt lat="47.69492" lon="-2.36406">
        <ele>110</ele>
        <time>2015-05-17T06:59:22Z</time>
      </trkpt>
      <trkpt lat="47.695" lon="-2.36403">
        <ele>109.4</ele>
        <time>2015-05-17T06:59:28Z</time>
      </trkpt>
      <trkpt lat="47.69507" lon="-2.36401">
        <ele>108.8</ele>
        <time>2015-05-17T06:59:33Z</time>
      </trkpt>
      <trkpt lat="47.69514" lon="-2.36401">
        <ele>107.1</ele>
        <time>2015-05-17T06:59:37Z</time>
      </trkpt>
      <trkpt lat="47.69523" lon="-2.36401">
        <ele>105.2</ele>
        <time>2015-05-17T06:59:44Z</time>
      </trkpt>
      <trkpt lat="47.6953" lon="-2.36399">
        <ele>104.1</ele>
        <time>2015-05-17T06:59:49Z</time>
      </trkpt>
      <trkpt lat="47.69538" lon="-2.36399">
        <ele>102.9</ele>
        <time>2015-05-17T06:59:54Z</time>
      </trkpt>
      <trkpt lat="47.69546" lon="-2.36399">
        <ele>101.9</ele>
        <time>2015-05-17T07:00:00Z</time>
      </trkpt>
      <trkpt lat="47.69554" lon="-2.36399">
        <ele>101.5</ele>
        <time>2015-05-17T07:00:03Z</time>
      </trkpt>
      <trkpt lat="47.6956" lon="-2.36395">
        <ele>101.2</ele>
        <time>2015-05-17T07:00:08Z</time>
      </trkpt>
      <trkpt lat="47.69568" lon="-2.36392">
        <ele>100.6</ele>
        <time>2015-05-17T07:00:14Z</time>
      </trkpt>
      <trkpt lat="47.69576" lon="-2.36391">
        <ele>98.9</ele>
        <time>2015-05-17T07:00:21Z</time>
      </trkpt>
      <trkpt lat="47.69583" lon="-2.36386">
        <ele>95.2</ele>
        <time>2015-05-17T07:00:27Z</time>
      </trkpt>
      <trkpt lat="47.6959" lon="-2.36381">
        <ele>92.3</ele>
        <time>2015-05-17T07:00:34Z</time>
      </trkpt>
      <trkpt lat="47.69597" lon="-2.36379">
        <ele>91.3</ele>
        <time>2015-05-17T07:00:38Z</time>
      </trkpt>
      <trkpt lat="47.69604" lon="-2.36378">
        <ele>88.9</ele>
        <time>2015-05-17T07:00:45Z</time>
      </trkpt>
      <trkpt lat="47.69609" lon="-2.36374">
        <ele>86.1</ele>
        <time>2015-05-17T07:00:52Z</time>
      </trkpt>
      <trkpt lat="47.6961" lon="-2.36376">
        <ele>85</ele>
        <time>2015-05-17T07:00:59Z</time>
      </trkpt>
      <trkpt lat="47.69611" lon="-2.36379">
        <ele>81.1</ele>
        <time>2015-05-17T07:01:16Z</time>
      </trkpt>
      <trkpt lat="47.69619" lon="-2.36377">
        <ele>77.7</ele>
        <time>2015-05-17T07:01:22Z</time>
      </trkpt>
      <trkpt lat="47.69621" lon="-2.36376">
        <ele>76.3</ele>
        <time>2015-05-17T07:01:29Z</time>
      </trkpt>
      <trkpt lat="47.69621" lon="-2.36372">
        <ele>75.7</ele>
        <time>2015-05-17T07:04:00Z</time>
      </trkpt>
      <trkpt lat="47.69617" lon="-2.36378">
        <ele>75.6</ele>
        <time>2015-05-17T07:04:57Z</time>
      </trkpt>
      <trkpt lat="47.69611" lon="-2.36378">
        <ele>75.5</ele>
        <time>2015-05-17T07:05:16Z</time>
      </trkpt>
      <trkpt lat="47.6961" lon="-2.36371">
        <ele>75.5</ele>
        <time>2015-05-17T07:05:23Z</time>
      </trkpt>
      <trkpt lat="47.69611" lon="-2.36371">
        <ele>75.6</ele>
        <time>2015-05-17T07:05:30Z</time>
      </trkpt>
      <trkpt lat="47.69617" lon="-2.36376">
        <ele>75.2</ele>
        <time>2015-05-17T07:05:44Z</time>
      </trkpt>
      <trkpt lat="47.69618" lon="-2.36376">
        <ele>75.1</ele>
        <time>2015-05-17T07:05:51Z</time>
      </trkpt>
      <trkpt lat="47.69624" lon="-2.36378">
        <ele>74.1</ele>
        <time>2015-05-17T07:06:02Z</time>
      </trkpt>
      <trkpt lat="47.69625" lon="-2.364">
        <ele>71.4</ele>
        <time>2015-05-17T07:12:22Z</time>
      </trkpt>
      <trkpt lat="47.69622" lon="-2.36408">
        <ele>71.8</ele>
        <time>2015-05-17T07:12:29Z</time>
      </trkpt>
      <trkpt lat="47.69617" lon="-2.36417">
        <ele>71.5</ele>
        <time>2015-05-17T07:12:36Z</time>
      </trkpt>
      <trkpt lat="47.69616" lon="-2.36427">
        <ele>71.2</ele>
        <time>2015-05-17T07:12:43Z</time>
      </trkpt>
      <trkpt lat="47.69618" lon="-2.36437">
        <ele>71.1</ele>
        <time>2015-05-17T07:12:49Z</time>
      </trkpt>
      <trkpt lat="47.69624" lon="-2.36447">
        <ele>70.9</ele>
        <time>2015-05-17T07:12:54Z</time>
      </trkpt>
      <trkpt lat="47.69628" lon="-2.36456">
        <ele>70.7</ele>
        <time>2015-05-17T07:12:59Z</time>
      </trkpt>
      <trkpt lat="47.69629" lon="-2.36467">
        <ele>70.6</ele>
        <time>2015-05-17T07:13:06Z</time>
      </trkpt>
      <trkpt lat="47.69631" lon="-2.36477">
        <ele>70.5</ele>
        <time>2015-05-17T07:13:12Z</time>
      </trkpt>
      <trkpt lat="47.69634" lon="-2.36489">
        <ele>70.2</ele>
        <time>2015-05-17T07:13:19Z</time>
      </trkpt>
      <trkpt lat="47.69639" lon="-2.36499">
        <ele>70.1</ele>
        <time>2015-05-17T07:13:24Z</time>
      </trkpt>
      <trkpt lat="47.69642" lon="-2.36509">
        <ele>69.9</ele>
        <time>2015-05-17T07:13:31Z</time>
      </trkpt>
      <trkpt lat="47.69646" lon="-2.36519">
        <ele>69.6</ele>
        <time>2015-05-17T07:13:37Z</time>
      </trkpt>
      <trkpt lat="47.69649" lon="-2.36528">
        <ele>69.4</ele>
        <time>2015-05-17T07:13:42Z</time>
      </trkpt>
      <trkpt lat="47.69654" lon="-2.36537">
        <ele>69</ele>
        <time>2015-05-17T07:13:49Z</time>
      </trkpt>
      <trkpt lat="47.69659" lon="-2.36546">
        <ele>68.7</ele>
        <time>2015-05-17T07:13:55Z</time>
      </trkpt>
      <trkpt lat="47.69662" lon="-2.36555">
        <ele>68.4</ele>
        <time>2015-05-17T07:14:02Z</time>
      </trkpt>
      <trkpt lat="47.69667" lon="-2.36564">
        <ele>68.2</ele>
        <time>2015-05-17T07:14:08Z</time>
      </trkpt>
      <trkpt lat="47.69671" lon="-2.36574">
        <ele>68.2</ele>
        <time>2015-05-17T07:14:14Z</time>
      </trkpt>
      <trkpt lat="47.69674" lon="-2.36584">
        <ele>67.9</ele>
        <time>2015-05-17T07:14:19Z</time>
      </trkpt>
      <trkpt lat="47.69678" lon="-2.36594">
        <ele>67.5</ele>
        <time>2015-05-17T07:14:25Z</time>
      </trkpt>
      <trkpt lat="47.69681" lon="-2.36605">
        <ele>66.5</ele>
        <time>2015-05-17T07:14:31Z</time>
      </trkpt>
      <trkpt lat="47.69684" lon="-2.36617">
        <ele>65.6</ele>
        <time>2015-05-17T07:14:38Z</time>
      </trkpt>
      <trkpt lat="47.69687" lon="-2.36627">
        <ele>65.5</ele>
        <time>2015-05-17T07:14:44Z</time>
      </trkpt>
      <trkpt lat="47.69691" lon="-2.36638">
        <ele>65.1</ele>
        <time>2015-05-17T07:14:50Z</time>
      </trkpt>
      <trkpt lat="47.69693" lon="-2.3665">
        <ele>64.6</ele>
        <time>2015-05-17T07:14:56Z</time>
      </trkpt>
      <trkpt lat="47.69696" lon="-2.36659">
        <ele>64.3</ele>
        <time>2015-05-17T07:15:03Z</time>
      </trkpt>
      <trkpt lat="47.69697" lon="-2.3667">
        <ele>63.9</ele>
        <time>2015-05-17T07:15:09Z</time>
      </trkpt>
      <trkpt lat="47.69702" lon="-2.36679">
        <ele>63.5</ele>
        <time>2015-05-17T07:15:15Z</time>
      </trkpt>
      <trkpt lat="47.69704" lon="-2.36689">
        <ele>63.6</ele>
        <time>2015-05-17T07:15:20Z</time>
      </trkpt>
      <trkpt lat="47.69705" lon="-2.367">
        <ele>63.6</ele>
        <time>2015-05-17T07:15:26Z</time>
      </trkpt>
      <trkpt lat="47.697" lon="-2.3671">
        <ele>63.1</ele>
        <time>2015-05-17T07:15:30Z</time>
      </trkpt>
      <trkpt lat="47.69698" lon="-2.36721">
        <ele>62.7</ele>
        <time>2015-05-17T07:15:37Z</time>
      </trkpt>
      <trkpt lat="47.697" lon="-2.36733">
        <ele>62.4</ele>
        <time>2015-05-17T07:15:43Z</time>
      </trkpt>
      <trkpt lat="47.697" lon="-2.36744">
        <ele>62</ele>
        <time>2015-05-17T07:15:50Z</time>
      </trkpt>
      <trkpt lat="47.69697" lon="-2.36754">
        <ele>61.8</ele>
        <time>2015-05-17T07:15:57Z</time>
      </trkpt>
      <trkpt lat="47.69701" lon="-2.36764">
        <ele>62.1</ele>
        <time>2015-05-17T07:16:02Z</time>
      </trkpt>
      <trkpt lat="47.697" lon="-2.36776">
        <ele>62.7</ele>
        <time>2015-05-17T07:16:07Z</time>
      </trkpt>
      <trkpt lat="47.69697" lon="-2.36787">
        <ele>63</ele>
        <time>2015-05-17T07:16:14Z</time>
      </trkpt>
      <trkpt lat="47.69695" lon="-2.36798">
        <ele>63.4</ele>
        <time>2015-05-17T07:16:21Z</time>
      </trkpt>
      <trkpt lat="47.69696" lon="-2.36808">
        <ele>63.5</ele>
        <time>2015-05-17T07:16:27Z</time>
      </trkpt>
      <trkpt lat="47.69695" lon="-2.3682">
        <ele>63.4</ele>
        <time>2015-05-17T07:16:33Z</time>
      </trkpt>
      <trkpt lat="47.69696" lon="-2.36833">
        <ele>63</ele>
        <time>2015-05-17T07:16:39Z</time>
      </trkpt>
      <trkpt lat="47.69697" lon="-2.36843">
        <ele>63.3</ele>
        <time>2015-05-17T07:16:44Z</time>
      </trkpt>
      <trkpt lat="47.697" lon="-2.36853">
        <ele>64</ele>
        <time>2015-05-17T07:16:50Z</time>
      </trkpt>
      <trkpt lat="47.697" lon="-2.36864">
        <ele>63.9</ele>
        <time>2015-05-17T07:16:55Z</time>
      </trkpt>
      <trkpt lat="47.69697" lon="-2.36875">
        <ele>63.7</ele>
        <time>2015-05-17T07:17:01Z</time>
      </trkpt>
      <trkpt lat="47.69697" lon="-2.36888">
        <ele>63.8</ele>
        <time>2015-05-17T07:17:07Z</time>
      </trkpt>
      <trkpt lat="47.69697" lon="-2.36897">
        <ele>64</ele>
        <time>2015-05-17T07:17:14Z</time>
      </trkpt>
      <trkpt lat="47.69698" lon="-2.3691">
        <ele>63.8</ele>
        <time>2015-05-17T07:17:20Z</time>
      </trkpt>
      <trkpt lat="47.697" lon="-2.36922">
        <ele>63.8</ele>
        <time>2015-05-17T07:17:27Z</time>
      </trkpt>
      <trkpt lat="47.69701" lon="-2.36934">
        <ele>63.7</ele>
        <time>2015-05-17T07:17:33Z</time>
      </trkpt>
      <trkpt lat="47.69701" lon="-2.36944">
        <ele>63</ele>
        <time>2015-05-17T07:17:40Z</time>
      </trkpt>
      <trkpt lat="47.69703" lon="-2.36954">
        <ele>63.7</ele>
        <time>2015-05-17T07:17:47Z</time>
      </trkpt>
      <trkpt lat="47.69704" lon="-2.36965">
        <ele>64.2</ele>
        <time>2015-05-17T07:17:54Z</time>
      </trkpt>
      <trkpt lat="47.69705" lon="-2.36974">
        <ele>64.1</ele>
        <time>2015-05-17T07:18:01Z</time>
      </trkpt>
      <trkpt lat="47.69708" lon="-2.36984">
        <ele>64.3</ele>
        <time>2015-05-17T07:18:08Z</time>
      </trkpt>
      <trkpt lat="47.6971" lon="-2.36993">
        <ele>64.8</ele>
        <time>2015-05-17T07:18:15Z</time>
      </trkpt>
      <trkpt lat="47.6971" lon="-2.37003">
        <ele>65.2</ele>
        <time>2015-05-17T07:18:22Z</time>
      </trkpt>
      <trkpt lat="47.69711" lon="-2.37013">
        <ele>65.8</ele>
        <time>2015-05-17T07:18:28Z</time>
      </trkpt>
      <trkpt lat="47.69712" lon="-2.37025">
        <ele>66.4</ele>
        <time>2015-05-17T07:18:34Z</time>
      </trkpt>
      <trkpt lat="47.69713" lon="-2.37037">
        <ele>66.2</ele>
        <time>2015-05-17T07:18:41Z</time>
      </trkpt>
      <trkpt lat="47.69713" lon="-2.37049">
        <ele>66.5</ele>
        <time>2015-05-17T07:18:48Z</time>
      </trkpt>
      <trkpt lat="47.69715" lon="-2.37058">
        <ele>67.2</ele>
        <time>2015-05-17T07:18:55Z</time>
      </trkpt>
      <trkpt lat="47.69717" lon="-2.3707">
        <ele>67.5</ele>
        <time>2015-05-17T07:19:02Z</time>
      </trkpt>
      <trkpt lat="47.69718" lon="-2.37082">
        <ele>67.8</ele>
        <time>2015-05-17T07:19:09Z</time>
      </trkpt>
      <trkpt lat="47.69722" lon="-2.37092">
        <ele>68</ele>
        <time>2015-05-17T07:19:14Z</time>
      </trkpt>
      <trkpt lat="47.69723" lon="-2.37104">
        <ele>68.1</ele>
        <time>2015-05-17T07:19:21Z</time>
      </trkpt>
      <trkpt lat="47.69725" lon="-2.37114">
        <ele>68.1</ele>
        <time>2015-05-17T07:19:27Z</time>
      </trkpt>
      <trkpt lat="47.69724" lon="-2.37125">
        <ele>68.4</ele>
        <time>2015-05-17T07:19:34Z</time>
      </trkpt>
      <trkpt lat="47.69726" lon="-2.37137">
        <ele>68.4</ele>
        <time>2015-05-17T07:19:41Z</time>
      </trkpt>
      <trkpt lat="47.69725" lon="-2.37149">
        <ele>68.5</ele>
        <time>2015-05-17T07:19:46Z</time>
      </trkpt>
      <trkpt lat="47.69726" lon="-2.37161">
        <ele>68.3</ele>
        <time>2015-05-17T07:19:52Z</time>
      </trkpt>
      <trkpt lat="47.69726" lon="-2.37172">
        <ele>68.2</ele>
        <time>2015-05-17T07:19:57Z</time>
      </trkpt>
      <trkpt lat="47.69725" lon="-2.37181">
        <ele>68.2</ele>
        <time>2015-05-17T07:20:04Z</time>
      </trkpt>
      <trkpt lat="47.69726" lon="-2.37193">
        <ele>68.3</ele>
        <time>2015-05-17T07:20:10Z</time>
      </trkpt>
      <trkpt lat="47.69725" lon="-2.37205">
        <ele>68.2</ele>
        <time>2015-05-17T07:20:15Z</time>
      </trkpt>
      <trkpt lat="47.6972" lon="-2.37214">
        <ele>67.7</ele>
        <time>2015-05-17T07:20:20Z</time>
      </trkpt>
      <trkpt lat="47.69721" lon="-2.37225">
        <ele>66.9</ele>
        <time>2015-05-17T07:20:26Z</time>
      </trkpt>
      <trkpt lat="47.69724" lon="-2.37236">
        <ele>66.6</ele>
        <time>2015-05-17T07:20:32Z</time>
      </trkpt>
      <trkpt lat="47.69722" lon="-2.37247">
        <ele>66</ele>
        <time>2015-05-17T07:20:39Z</time>
      </trkpt>
      <trkpt lat="47.69721" lon="-2.37259">
        <ele>65.8</ele>
        <time>2015-05-17T07:20:45Z</time>
      </trkpt>
      <trkpt lat="47.69719" lon="-2.37271">
        <ele>65.1</ele>
        <time>2015-05-17T07:20:51Z</time>
      </trkpt>
      <trkpt lat="47.6972" lon="-2.37282">
        <ele>64.5</ele>
        <time>2015-05-17T07:20:58Z</time>
      </trkpt>
      <trkpt lat="47.69721" lon="-2.37292">
        <ele>64.1</ele>
        <time>2015-05-17T07:21:05Z</time>
      </trkpt>
      <trkpt lat="47.6972" lon="-2.37305">
        <ele>63.5</ele>
        <time>2015-05-17T07:21:11Z</time>
      </trkpt>
      <trkpt lat="47.69717" lon="-2.37316">
        <ele>63.2</ele>
        <time>2015-05-17T07:21:16Z</time>
      </trkpt>
      <trkpt lat="47.69717" lon="-2.37328">
        <ele>62.8</ele>
        <time>2015-05-17T07:21:21Z</time>
      </trkpt>
      <trkpt lat="47.6972" lon="-2.37338">
        <ele>62.3</ele>
        <time>2015-05-17T07:21:28Z</time>
      </trkpt>
      <trkpt lat="47.69721" lon="-2.37349">
        <ele>61.7</ele>
        <time>2015-05-17T07:21:35Z</time>
      </trkpt>
      <trkpt lat="47.69724" lon="-2.3736">
        <ele>61.2</ele>
        <time>2015-05-17T07:21:42Z</time>
      </trkpt>
      <trkpt lat="47.69727" lon="-2.37371">
        <ele>61.3</ele>
        <time>2015-05-17T07:21:46Z</time>
      </trkpt>
      <trkpt lat="47.69726" lon="-2.37382">
        <ele>61.5</ele>
        <time>2015-05-17T07:21:50Z</time>
      </trkpt>
      <trkpt lat="47.69729" lon="-2.37394">
        <ele>60.8</ele>
        <time>2015-05-17T07:21:57Z</time>
      </trkpt>
      <trkpt lat="47.69735" lon="-2.37404">
        <ele>60.8</ele>
        <time>2015-05-17T07:22:02Z</time>
      </trkpt>
      <trkpt lat="47.69738" lon="-2.37414">
        <ele>61.1</ele>
        <time>2015-05-17T07:22:07Z</time>
      </trkpt>
      <trkpt lat="47.69741" lon="-2.37421">
        <ele>61</ele>
        <time>2015-05-17T07:22:14Z</time>
      </trkpt>
      <trkpt lat="47.69744" lon="-2.37433">
        <ele>60.6</ele>
        <time>2015-05-17T07:22:20Z</time>
      </trkpt>
      <trkpt lat="47.69747" lon="-2.37443">
        <ele>60.6</ele>
        <time>2015-05-17T07:22:27Z</time>
      </trkpt>
      <trkpt lat="47.6975" lon="-2.37455">
        <ele>60.7</ele>
        <time>2015-05-17T07:22:33Z</time>
      </trkpt>
      <trkpt lat="47.69752" lon="-2.37466">
        <ele>60.4</ele>
        <time>2015-05-17T07:22:39Z</time>
      </trkpt>
      <trkpt lat="47.69755" lon="-2.37477">
        <ele>60.8</ele>
        <time>2015-05-17T07:22:45Z</time>
      </trkpt>
      <trkpt lat="47.69756" lon="-2.37489">
        <ele>60.8</ele>
        <time>2015-05-17T07:22:50Z</time>
      </trkpt>
      <trkpt lat="47.69759" lon="-2.37499">
        <ele>60</ele>
        <time>2015-05-17T07:22:56Z</time>
      </trkpt>
      <trkpt lat="47.6976" lon="-2.37511">
        <ele>60</ele>
        <time>2015-05-17T07:23:02Z</time>
      </trkpt>
      <trkpt lat="47.69762" lon="-2.37524">
        <ele>59.7</ele>
        <time>2015-05-17T07:23:09Z</time>
      </trkpt>
      <trkpt lat="47.69763" lon="-2.37532">
        <ele>59.7</ele>
        <time>2015-05-17T07:23:16Z</time>
      </trkpt>
      <trkpt lat="47.69768" lon="-2.37541">
        <ele>59.6</ele>
        <time>2015-05-17T07:23:23Z</time>
      </trkpt>
      <trkpt lat="47.69772" lon="-2.37552">
        <ele>59.3</ele>
        <time>2015-05-17T07:23:29Z</time>
      </trkpt>
      <trkpt lat="47.69775" lon="-2.37566">
        <ele>59.1</ele>
        <time>2015-05-17T07:23:34Z</time>
      </trkpt>
      <trkpt lat="47.69776" lon="-2.37578">
        <ele>58.9</ele>
        <time>2015-05-17T07:23:41Z</time>
      </trkpt>
      <trkpt lat="47.69777" lon="-2.37589">
        <ele>59.2</ele>
        <time>2015-05-17T07:23:45Z</time>
      </trkpt>
      <trkpt lat="47.69778" lon="-2.376">
        <ele>59.9</ele>
        <time>2015-05-17T07:23:51Z</time>
      </trkpt>
      <trkpt lat="47.6978" lon="-2.37622">
        <ele>61</ele>
        <time>2015-05-17T07:24:05Z</time>
      </trkpt>
      <trkpt lat="47.6978" lon="-2.37634">
        <ele>61.5</ele>
        <time>2015-05-17T07:24:12Z</time>
      </trkpt>
      <trkpt lat="47.69782" lon="-2.37644">
        <ele>61.4</ele>
        <time>2015-05-17T07:24:19Z</time>
      </trkpt>
      <trkpt lat="47.69779" lon="-2.37655">
        <ele>61.9</ele>
        <time>2015-05-17T07:24:25Z</time>
      </trkpt>
      <trkpt lat="47.6978" lon="-2.37667">
        <ele>62.7</ele>
        <time>2015-05-17T07:24:32Z</time>
      </trkpt>
      <trkpt lat="47.69781" lon="-2.37681">
        <ele>62.5</ele>
        <time>2015-05-17T07:24:37Z</time>
      </trkpt>
      <trkpt lat="47.69782" lon="-2.37692">
        <ele>62.5</ele>
        <time>2015-05-17T07:24:42Z</time>
      </trkpt>
      <trkpt lat="47.69784" lon="-2.37702">
        <ele>63.1</ele>
        <time>2015-05-17T07:24:48Z</time>
      </trkpt>
      <trkpt lat="47.69784" lon="-2.37713">
        <ele>64.1</ele>
        <time>2015-05-17T07:24:54Z</time>
      </trkpt>
      <trkpt lat="47.69787" lon="-2.37722">
        <ele>64.5</ele>
        <time>2015-05-17T07:25:01Z</time>
      </trkpt>
      <trkpt lat="47.69791" lon="-2.37731">
        <ele>65</ele>
        <time>2015-05-17T07:25:06Z</time>
      </trkpt>
      <trkpt lat="47.69796" lon="-2.3774">
        <ele>65.5</ele>
        <time>2015-05-17T07:25:12Z</time>
      </trkpt>
      <trkpt lat="47.69799" lon="-2.3775">
        <ele>66.1</ele>
        <time>2015-05-17T07:25:19Z</time>
      </trkpt>
      <trkpt lat="47.698" lon="-2.37753">
        <ele>66.8</ele>
        <time>2015-05-17T07:25:26Z</time>
      </trkpt>
      <trkpt lat="47.69803" lon="-2.37762">
        <ele>66.8</ele>
        <time>2015-05-17T07:25:36Z</time>
      </trkpt>
      <trkpt lat="47.69803" lon="-2.37771">
        <ele>66.8</ele>
        <time>2015-05-17T07:25:43Z</time>
      </trkpt>
      <trkpt lat="47.69802" lon="-2.37776">
        <ele>67</ele>
        <time>2015-05-17T07:25:50Z</time>
      </trkpt>
      <trkpt lat="47.69802" lon="-2.37783">
        <ele>66.8</ele>
        <time>2015-05-17T07:25:57Z</time>
      </trkpt>
      <trkpt lat="47.69802" lon="-2.37792">
        <ele>66.6</ele>
        <time>2015-05-17T07:26:04Z</time>
      </trkpt>
      <trkpt lat="47.69801" lon="-2.37801">
        <ele>66.6</ele>
        <time>2015-05-17T07:26:11Z</time>
      </trkpt>
      <trkpt lat="47.69801" lon="-2.3781">
        <ele>66.5</ele>
        <time>2015-05-17T07:26:18Z</time>
      </trkpt>
      <trkpt lat="47.69801" lon="-2.37819">
        <ele>66.3</ele>
        <time>2015-05-17T07:26:25Z</time>
      </trkpt>
      <trkpt lat="47.69801" lon="-2.37828">
        <ele>66.1</ele>
        <time>2015-05-17T07:26:32Z</time>
      </trkpt>
      <trkpt lat="47.69801" lon="-2.37837">
        <ele>65.9</ele>
        <time>2015-05-17T07:26:39Z</time>
      </trkpt>
      <trkpt lat="47.698" lon="-2.37842">
        <ele>65.8</ele>
        <time>2015-05-17T07:26:46Z</time>
      </trkpt>
      <trkpt lat="47.69799" lon="-2.37852">
        <ele>66</ele>
        <time>2015-05-17T07:26:53Z</time>
      </trkpt>
      <trkpt lat="47.698" lon="-2.37863">
        <ele>65.8</ele>
        <time>2015-05-17T07:27:00Z</time>
      </trkpt>
      <trkpt lat="47.698" lon="-2.3787">
        <ele>65.8</ele>
        <time>2015-05-17T07:27:07Z</time>
      </trkpt>
      <trkpt lat="47.69801" lon="-2.37879">
        <ele>65.8</ele>
        <time>2015-05-17T07:27:14Z</time>
      </trkpt>
      <trkpt lat="47.698" lon="-2.3789">
        <ele>66</ele>
        <time>2015-05-17T07:27:21Z</time>
      </trkpt>
      <trkpt lat="47.69799" lon="-2.37899">
        <ele>66.1</ele>
        <time>2015-05-17T07:27:28Z</time>
      </trkpt>
      <trkpt lat="47.69803" lon="-2.37909">
        <ele>66.1</ele>
        <time>2015-05-17T07:27:35Z</time>
      </trkpt>
      <trkpt lat="47.69803" lon="-2.37918">
        <ele>66</ele>
        <time>2015-05-17T07:27:42Z</time>
      </trkpt>
      <trkpt lat="47.69802" lon="-2.37929">
        <ele>66.1</ele>
        <time>2015-05-17T07:27:49Z</time>
      </trkpt>
      <trkpt lat="47.69806" lon="-2.37938">
        <ele>66.3</ele>
        <time>2015-05-17T07:27:56Z</time>
      </trkpt>
      <trkpt lat="47.69809" lon="-2.37947">
        <ele>66.2</ele>
        <time>2015-05-17T07:28:03Z</time>
      </trkpt>
      <trkpt lat="47.69814" lon="-2.37955">
        <ele>66.4</ele>
        <time>2015-05-17T07:28:10Z</time>
      </trkpt>
      <trkpt lat="47.69819" lon="-2.37964">
        <ele>66.5</ele>
        <time>2015-05-17T07:28:17Z</time>
      </trkpt>
      <trkpt lat="47.69825" lon="-2.37966">
        <ele>66.5</ele>
        <time>2015-05-17T07:28:24Z</time>
      </trkpt>
      <trkpt lat="47.69832" lon="-2.37973">
        <ele>66.3</ele>
        <time>2015-05-17T07:28:30Z</time>
      </trkpt>
      <trkpt lat="47.69836" lon="-2.37977">
        <ele>66.7</ele>
        <time>2015-05-17T07:28:37Z</time>
      </trkpt>
      <trkpt lat="47.69843" lon="-2.37981">
        <ele>67.1</ele>
        <time>2015-05-17T07:28:44Z</time>
      </trkpt>
      <trkpt lat="47.69849" lon="-2.37988">
        <ele>67.3</ele>
        <time>2015-05-17T07:28:51Z</time>
      </trkpt>
      <trkpt lat="47.69854" lon="-2.37996">
        <ele>67.4</ele>
        <time>2015-05-17T07:28:57Z</time>
      </trkpt>
      <trkpt lat="47.69858" lon="-2.38006">
        <ele>67.5</ele>
        <time>2015-05-17T07:29:03Z</time>
      </trkpt>
      <trkpt lat="47.69861" lon="-2.38014">
        <ele>67.8</ele>
        <time>2015-05-17T07:29:10Z</time>
      </trkpt>
      <trkpt lat="47.69863" lon="-2.38013">
        <ele>68.6</ele>
        <time>2015-05-17T07:29:17Z</time>
      </trkpt>
      <trkpt lat="47.69863" lon="-2.38015">
        <ele>69.8</ele>
        <time>2015-05-17T07:29:24Z</time>
      </trkpt>
      <trkpt lat="47.69862" lon="-2.38027">
        <ele>70.5</ele>
        <time>2015-05-17T07:30:24Z</time>
      </trkpt>
      <trkpt lat="47.69863" lon="-2.38037">
        <ele>70.6</ele>
        <time>2015-05-17T07:30:29Z</time>
      </trkpt>
      <trkpt lat="47.69868" lon="-2.38047">
        <ele>71.1</ele>
        <time>2015-05-17T07:30:34Z</time>
      </trkpt>
      <trkpt lat="47.69874" lon="-2.38052">
        <ele>72.2</ele>
        <time>2015-05-17T07:30:39Z</time>
      </trkpt>
      <trkpt lat="47.69881" lon="-2.38054">
        <ele>72.9</ele>
        <time>2015-05-17T07:30:46Z</time>
      </trkpt>
      <trkpt lat="47.69888" lon="-2.38055">
        <ele>74.1</ele>
        <time>2015-05-17T07:30:53Z</time>
      </trkpt>
      <trkpt lat="47.69895" lon="-2.38058">
        <ele>75</ele>
        <time>2015-05-17T07:31:00Z</time>
      </trkpt>
      <trkpt lat="47.69903" lon="-2.38059">
        <ele>75.6</ele>
        <time>2015-05-17T07:31:06Z</time>
      </trkpt>
      <trkpt lat="47.6991" lon="-2.38061">
        <ele>76.3</ele>
        <time>2015-05-17T07:31:13Z</time>
      </trkpt>
      <trkpt lat="47.69918" lon="-2.38064">
        <ele>77.2</ele>
        <time>2015-05-17T07:31:19Z</time>
      </trkpt>
      <trkpt lat="47.69926" lon="-2.38066">
        <ele>77.7</ele>
        <time>2015-05-17T07:31:25Z</time>
      </trkpt>
      <trkpt lat="47.69934" lon="-2.38069">
        <ele>78.5</ele>
        <time>2015-05-17T07:31:32Z</time>
      </trkpt>
      <trkpt lat="47.69942" lon="-2.38073">
        <ele>78.9</ele>
        <time>2015-05-17T07:31:39Z</time>
      </trkpt>
      <trkpt lat="47.69949" lon="-2.38078">
        <ele>79.1</ele>
        <time>2015-05-17T07:31:45Z</time>
      </trkpt>
      <trkpt lat="47.69955" lon="-2.38084">
        <ele>79.4</ele>
        <time>2015-05-17T07:31:52Z</time>
      </trkpt>
      <trkpt lat="47.69961" lon="-2.38093">
        <ele>79.5</ele>
        <time>2015-05-17T07:31:58Z</time>
      </trkpt>
      <trkpt lat="47.69966" lon="-2.38103">
        <ele>79.6</ele>
        <time>2015-05-17T07:32:04Z</time>
      </trkpt>
      <trkpt lat="47.69972" lon="-2.38109">
        <ele>79.6</ele>
        <time>2015-05-17T07:32:08Z</time>
      </trkpt>
      <trkpt lat="47.69979" lon="-2.38113">
        <ele>79.5</ele>
        <time>2015-05-17T07:32:13Z</time>
      </trkpt>
      <trkpt lat="47.69987" lon="-2.38114">
        <ele>79.6</ele>
        <time>2015-05-17T07:32:20Z</time>
      </trkpt>
      <trkpt lat="47.69992" lon="-2.38115">
        <ele>80.2</ele>
        <time>2015-05-17T07:32:27Z</time>
      </trkpt>
      <trkpt lat="47.7" lon="-2.38114">
        <ele>80.6</ele>
        <time>2015-05-17T07:32:34Z</time>
      </trkpt>
      <trkpt lat="47.70008" lon="-2.38112">
        <ele>76.8</ele>
        <time>2015-05-17T07:32:41Z</time>
      </trkpt>
      <trkpt lat="47.70015" lon="-2.38111">
        <ele>75.2</ele>
        <time>2015-05-17T07:32:47Z</time>
      </trkpt>
      <trkpt lat="47.70024" lon="-2.3811">
        <ele>73.1</ele>
        <time>2015-05-17T07:32:52Z</time>
      </trkpt>
      <trkpt lat="47.70032" lon="-2.3811">
        <ele>71.4</ele>
        <time>2015-05-17T07:32:59Z</time>
      </trkpt>
      <trkpt lat="47.7004" lon="-2.38109">
        <ele>71</ele>
        <time>2015-05-17T07:33:04Z</time>
      </trkpt>
      <trkpt lat="47.70048" lon="-2.38108">
        <ele>70.9</ele>
        <time>2015-05-17T07:33:10Z</time>
      </trkpt>
      <trkpt lat="47.70055" lon="-2.38106">
        <ele>71.5</ele>
        <time>2015-05-17T07:33:16Z</time>
      </trkpt>
      <trkpt lat="47.70062" lon="-2.38106">
        <ele>71</ele>
        <time>2015-05-17T07:33:23Z</time>
      </trkpt>
      <trkpt lat="47.70069" lon="-2.38106">
        <ele>70.1</ele>
        <time>2015-05-17T07:33:29Z</time>
      </trkpt>
      <trkpt lat="47.70078" lon="-2.38104">
        <ele>69.5</ele>
        <time>2015-05-17T07:33:35Z</time>
      </trkpt>
      <trkpt lat="47.70086" lon="-2.38104">
        <ele>68.8</ele>
        <time>2015-05-17T07:33:40Z</time>
      </trkpt>
      <trkpt lat="47.70092" lon="-2.38101">
        <ele>69.9</ele>
        <time>2015-05-17T07:33:47Z</time>
      </trkpt>
      <trkpt lat="47.70099" lon="-2.38098">
        <ele>69.6</ele>
        <time>2015-05-17T07:33:53Z</time>
      </trkpt>
      <trkpt lat="47.70105" lon="-2.38096">
        <ele>68.8</ele>
        <time>2015-05-17T07:34:00Z</time>
      </trkpt>
      <trkpt lat="47.70114" lon="-2.38096">
        <ele>69.6</ele>
        <time>2015-05-17T07:34:06Z</time>
      </trkpt>
      <trkpt lat="47.70122" lon="-2.38094">
        <ele>70.6</ele>
        <time>2015-05-17T07:34:11Z</time>
      </trkpt>
      <trkpt lat="47.70131" lon="-2.3809">
        <ele>70.7</ele>
        <time>2015-05-17T07:34:18Z</time>
      </trkpt>
      <trkpt lat="47.70138" lon="-2.38089">
        <ele>69.1</ele>
        <time>2015-05-17T07:34:23Z</time>
      </trkpt>
      <trkpt lat="47.70145" lon="-2.38088">
        <ele>69</ele>
        <time>2015-05-17T07:34:30Z</time>
      </trkpt>
      <trkpt lat="47.70154" lon="-2.38087">
        <ele>70.8</ele>
        <time>2015-05-17T07:34:37Z</time>
      </trkpt>
      <trkpt lat="47.7016" lon="-2.38085">
        <ele>72.4</ele>
        <time>2015-05-17T07:34:44Z</time>
      </trkpt>
      <trkpt lat="47.70168" lon="-2.38085">
        <ele>72.7</ele>
        <time>2015-05-17T07:34:51Z</time>
      </trkpt>
      <trkpt lat="47.70177" lon="-2.38084">
        <ele>72.8</ele>
        <time>2015-05-17T07:34:56Z</time>
      </trkpt>
      <trkpt lat="47.70185" lon="-2.38082">
        <ele>71.7</ele>
        <time>2015-05-17T07:35:02Z</time>
      </trkpt>
      <trkpt lat="47.70192" lon="-2.38081">
        <ele>71.5</ele>
        <time>2015-05-17T07:35:07Z</time>
      </trkpt>
      <trkpt lat="47.702" lon="-2.38086">
        <ele>71</ele>
        <time>2015-05-17T07:35:14Z</time>
      </trkpt>
      <trkpt lat="47.70208" lon="-2.38093">
        <ele>70.3</ele>
        <time>2015-05-17T07:35:19Z</time>
      </trkpt>
      <trkpt lat="47.70212" lon="-2.38103">
        <ele>68.8</ele>
        <time>2015-05-17T07:35:26Z</time>
      </trkpt>
      <trkpt lat="47.70216" lon="-2.38113">
        <ele>68.8</ele>
        <time>2015-05-17T07:35:31Z</time>
      </trkpt>
      <trkpt lat="47.70218" lon="-2.38123">
        <ele>68.5</ele>
        <time>2015-05-17T07:35:38Z</time>
      </trkpt>
      <trkpt lat="47.7022" lon="-2.38132">
        <ele>68.5</ele>
        <time>2015-05-17T07:35:45Z</time>
      </trkpt>
      <trkpt lat="47.70223" lon="-2.38142">
        <ele>68.5</ele>
        <time>2015-05-17T07:35:51Z</time>
      </trkpt>
      <trkpt lat="47.70224" lon="-2.38154">
        <ele>67.6</ele>
        <time>2015-05-17T07:35:58Z</time>
      </trkpt>
      <trkpt lat="47.70226" lon="-2.38164">
        <ele>67.7</ele>
        <time>2015-05-17T07:36:03Z</time>
      </trkpt>
      <trkpt lat="47.70229" lon="-2.38175">
        <ele>68.1</ele>
        <time>2015-05-17T07:36:10Z</time>
      </trkpt>
      <trkpt lat="47.70231" lon="-2.38188">
        <ele>68.2</ele>
        <time>2015-05-17T07:36:16Z</time>
      </trkpt>
      <trkpt lat="47.70233" lon="-2.38198">
        <ele>68</ele>
        <time>2015-05-17T07:36:22Z</time>
      </trkpt>
      <trkpt lat="47.70238" lon="-2.38209">
        <ele>67.9</ele>
        <time>2015-05-17T07:36:29Z</time>
      </trkpt>
      <trkpt lat="47.7024" lon="-2.3822">
        <ele>68</ele>
        <time>2015-05-17T07:36:34Z</time>
      </trkpt>
      <trkpt lat="47.70243" lon="-2.3823">
        <ele>68.1</ele>
        <time>2015-05-17T07:36:39Z</time>
      </trkpt>
      <trkpt lat="47.70245" lon="-2.38241">
        <ele>67.8</ele>
        <time>2015-05-17T07:36:46Z</time>
      </trkpt>
      <trkpt lat="47.70248" lon="-2.38252">
        <ele>67.4</ele>
        <time>2015-05-17T07:36:52Z</time>
      </trkpt>
      <trkpt lat="47.7025" lon="-2.38263">
        <ele>67.4</ele>
        <time>2015-05-17T07:36:57Z</time>
      </trkpt>
      <trkpt lat="47.70255" lon="-2.38273">
        <ele>66.9</ele>
        <time>2015-05-17T07:37:02Z</time>
      </trkpt>
      <trkpt lat="47.70258" lon="-2.38284">
        <ele>66.3</ele>
        <time>2015-05-17T07:37:09Z</time>
      </trkpt>
      <trkpt lat="47.70262" lon="-2.38295">
        <ele>66.5</ele>
        <time>2015-05-17T07:37:14Z</time>
      </trkpt>
      <trkpt lat="47.70264" lon="-2.38306">
        <ele>66.2</ele>
        <time>2015-05-17T07:37:21Z</time>
      </trkpt>
      <trkpt lat="47.70269" lon="-2.38317">
        <ele>66</ele>
        <time>2015-05-17T07:37:27Z</time>
      </trkpt>
      <trkpt lat="47.70272" lon="-2.38327">
        <ele>65.7</ele>
        <time>2015-05-17T07:37:32Z</time>
      </trkpt>
      <trkpt lat="47.70275" lon="-2.38335">
        <ele>65.1</ele>
        <time>2015-05-17T07:37:39Z</time>
      </trkpt>
      <trkpt lat="47.70278" lon="-2.38346">
        <ele>64.5</ele>
        <time>2015-05-17T07:37:45Z</time>
      </trkpt>
      <trkpt lat="47.70279" lon="-2.38357">
        <ele>64</ele>
        <time>2015-05-17T07:37:52Z</time>
      </trkpt>
      <trkpt lat="47.70282" lon="-2.38368">
        <ele>63.7</ele>
        <time>2015-05-17T07:37:57Z</time>
      </trkpt>
      <trkpt lat="47.70285" lon="-2.38379">
        <ele>63.9</ele>
        <time>2015-05-17T07:38:02Z</time>
      </trkpt>
      <trkpt lat="47.70288" lon="-2.3839">
        <ele>64.3</ele>
        <time>2015-05-17T07:38:09Z</time>
      </trkpt>
      <trkpt lat="47.70292" lon="-2.38401">
        <ele>65</ele>
        <time>2015-05-17T07:38:15Z</time>
      </trkpt>
      <trkpt lat="47.70299" lon="-2.38407">
        <ele>66.9</ele>
        <time>2015-05-17T07:38:21Z</time>
      </trkpt>
      <trkpt lat="47.70301" lon="-2.38418">
        <ele>67.9</ele>
        <time>2015-05-17T07:38:28Z</time>
      </trkpt>
      <trkpt lat="47.70304" lon="-2.38428">
        <ele>68.3</ele>
        <time>2015-05-17T07:38:33Z</time>
      </trkpt>
      <trkpt lat="47.70305" lon="-2.38439">
        <ele>68.7</ele>
        <time>2015-05-17T07:38:39Z</time>
      </trkpt>
      <trkpt lat="47.70307" lon="-2.38452">
        <ele>69.3</ele>
        <time>2015-05-17T07:38:45Z</time>
      </trkpt>
      <trkpt lat="47.70311" lon="-2.38463">
        <ele>69.4</ele>
        <time>2015-05-17T07:38:50Z</time>
      </trkpt>
      <trkpt lat="47.70315" lon="-2.38473">
        <ele>69.4</ele>
        <time>2015-05-17T07:38:56Z</time>
      </trkpt>
      <trkpt lat="47.70317" lon="-2.38481">
        <ele>69</ele>
        <time>2015-05-17T07:39:03Z</time>
      </trkpt>
      <trkpt lat="47.70321" lon="-2.3849">
        <ele>68.5</ele>
        <time>2015-05-17T07:39:09Z</time>
      </trkpt>
      <trkpt lat="47.70325" lon="-2.38501">
        <ele>68.9</ele>
        <time>2015-05-17T07:39:15Z</time>
      </trkpt>
      <trkpt lat="47.70328" lon="-2.38511">
        <ele>69.3</ele>
        <time>2015-05-17T07:39:21Z</time>
      </trkpt>
      <trkpt lat="47.70332" lon="-2.3852">
        <ele>69.8</ele>
        <time>2015-05-17T07:39:28Z</time>
      </trkpt>
      <trkpt lat="47.70333" lon="-2.3853">
        <ele>70</ele>
        <time>2015-05-17T07:39:34Z</time>
      </trkpt>
      <trkpt lat="47.70335" lon="-2.38541">
        <ele>70.2</ele>
        <time>2015-05-17T07:39:41Z</time>
      </trkpt>
      <trkpt lat="47.70335" lon="-2.38549">
        <ele>70.3</ele>
        <time>2015-05-17T07:39:48Z</time>
      </trkpt>
      <trkpt lat="47.70337" lon="-2.3856">
        <ele>70.5</ele>
        <time>2015-05-17T07:39:53Z</time>
      </trkpt>
      <trkpt lat="47.70342" lon="-2.3857">
        <ele>70.2</ele>
        <time>2015-05-17T07:39:57Z</time>
      </trkpt>
      <trkpt lat="47.70346" lon="-2.3858">
        <ele>70</ele>
        <time>2015-05-17T07:40:03Z</time>
      </trkpt>
      <trkpt lat="47.7035" lon="-2.3859">
        <ele>69.7</ele>
        <time>2015-05-17T07:40:10Z</time>
      </trkpt>
      <trkpt lat="47.70354" lon="-2.38599">
        <ele>69.9</ele>
        <time>2015-05-17T07:40:16Z</time>
      </trkpt>
      <trkpt lat="47.70356" lon="-2.38609">
        <ele>70.4</ele>
        <time>2015-05-17T07:40:23Z</time>
      </trkpt>
      <trkpt lat="47.7036" lon="-2.38619">
        <ele>70.9</ele>
        <time>2015-05-17T07:40:29Z</time>
      </trkpt>
      <trkpt lat="47.70364" lon="-2.3863">
        <ele>71.4</ele>
        <time>2015-05-17T07:40:35Z</time>
      </trkpt>
      <trkpt lat="47.70367" lon="-2.38641">
        <ele>71.7</ele>
        <time>2015-05-17T07:40:42Z</time>
      </trkpt>
      <trkpt lat="47.7037" lon="-2.38652">
        <ele>72</ele>
        <time>2015-05-17T07:40:47Z</time>
      </trkpt>
      <trkpt lat="47.70374" lon="-2.38663">
        <ele>72.5</ele>
        <time>2015-05-17T07:40:54Z</time>
      </trkpt>
      <trkpt lat="47.70379" lon="-2.38672">
        <ele>72.5</ele>
        <time>2015-05-17T07:40:59Z</time>
      </trkpt>
      <trkpt lat="47.70383" lon="-2.38683">
        <ele>73</ele>
        <time>2015-05-17T07:41:06Z</time>
      </trkpt>
      <trkpt lat="47.70387" lon="-2.38694">
        <ele>73.8</ele>
        <time>2015-05-17T07:41:11Z</time>
      </trkpt>
      <trkpt lat="47.70387" lon="-2.38706">
        <ele>74.5</ele>
        <time>2015-05-17T07:41:16Z</time>
      </trkpt>
      <trkpt lat="47.70389" lon="-2.38718">
        <ele>74.7</ele>
        <time>2015-05-17T07:41:22Z</time>
      </trkpt>
      <trkpt lat="47.70392" lon="-2.38729">
        <ele>75.1</ele>
        <time>2015-05-17T07:41:28Z</time>
      </trkpt>
      <trkpt lat="47.70395" lon="-2.38739">
        <ele>75.2</ele>
        <time>2015-05-17T07:41:33Z</time>
      </trkpt>
      <trkpt lat="47.70398" lon="-2.38749">
        <ele>76</ele>
        <time>2015-05-17T07:41:39Z</time>
      </trkpt>
      <trkpt lat="47.70407" lon="-2.38747">
        <ele>76.3</ele>
        <time>2015-05-17T07:41:46Z</time>
      </trkpt>
      <trkpt lat="47.70413" lon="-2.38741">
        <ele>77</ele>
        <time>2015-05-17T07:41:52Z</time>
      </trkpt>
      <trkpt lat="47.7042" lon="-2.38737">
        <ele>77.7</ele>
        <time>2015-05-17T07:41:59Z</time>
      </trkpt>
      <trkpt lat="47.70426" lon="-2.38733">
        <ele>78.1</ele>
        <time>2015-05-17T07:42:06Z</time>
      </trkpt>
      <trkpt lat="47.70433" lon="-2.38728">
        <ele>78.3</ele>
        <time>2015-05-17T07:42:11Z</time>
      </trkpt>
      <trkpt lat="47.7044" lon="-2.38724">
        <ele>78.2</ele>
        <time>2015-05-17T07:42:18Z</time>
      </trkpt>
      <trkpt lat="47.70446" lon="-2.38722">
        <ele>78.3</ele>
        <time>2015-05-17T07:42:25Z</time>
      </trkpt>
      <trkpt lat="47.70454" lon="-2.38724">
        <ele>78.7</ele>
        <time>2015-05-17T07:42:31Z</time>
      </trkpt>
      <trkpt lat="47.70461" lon="-2.38722">
        <ele>79.7</ele>
        <time>2015-05-17T07:42:38Z</time>
      </trkpt>
      <trkpt lat="47.70469" lon="-2.38716">
        <ele>79.9</ele>
        <time>2015-05-17T07:42:45Z</time>
      </trkpt>
      <trkpt lat="47.70477" lon="-2.38715">
        <ele>80.9</ele>
        <time>2015-05-17T07:42:51Z</time>
      </trkpt>
      <trkpt lat="47.70484" lon="-2.38714">
        <ele>82</ele>
        <time>2015-05-17T07:42:58Z</time>
      </trkpt>
      <trkpt lat="47.70491" lon="-2.38709">
        <ele>83.6</ele>
        <time>2015-05-17T07:43:05Z</time>
      </trkpt>
      <trkpt lat="47.70494" lon="-2.38709">
        <ele>84.6</ele>
        <time>2015-05-17T07:43:12Z</time>
      </trkpt>
      <trkpt lat="47.70498" lon="-2.38708">
        <ele>85.7</ele>
        <time>2015-05-17T07:43:19Z</time>
      </trkpt>
      <trkpt lat="47.70506" lon="-2.38707">
        <ele>86.5</ele>
        <time>2015-05-17T07:43:25Z</time>
      </trkpt>
      <trkpt lat="47.70513" lon="-2.38707">
        <ele>87.7</ele>
        <time>2015-05-17T07:43:32Z</time>
      </trkpt>
      <trkpt lat="47.70521" lon="-2.38705">
        <ele>87.5</ele>
        <time>2015-05-17T07:43:37Z</time>
      </trkpt>
      <trkpt lat="47.70526" lon="-2.38702">
        <ele>87.3</ele>
        <time>2015-05-17T07:43:44Z</time>
      </trkpt>
      <trkpt lat="47.70534" lon="-2.38698">
        <ele>87.6</ele>
        <time>2015-05-17T07:43:49Z</time>
      </trkpt>
      <trkpt lat="47.70541" lon="-2.38691">
        <ele>88.1</ele>
        <time>2015-05-17T07:43:55Z</time>
      </trkpt>
      <trkpt lat="47.70548" lon="-2.38686">
        <ele>88.1</ele>
        <time>2015-05-17T07:43:59Z</time>
      </trkpt>
      <trkpt lat="47.70554" lon="-2.38679">
        <ele>87.5</ele>
        <time>2015-05-17T07:44:04Z</time>
      </trkpt>
      <trkpt lat="47.70559" lon="-2.38672">
        <ele>87.3</ele>
        <time>2015-05-17T07:44:11Z</time>
      </trkpt>
      <trkpt lat="47.70561" lon="-2.38662">
        <ele>87.4</ele>
        <time>2015-05-17T07:44:18Z</time>
      </trkpt>
      <trkpt lat="47.70567" lon="-2.38656">
        <ele>87.6</ele>
        <time>2015-05-17T07:44:25Z</time>
      </trkpt>
      <trkpt lat="47.70574" lon="-2.38652">
        <ele>88.2</ele>
        <time>2015-05-17T07:44:32Z</time>
      </trkpt>
      <trkpt lat="47.70582" lon="-2.38646">
        <ele>89</ele>
        <time>2015-05-17T07:44:39Z</time>
      </trkpt>
      <trkpt lat="47.70588" lon="-2.38643">
        <ele>88.1</ele>
        <time>2015-05-17T07:44:46Z</time>
      </trkpt>
      <trkpt lat="47.70596" lon="-2.38638">
        <ele>88.3</ele>
        <time>2015-05-17T07:44:53Z</time>
      </trkpt>
      <trkpt lat="47.70602" lon="-2.3863">
        <ele>87.3</ele>
        <time>2015-05-17T07:44:59Z</time>
      </trkpt>
      <trkpt lat="47.70607" lon="-2.38623">
        <ele>86.5</ele>
        <time>2015-05-17T07:45:04Z</time>
      </trkpt>
      <trkpt lat="47.7061" lon="-2.38611">
        <ele>86</ele>
        <time>2015-05-17T07:45:10Z</time>
      </trkpt>
      <trkpt lat="47.70613" lon="-2.386">
        <ele>85.7</ele>
        <time>2015-05-17T07:45:15Z</time>
      </trkpt>
      <trkpt lat="47.70615" lon="-2.38589">
        <ele>85.8</ele>
        <time>2015-05-17T07:45:21Z</time>
      </trkpt>
      <trkpt lat="47.7062" lon="-2.38581">
        <ele>86.1</ele>
        <time>2015-05-17T07:45:27Z</time>
      </trkpt>
      <trkpt lat="47.70626" lon="-2.38573">
        <ele>85.6</ele>
        <time>2015-05-17T07:45:34Z</time>
      </trkpt>
      <trkpt lat="47.70631" lon="-2.38564">
        <ele>84.8</ele>
        <time>2015-05-17T07:45:41Z</time>
      </trkpt>
      <trkpt lat="47.70635" lon="-2.38557">
        <ele>83.1</ele>
        <time>2015-05-17T07:45:48Z</time>
      </trkpt>
      <trkpt lat="47.7064" lon="-2.38547">
        <ele>82.4</ele>
        <time>2015-05-17T07:45:54Z</time>
      </trkpt>
      <trkpt lat="47.70643" lon="-2.38537">
        <ele>81.7</ele>
        <time>2015-05-17T07:46:00Z</time>
      </trkpt>
      <trkpt lat="47.70648" lon="-2.38536">
        <ele>80.7</ele>
        <time>2015-05-17T07:46:07Z</time>
      </trkpt>
      <trkpt lat="47.7065" lon="-2.38541">
        <ele>79.2</ele>
        <time>2015-05-17T07:46:14Z</time>
      </trkpt>
      <trkpt lat="47.70656" lon="-2.38543">
        <ele>79</ele>
        <time>2015-05-17T07:46:21Z</time>
      </trkpt>
      <trkpt lat="47.70662" lon="-2.38547">
        <ele>79.4</ele>
        <time>2015-05-17T07:46:28Z</time>
      </trkpt>
      <trkpt lat="47.70669" lon="-2.38548">
        <ele>79.7</ele>
        <time>2015-05-17T07:46:35Z</time>
      </trkpt>
      <trkpt lat="47.70675" lon="-2.38548">
        <ele>79.5</ele>
        <time>2015-05-17T07:46:42Z</time>
      </trkpt>
      <trkpt lat="47.70679" lon="-2.38545">
        <ele>79.5</ele>
        <time>2015-05-17T07:46:49Z</time>
      </trkpt>
      <trkpt lat="47.70682" lon="-2.38546">
        <ele>79.7</ele>
        <time>2015-05-17T07:46:56Z</time>
      </trkpt>
      <trkpt lat="47.70685" lon="-2.38551">
        <ele>79.6</ele>
        <time>2015-05-17T07:47:03Z</time>
      </trkpt>
      <trkpt lat="47.70688" lon="-2.38557">
        <ele>79.5</ele>
        <time>2015-05-17T07:47:10Z</time>
      </trkpt>
      <trkpt lat="47.70691" lon="-2.38565">
        <ele>79.6</ele>
        <time>2015-05-17T07:47:17Z</time>
      </trkpt>
      <trkpt lat="47.70693" lon="-2.38576">
        <ele>79.9</ele>
        <time>2015-05-17T07:47:24Z</time>
      </trkpt>
      <trkpt lat="47.70691" lon="-2.38588">
        <ele>80.3</ele>
        <time>2015-05-17T07:47:31Z</time>
      </trkpt>
      <trkpt lat="47.70687" lon="-2.38597">
        <ele>80.1</ele>
        <time>2015-05-17T07:47:35Z</time>
      </trkpt>
      <trkpt lat="47.70685" lon="-2.38608">
        <ele>80.1</ele>
        <time>2015-05-17T07:47:40Z</time>
      </trkpt>
      <trkpt lat="47.70682" lon="-2.38619">
        <ele>80</ele>
        <time>2015-05-17T07:47:47Z</time>
      </trkpt>
      <trkpt lat="47.70685" lon="-2.38627">
        <ele>80</ele>
        <time>2015-05-17T07:47:55Z</time>
      </trkpt>
      <trkpt lat="47.70691" lon="-2.38633">
        <ele>80</ele>
        <time>2015-05-17T07:48:01Z</time>
      </trkpt>
      <trkpt lat="47.70696" lon="-2.38637">
        <ele>79.8</ele>
        <time>2015-05-17T07:48:08Z</time>
      </trkpt>
      <trkpt lat="47.70701" lon="-2.38645">
        <ele>79.3</ele>
        <time>2015-05-17T07:48:15Z</time>
      </trkpt>
      <trkpt lat="47.70703" lon="-2.38656">
        <ele>78.7</ele>
        <time>2015-05-17T07:48:22Z</time>
      </trkpt>
      <trkpt lat="47.70705" lon="-2.3866">
        <ele>78.3</ele>
        <time>2015-05-17T07:48:29Z</time>
      </trkpt>
      <trkpt lat="47.70708" lon="-2.38664">
        <ele>78.1</ele>
        <time>2015-05-17T07:48:36Z</time>
      </trkpt>
      <trkpt lat="47.70712" lon="-2.3867">
        <ele>77.7</ele>
        <time>2015-05-17T07:48:43Z</time>
      </trkpt>
      <trkpt lat="47.70716" lon="-2.3868">
        <ele>77.2</ele>
        <time>2015-05-17T07:48:50Z</time>
      </trkpt>
      <trkpt lat="47.70715" lon="-2.38687">
        <ele>76.9</ele>
        <time>2015-05-17T07:48:57Z</time>
      </trkpt>
      <trkpt lat="47.70717" lon="-2.38683">
        <ele>76.8</ele>
        <time>2015-05-17T07:49:04Z</time>
      </trkpt>
      <trkpt lat="47.7072" lon="-2.3868">
        <ele>76.5</ele>
        <time>2015-05-17T07:49:11Z</time>
      </trkpt>
      <trkpt lat="47.7072" lon="-2.38677">
        <ele>76.1</ele>
        <time>2015-05-17T07:49:18Z</time>
      </trkpt>
      <trkpt lat="47.70722" lon="-2.38675">
        <ele>75.9</ele>
        <time>2015-05-17T07:49:25Z</time>
      </trkpt>
      <trkpt lat="47.70721" lon="-2.3867">
        <ele>75.7</ele>
        <time>2015-05-17T07:49:32Z</time>
      </trkpt>
      <trkpt lat="47.70729" lon="-2.38675">
        <ele>74.9</ele>
        <time>2015-05-17T07:49:54Z</time>
      </trkpt>
      <trkpt lat="47.70734" lon="-2.38679">
        <ele>74.2</ele>
        <time>2015-05-17T07:50:01Z</time>
      </trkpt>
      <trkpt lat="47.7074" lon="-2.38683">
        <ele>73.8</ele>
        <time>2015-05-17T07:50:08Z</time>
      </trkpt>
      <trkpt lat="47.70747" lon="-2.38691">
        <ele>73</ele>
        <time>2015-05-17T07:50:15Z</time>
      </trkpt>
      <trkpt lat="47.70752" lon="-2.38695">
        <ele>72.3</ele>
        <time>2015-05-17T07:50:22Z</time>
      </trkpt>
      <trkpt lat="47.70756" lon="-2.38696">
        <ele>71.9</ele>
        <time>2015-05-17T07:50:29Z</time>
      </trkpt>
      <trkpt lat="47.70757" lon="-2.38692">
        <ele>71.1</ele>
        <time>2015-05-17T07:50:36Z</time>
      </trkpt>
      <trkpt lat="47.70758" lon="-2.38692">
        <ele>70.8</ele>
        <time>2015-05-17T07:50:43Z</time>
      </trkpt>
      <trkpt lat="47.70764" lon="-2.38698">
        <ele>70.4</ele>
        <time>2015-05-17T07:50:49Z</time>
      </trkpt>
      <trkpt lat="47.70768" lon="-2.38704">
        <ele>69.7</ele>
        <time>2015-05-17T07:50:56Z</time>
      </trkpt>
      <trkpt lat="47.70772" lon="-2.38706">
        <ele>69.1</ele>
        <time>2015-05-17T07:51:03Z</time>
      </trkpt>
      <trkpt lat="47.70774" lon="-2.3871">
        <ele>68.7</ele>
        <time>2015-05-17T07:51:10Z</time>
      </trkpt>
      <trkpt lat="47.70772" lon="-2.38708">
        <ele>68.5</ele>
        <time>2015-05-17T07:51:17Z</time>
      </trkpt>
      <trkpt lat="47.70764" lon="-2.38715">
        <ele>67.8</ele>
        <time>2015-05-17T07:51:29Z</time>
      </trkpt>
      <trkpt lat="47.70764" lon="-2.38716">
        <ele>67.6</ele>
        <time>2015-05-17T07:51:36Z</time>
      </trkpt>
      <trkpt lat="47.70774" lon="-2.3871">
        <ele>66.4</ele>
        <time>2015-05-17T07:55:07Z</time>
      </trkpt>
      <trkpt lat="47.70765" lon="-2.38705">
        <ele>66</ele>
        <time>2015-05-17T07:55:20Z</time>
      </trkpt>
      <trkpt lat="47.70766" lon="-2.38704">
        <ele>65.9</ele>
        <time>2015-05-17T07:55:27Z</time>
      </trkpt>
      <trkpt lat="47.70769" lon="-2.38694">
        <ele>65.1</ele>
        <time>2015-05-17T07:55:34Z</time>
      </trkpt>
      <trkpt lat="47.70773" lon="-2.38687">
        <ele>64.7</ele>
        <time>2015-05-17T07:55:41Z</time>
      </trkpt>
      <trkpt lat="47.70773" lon="-2.38683">
        <ele>64.3</ele>
        <time>2015-05-17T07:55:48Z</time>
      </trkpt>
      <trkpt lat="47.70772" lon="-2.38681">
        <ele>64</ele>
        <time>2015-05-17T07:55:55Z</time>
      </trkpt>
      <trkpt lat="47.70777" lon="-2.38675">
        <ele>63.7</ele>
        <time>2015-05-17T07:56:02Z</time>
      </trkpt>
      <trkpt lat="47.70781" lon="-2.38669">
        <ele>63.2</ele>
        <time>2015-05-17T07:56:09Z</time>
      </trkpt>
      <trkpt lat="47.70782" lon="-2.38663">
        <ele>62.8</ele>
        <time>2015-05-17T07:56:16Z</time>
      </trkpt>
      <trkpt lat="47.70785" lon="-2.38657">
        <ele>62.3</ele>
        <time>2015-05-17T07:56:23Z</time>
      </trkpt>
      <trkpt lat="47.70786" lon="-2.38656">
        <ele>62.1</ele>
        <time>2015-05-17T07:56:30Z</time>
      </trkpt>
      <trkpt lat="47.70789" lon="-2.3865">
        <ele>60.3</ele>
        <time>2015-05-17T07:56:01Z</time>
      </trkpt>
      <trkpt lat="47.70798" lon="-2.38646">
        <ele>58.1</ele>
        <time>2015-05-17T07:57:28Z</time>
      </trkpt>
      <trkpt lat="47.70799" lon="-2.38642">
        <ele>56.5</ele>
        <time>2015-05-17T07:57:35Z</time>
      </trkpt>
      <trkpt lat="47.70803" lon="-2.3864">
        <ele>55.3</ele>
        <time>2015-05-17T07:57:42Z</time>
      </trkpt>
      <trkpt lat="47.70807" lon="-2.38631">
        <ele>53.5</ele>
        <time>2015-05-17T07:57:56Z</time>
      </trkpt>
      <trkpt lat="47.70813" lon="-2.38623">
        <ele>52.5</ele>
        <time>2015-05-17T07:58:02Z</time>
      </trkpt>
      <trkpt lat="47.70816" lon="-2.38615">
        <ele>51.9</ele>
        <time>2015-05-17T07:58:09Z</time>
      </trkpt>
      <trkpt lat="47.70816" lon="-2.38605">
        <ele>51.3</ele>
        <time>2015-05-17T07:58:16Z</time>
      </trkpt>
      <trkpt lat="47.70816" lon="-2.38597">
        <ele>50.5</ele>
        <time>2015-05-17T07:58:23Z</time>
      </trkpt>
      <trkpt lat="47.70817" lon="-2.38594">
        <ele>49.3</ele>
        <time>2015-05-17T07:58:30Z</time>
      </trkpt>
      <trkpt lat="47.70819" lon="-2.38596">
        <ele>47.9</ele>
        <time>2015-05-17T07:58:37Z</time>
      </trkpt>
      <trkpt lat="47.70819" lon="-2.38584">
        <ele>43.3</ele>
        <time>2015-05-17T07:59:56Z</time>
      </trkpt>
      <trkpt lat="47.70822" lon="-2.38577">
        <ele>42.8</ele>
        <time>2015-05-17T08:00:03Z</time>
      </trkpt>
      <trkpt lat="47.70825" lon="-2.38571">
        <ele>42.1</ele>
        <time>2015-05-17T08:00:10Z</time>
      </trkpt>
      <trkpt lat="47.70828" lon="-2.38563">
        <ele>41.6</ele>
        <time>2015-05-17T08:00:17Z</time>
      </trkpt>
      <trkpt lat="47.70827" lon="-2.38554">
        <ele>41.1</ele>
        <time>2015-05-17T08:00:24Z</time>
      </trkpt>
      <trkpt lat="47.70822" lon="-2.38546">
        <ele>40.7</ele>
        <time>2015-05-17T08:00:31Z</time>
      </trkpt>
      <trkpt lat="47.70817" lon="-2.38538">
        <ele>40.5</ele>
        <time>2015-05-17T08:00:38Z</time>
      </trkpt>
      <trkpt lat="47.70819" lon="-2.38526">
        <ele>39.9</ele>
        <time>2015-05-17T08:00:45Z</time>
      </trkpt>
      <trkpt lat="47.70817" lon="-2.38514">
        <ele>39.6</ele>
        <time>2015-05-17T08:00:51Z</time>
      </trkpt>
      <trkpt lat="47.70817" lon="-2.38503">
        <ele>39.2</ele>
        <time>2015-05-17T08:00:57Z</time>
      </trkpt>
      <trkpt lat="47.70817" lon="-2.38492">
        <ele>39</ele>
        <time>2015-05-17T08:01:03Z</time>
      </trkpt>
      <trkpt lat="47.70819" lon="-2.3848">
        <ele>38.7</ele>
        <time>2015-05-17T08:01:09Z</time>
      </trkpt>
      <trkpt lat="47.70823" lon="-2.38468">
        <ele>38.4</ele>
        <time>2015-05-17T08:01:16Z</time>
      </trkpt>
      <trkpt lat="47.70827" lon="-2.38459">
        <ele>38</ele>
        <time>2015-05-17T08:01:22Z</time>
      </trkpt>
      <trkpt lat="47.70824" lon="-2.38451">
        <ele>37.4</ele>
        <time>2015-05-17T08:01:29Z</time>
      </trkpt>
      <trkpt lat="47.70824" lon="-2.38441">
        <ele>37.1</ele>
        <time>2015-05-17T08:01:36Z</time>
      </trkpt>
      <trkpt lat="47.70826" lon="-2.3843">
        <ele>36.6</ele>
        <time>2015-05-17T08:01:43Z</time>
      </trkpt>
      <trkpt lat="47.70828" lon="-2.38419">
        <ele>36.1</ele>
        <time>2015-05-17T08:01:50Z</time>
      </trkpt>
      <trkpt lat="47.70828" lon="-2.38407">
        <ele>35.2</ele>
        <time>2015-05-17T08:01:56Z</time>
      </trkpt>
      <trkpt lat="47.70828" lon="-2.38396">
        <ele>34.6</ele>
        <time>2015-05-17T08:02:03Z</time>
      </trkpt>
      <trkpt lat="47.7083" lon="-2.38385">
        <ele>33.7</ele>
        <time>2015-05-17T08:02:09Z</time>
      </trkpt>
      <trkpt lat="47.70834" lon="-2.38376">
        <ele>33.1</ele>
        <time>2015-05-17T08:02:14Z</time>
      </trkpt>
      <trkpt lat="47.70837" lon="-2.38368">
        <ele>32.6</ele>
        <time>2015-05-17T08:02:21Z</time>
      </trkpt>
      <trkpt lat="47.70838" lon="-2.38361">
        <ele>32.4</ele>
        <time>2015-05-17T08:02:28Z</time>
      </trkpt>
      <trkpt lat="47.70836" lon="-2.38351">
        <ele>32.2</ele>
        <time>2015-05-17T08:02:35Z</time>
      </trkpt>
      <trkpt lat="47.70836" lon="-2.38341">
        <ele>31.9</ele>
        <time>2015-05-17T08:02:42Z</time>
      </trkpt>
      <trkpt lat="47.70837" lon="-2.3833">
        <ele>31.6</ele>
        <time>2015-05-17T08:02:48Z</time>
      </trkpt>
      <trkpt lat="47.70839" lon="-2.3832">
        <ele>31.4</ele>
        <time>2015-05-17T08:02:53Z</time>
      </trkpt>
      <trkpt lat="47.70842" lon="-2.38309">
        <ele>31.3</ele>
        <time>2015-05-17T08:02:59Z</time>
      </trkpt>
      <trkpt lat="47.70846" lon="-2.38298">
        <ele>31.2</ele>
        <time>2015-05-17T08:03:06Z</time>
      </trkpt>
      <trkpt lat="47.70849" lon="-2.38287">
        <ele>31</ele>
        <time>2015-05-17T08:03:13Z</time>
      </trkpt>
      <trkpt lat="47.70851" lon="-2.38279">
        <ele>30.8</ele>
        <time>2015-05-17T08:03:20Z</time>
      </trkpt>
      <trkpt lat="47.70855" lon="-2.38269">
        <ele>30.6</ele>
        <time>2015-05-17T08:03:27Z</time>
      </trkpt>
      <trkpt lat="47.70859" lon="-2.38259">
        <ele>30.5</ele>
        <time>2015-05-17T08:03:34Z</time>
      </trkpt>
      <trkpt lat="47.70865" lon="-2.3825">
        <ele>30.4</ele>
        <time>2015-05-17T08:03:39Z</time>
      </trkpt>
      <trkpt lat="47.70869" lon="-2.3824">
        <ele>30.2</ele>
        <time>2015-05-17T08:03:45Z</time>
      </trkpt>
      <trkpt lat="47.70874" lon="-2.38231">
        <ele>29.9</ele>
        <time>2015-05-17T08:03:51Z</time>
      </trkpt>
      <trkpt lat="47.70876" lon="-2.38222">
        <ele>29.3</ele>
        <time>2015-05-17T08:03:58Z</time>
      </trkpt>
      <trkpt lat="47.70875" lon="-2.38215">
        <ele>29</ele>
        <time>2015-05-17T08:04:05Z</time>
      </trkpt>
      <trkpt lat="47.70879" lon="-2.38204">
        <ele>28.4</ele>
        <time>2015-05-17T08:04:12Z</time>
      </trkpt>
      <trkpt lat="47.70884" lon="-2.38195">
        <ele>27.9</ele>
        <time>2015-05-17T08:04:18Z</time>
      </trkpt>
      <trkpt lat="47.70884" lon="-2.38186">
        <ele>26.9</ele>
        <time>2015-05-17T08:04:25Z</time>
      </trkpt>
      <trkpt lat="47.70883" lon="-2.38182">
        <ele>26.6</ele>
        <time>2015-05-17T08:04:32Z</time>
      </trkpt>
      <trkpt lat="47.70884" lon="-2.38176">
        <ele>26.3</ele>
        <time>2015-05-17T08:04:39Z</time>
      </trkpt>
      <trkpt lat="47.70882" lon="-2.3817">
        <ele>26.3</ele>
        <time>2015-05-17T08:04:46Z</time>
      </trkpt>
      <trkpt lat="47.7088" lon="-2.38164">
        <ele>26.5</ele>
        <time>2015-05-17T08:04:53Z</time>
      </trkpt>
      <trkpt lat="47.70883" lon="-2.38159">
        <ele>26.3</ele>
        <time>2015-05-17T08:05:00Z</time>
      </trkpt>
      <trkpt lat="47.70883" lon="-2.3815">
        <ele>25.7</ele>
        <time>2015-05-17T08:05:07Z</time>
      </trkpt>
      <trkpt lat="47.70884" lon="-2.38139">
        <ele>25.3</ele>
        <time>2015-05-17T08:05:13Z</time>
      </trkpt>
      <trkpt lat="47.70884" lon="-2.38136">
        <ele>24.9</ele>
        <time>2015-05-17T08:05:20Z</time>
      </trkpt>
      <trkpt lat="47.70883" lon="-2.38136">
        <ele>24.9</ele>
        <time>2015-05-17T08:05:28Z</time>
      </trkpt>
      <trkpt lat="47.70878" lon="-2.38128">
        <ele>24.8</ele>
        <time>2015-05-17T08:04:56Z</time>
      </trkpt>
      <trkpt lat="47.70871" lon="-2.38126">
        <ele>25</ele>
        <time>2015-05-17T08:06:09Z</time>
      </trkpt>
      <trkpt lat="47.70866" lon="-2.38124">
        <ele>25</ele>
        <time>2015-05-17T08:06:16Z</time>
      </trkpt>
      <trkpt lat="47.70863" lon="-2.38125">
        <ele>25.1</ele>
        <time>2015-05-17T08:06:23Z</time>
      </trkpt>
      <trkpt lat="47.70863" lon="-2.38121">
        <ele>25.1</ele>
        <time>2015-05-17T08:06:30Z</time>
      </trkpt>
      <trkpt lat="47.70877" lon="-2.38117">
        <ele>25</ele>
        <time>2015-05-17T08:07:15Z</time>
      </trkpt>
      <trkpt lat="47.70878" lon="-2.38115">
        <ele>24.7</ele>
        <time>2015-05-17T08:07:22Z</time>
      </trkpt>
      <trkpt lat="47.70881" lon="-2.38108">
        <ele>24.2</ele>
        <time>2015-05-17T08:07:29Z</time>
      </trkpt>
      <trkpt lat="47.70885" lon="-2.38097">
        <ele>23.5</ele>
        <time>2015-05-17T08:07:35Z</time>
      </trkpt>
      <trkpt lat="47.70888" lon="-2.38086">
        <ele>23.2</ele>
        <time>2015-05-17T08:07:39Z</time>
      </trkpt>
      <trkpt lat="47.70889" lon="-2.38075">
        <ele>23</ele>
        <time>2015-05-17T08:07:45Z</time>
      </trkpt>
      <trkpt lat="47.70891" lon="-2.38063">
        <ele>22.9</ele>
        <time>2015-05-17T08:07:50Z</time>
      </trkpt>
      <trkpt lat="47.70893" lon="-2.38052">
        <ele>22.7</ele>
        <time>2015-05-17T08:07:57Z</time>
      </trkpt>
      <trkpt lat="47.70893" lon="-2.38047">
        <ele>22.4</ele>
        <time>2015-05-17T08:08:04Z</time>
      </trkpt>
      <trkpt lat="47.70898" lon="-2.38046">
        <ele>22.4</ele>
        <time>2015-05-17T08:08:11Z</time>
      </trkpt>
      <trkpt lat="47.70892" lon="-2.38044">
        <ele>23.4</ele>
        <time>2015-05-17T08:08:18Z</time>
      </trkpt>
      <trkpt lat="47.70891" lon="-2.38044">
        <ele>23.7</ele>
        <time>2015-05-17T08:08:25Z</time>
      </trkpt>
      <trkpt lat="47.70884" lon="-2.38038">
        <ele>24</ele>
        <time>2015-05-17T08:08:31Z</time>
      </trkpt>
      <trkpt lat="47.70881" lon="-2.38036">
        <ele>24.4</ele>
        <time>2015-05-17T08:08:38Z</time>
      </trkpt>
      <trkpt lat="47.70887" lon="-2.38032">
        <ele>24.5</ele>
        <time>2015-05-17T08:08:45Z</time>
      </trkpt>
      <trkpt lat="47.70889" lon="-2.38021">
        <ele>24.7</ele>
        <time>2015-05-17T08:08:52Z</time>
      </trkpt>
      <trkpt lat="47.70889" lon="-2.38017">
        <ele>24.9</ele>
        <time>2015-05-17T08:08:59Z</time>
      </trkpt>
      <trkpt lat="47.70889" lon="-2.38018">
        <ele>25.1</ele>
        <time>2015-05-17T08:09:06Z</time>
      </trkpt>
      <trkpt lat="47.70893" lon="-2.38008">
        <ele>25.9</ele>
        <time>2015-05-17T08:09:18Z</time>
      </trkpt>
      <trkpt lat="47.70896" lon="-2.37999">
        <ele>25.8</ele>
        <time>2015-05-17T08:09:25Z</time>
      </trkpt>
      <trkpt lat="47.70898" lon="-2.37988">
        <ele>25.8</ele>
        <time>2015-05-17T08:09:32Z</time>
      </trkpt>
      <trkpt lat="47.70899" lon="-2.3798">
        <ele>26.2</ele>
        <time>2015-05-17T08:09:39Z</time>
      </trkpt>
      <trkpt lat="47.709" lon="-2.37971">
        <ele>26.6</ele>
        <time>2015-05-17T08:09:46Z</time>
      </trkpt>
      <trkpt lat="47.709" lon="-2.37963">
        <ele>26.7</ele>
        <time>2015-05-17T08:09:53Z</time>
      </trkpt>
      <trkpt lat="47.70902" lon="-2.37956">
        <ele>26.5</ele>
        <time>2015-05-17T08:10:00Z</time>
      </trkpt>
      <trkpt lat="47.70903" lon="-2.37946">
        <ele>26.4</ele>
        <time>2015-05-17T08:10:07Z</time>
      </trkpt>
      <trkpt lat="47.70908" lon="-2.37937">
        <ele>26.7</ele>
        <time>2015-05-17T08:10:11Z</time>
      </trkpt>
      <trkpt lat="47.70912" lon="-2.37926">
        <ele>27.4</ele>
        <time>2015-05-17T08:10:18Z</time>
      </trkpt>
      <trkpt lat="47.70915" lon="-2.37917">
        <ele>27.8</ele>
        <time>2015-05-17T08:10:22Z</time>
      </trkpt>
      <trkpt lat="47.70919" lon="-2.37908">
        <ele>27.7</ele>
        <time>2015-05-17T08:10:29Z</time>
      </trkpt>
      <trkpt lat="47.70916" lon="-2.37897">
        <ele>26.9</ele>
        <time>2015-05-17T08:10:36Z</time>
      </trkpt>
      <trkpt lat="47.70915" lon="-2.37886">
        <ele>27.3</ele>
        <time>2015-05-17T08:10:43Z</time>
      </trkpt>
      <trkpt lat="47.70914" lon="-2.37876">
        <ele>27.3</ele>
        <time>2015-05-17T08:10:50Z</time>
      </trkpt>
      <trkpt lat="47.70913" lon="-2.37866">
        <ele>27.5</ele>
        <time>2015-05-17T08:10:57Z</time>
      </trkpt>
      <trkpt lat="47.70912" lon="-2.37855">
        <ele>27.5</ele>
        <time>2015-05-17T08:11:03Z</time>
      </trkpt>
      <trkpt lat="47.70913" lon="-2.37844">
        <ele>28.1</ele>
        <time>2015-05-17T08:11:10Z</time>
      </trkpt>
      <trkpt lat="47.70911" lon="-2.37837">
        <ele>28.3</ele>
        <time>2015-05-17T08:11:17Z</time>
      </trkpt>
      <trkpt lat="47.7091" lon="-2.37825">
        <ele>28.1</ele>
        <time>2015-05-17T08:11:24Z</time>
      </trkpt>
      <trkpt lat="47.70907" lon="-2.37815">
        <ele>28.5</ele>
        <time>2015-05-17T08:11:30Z</time>
      </trkpt>
      <trkpt lat="47.70905" lon="-2.37804">
        <ele>28.7</ele>
        <time>2015-05-17T08:11:37Z</time>
      </trkpt>
      <trkpt lat="47.70904" lon="-2.37802">
        <ele>28.7</ele>
        <time>2015-05-17T08:11:44Z</time>
      </trkpt>
      <trkpt lat="47.70897" lon="-2.37796">
        <ele>28.4</ele>
        <time>2015-05-17T08:12:10Z</time>
      </trkpt>
      <trkpt lat="47.70891" lon="-2.37792">
        <ele>28.3</ele>
        <time>2015-05-17T08:12:17Z</time>
      </trkpt>
      <trkpt lat="47.70884" lon="-2.37784">
        <ele>27.9</ele>
        <time>2015-05-17T08:12:24Z</time>
      </trkpt>
      <trkpt lat="47.70883" lon="-2.37773">
        <ele>27.2</ele>
        <time>2015-05-17T08:12:31Z</time>
      </trkpt>
      <trkpt lat="47.70885" lon="-2.37762">
        <ele>27</ele>
        <time>2015-05-17T08:12:36Z</time>
      </trkpt>
      <trkpt lat="47.70884" lon="-2.3775">
        <ele>26.7</ele>
        <time>2015-05-17T08:12:42Z</time>
      </trkpt>
      <trkpt lat="47.70882" lon="-2.37739">
        <ele>26.6</ele>
        <time>2015-05-17T08:12:47Z</time>
      </trkpt>
      <trkpt lat="47.70882" lon="-2.37726">
        <ele>26.3</ele>
        <time>2015-05-17T08:12:51Z</time>
      </trkpt>
      <trkpt lat="47.7088" lon="-2.37712">
        <ele>26.2</ele>
        <time>2015-05-17T08:12:56Z</time>
      </trkpt>
      <trkpt lat="47.70881" lon="-2.37701">
        <ele>25.8</ele>
        <time>2015-05-17T08:13:01Z</time>
      </trkpt>
      <trkpt lat="47.70882" lon="-2.3769">
        <ele>25.6</ele>
        <time>2015-05-17T08:13:06Z</time>
      </trkpt>
      <trkpt lat="47.70883" lon="-2.37677">
        <ele>25.4</ele>
        <time>2015-05-17T08:13:11Z</time>
      </trkpt>
      <trkpt lat="47.70882" lon="-2.37667">
        <ele>25.5</ele>
        <time>2015-05-17T08:13:16Z</time>
      </trkpt>
      <trkpt lat="47.7088" lon="-2.37657">
        <ele>25.5</ele>
        <time>2015-05-17T08:13:21Z</time>
      </trkpt>
      <trkpt lat="47.70877" lon="-2.37646">
        <ele>25.3</ele>
        <time>2015-05-17T08:13:28Z</time>
      </trkpt>
      <trkpt lat="47.70874" lon="-2.37635">
        <ele>25.8</ele>
        <time>2015-05-17T08:13:34Z</time>
      </trkpt>
      <trkpt lat="47.70871" lon="-2.37625">
        <ele>26</ele>
        <time>2015-05-17T08:13:38Z</time>
      </trkpt>
      <trkpt lat="47.7087" lon="-2.37619">
        <ele>26.5</ele>
        <time>2015-05-17T08:13:45Z</time>
      </trkpt>
      <trkpt lat="47.70874" lon="-2.37615">
        <ele>26.9</ele>
        <time>2015-05-17T08:13:52Z</time>
      </trkpt>
      <trkpt lat="47.70877" lon="-2.37605">
        <ele>27.3</ele>
        <time>2015-05-17T08:13:59Z</time>
      </trkpt>
      <trkpt lat="47.70877" lon="-2.37598">
        <ele>27.3</ele>
        <time>2015-05-17T08:14:06Z</time>
      </trkpt>
      <trkpt lat="47.70881" lon="-2.37587">
        <ele>27</ele>
        <time>2015-05-17T08:14:10Z</time>
      </trkpt>
      <trkpt lat="47.70883" lon="-2.37575">
        <ele>26.8</ele>
        <time>2015-05-17T08:14:14Z</time>
      </trkpt>
      <trkpt lat="47.70883" lon="-2.37564">
        <ele>26.6</ele>
        <time>2015-05-17T08:14:19Z</time>
      </trkpt>
      <trkpt lat="47.70884" lon="-2.37553">
        <ele>26.1</ele>
        <time>2015-05-17T08:14:26Z</time>
      </trkpt>
      <trkpt lat="47.70879" lon="-2.37543">
        <ele>25.3</ele>
        <time>2015-05-17T08:14:32Z</time>
      </trkpt>
      <trkpt lat="47.70876" lon="-2.37531">
        <ele>25.1</ele>
        <time>2015-05-17T08:14:36Z</time>
      </trkpt>
      <trkpt lat="47.70873" lon="-2.37518">
        <ele>25</ele>
        <time>2015-05-17T08:14:41Z</time>
      </trkpt>
      <trkpt lat="47.70873" lon="-2.37506">
        <ele>25</ele>
        <time>2015-05-17T08:14:45Z</time>
      </trkpt>
      <trkpt lat="47.70882" lon="-2.37497">
        <ele>24.4</ele>
        <time>2015-05-17T08:14:50Z</time>
      </trkpt>
      <trkpt lat="47.70882" lon="-2.37486">
        <ele>24</ele>
        <time>2015-05-17T08:14:56Z</time>
      </trkpt>
      <trkpt lat="47.70883" lon="-2.37474">
        <ele>23.6</ele>
        <time>2015-05-17T08:15:01Z</time>
      </trkpt>
      <trkpt lat="47.70885" lon="-2.37463">
        <ele>23.2</ele>
        <time>2015-05-17T08:15:07Z</time>
      </trkpt>
      <trkpt lat="47.70885" lon="-2.3745">
        <ele>22.8</ele>
        <time>2015-05-17T08:15:13Z</time>
      </trkpt>
      <trkpt lat="47.70887" lon="-2.37439">
        <ele>22.8</ele>
        <time>2015-05-17T08:15:18Z</time>
      </trkpt>
      <trkpt lat="47.70889" lon="-2.37428">
        <ele>22.5</ele>
        <time>2015-05-17T08:15:23Z</time>
      </trkpt>
      <trkpt lat="47.70892" lon="-2.37418">
        <ele>22.2</ele>
        <time>2015-05-17T08:15:30Z</time>
      </trkpt>
      <trkpt lat="47.70897" lon="-2.37409">
        <ele>21.5</ele>
        <time>2015-05-17T08:15:37Z</time>
      </trkpt>
      <trkpt lat="47.70896" lon="-2.37398">
        <ele>21.1</ele>
        <time>2015-05-17T08:15:44Z</time>
      </trkpt>
      <trkpt lat="47.70891" lon="-2.37388">
        <ele>21.4</ele>
        <time>2015-05-17T08:15:49Z</time>
      </trkpt>
      <trkpt lat="47.70889" lon="-2.37377">
        <ele>21</ele>
        <time>2015-05-17T08:15:53Z</time>
      </trkpt>
      <trkpt lat="47.70891" lon="-2.37366">
        <ele>21</ele>
        <time>2015-05-17T08:15:57Z</time>
      </trkpt>
      <trkpt lat="47.70891" lon="-2.37355">
        <ele>20.6</ele>
        <time>2015-05-17T08:16:01Z</time>
      </trkpt>
      <trkpt lat="47.70893" lon="-2.37345">
        <ele>20.5</ele>
        <time>2015-05-17T08:16:05Z</time>
      </trkpt>
      <trkpt lat="47.70892" lon="-2.37335">
        <ele>19.9</ele>
        <time>2015-05-17T08:16:12Z</time>
      </trkpt>
      <trkpt lat="47.70888" lon="-2.37325">
        <ele>19.3</ele>
        <time>2015-05-17T08:16:17Z</time>
      </trkpt>
      <trkpt lat="47.70887" lon="-2.37314">
        <ele>19.2</ele>
        <time>2015-05-17T08:16:22Z</time>
      </trkpt>
      <trkpt lat="47.70886" lon="-2.37304">
        <ele>19.2</ele>
        <time>2015-05-17T08:16:29Z</time>
      </trkpt>
      <trkpt lat="47.70882" lon="-2.37293">
        <ele>19.1</ele>
        <time>2015-05-17T08:16:34Z</time>
      </trkpt>
      <trkpt lat="47.70879" lon="-2.37283">
        <ele>19.2</ele>
        <time>2015-05-17T08:16:40Z</time>
      </trkpt>
      <trkpt lat="47.70876" lon="-2.37272">
        <ele>19.4</ele>
        <time>2015-05-17T08:16:45Z</time>
      </trkpt>
      <trkpt lat="47.70877" lon="-2.37261">
        <ele>20.5</ele>
        <time>2015-05-17T08:16:52Z</time>
      </trkpt>
      <trkpt lat="47.70875" lon="-2.3725">
        <ele>21.7</ele>
        <time>2015-05-17T08:16:59Z</time>
      </trkpt>
      <trkpt lat="47.70872" lon="-2.37241">
        <ele>23.1</ele>
        <time>2015-05-17T08:17:06Z</time>
      </trkpt>
      <trkpt lat="47.70871" lon="-2.37228">
        <ele>23.6</ele>
        <time>2015-05-17T08:17:11Z</time>
      </trkpt>
      <trkpt lat="47.70868" lon="-2.37217">
        <ele>23.9</ele>
        <time>2015-05-17T08:17:17Z</time>
      </trkpt>
      <trkpt lat="47.70865" lon="-2.37206">
        <ele>24.1</ele>
        <time>2015-05-17T08:17:21Z</time>
      </trkpt>
      <trkpt lat="47.70863" lon="-2.37194">
        <ele>24.4</ele>
        <time>2015-05-17T08:17:27Z</time>
      </trkpt>
      <trkpt lat="47.70859" lon="-2.37185">
        <ele>25.1</ele>
        <time>2015-05-17T08:17:33Z</time>
      </trkpt>
      <trkpt lat="47.70859" lon="-2.37173">
        <ele>25.8</ele>
        <time>2015-05-17T08:17:40Z</time>
      </trkpt>
      <trkpt lat="47.70858" lon="-2.37161">
        <ele>26.2</ele>
        <time>2015-05-17T08:17:47Z</time>
      </trkpt>
      <trkpt lat="47.70855" lon="-2.37153">
        <ele>26.6</ele>
        <time>2015-05-17T08:17:54Z</time>
      </trkpt>
      <trkpt lat="47.70852" lon="-2.37142">
        <ele>27.2</ele>
        <time>2015-05-17T08:17:59Z</time>
      </trkpt>
      <trkpt lat="47.7085" lon="-2.3713">
        <ele>27.6</ele>
        <time>2015-05-17T08:18:06Z</time>
      </trkpt>
      <trkpt lat="47.70851" lon="-2.37119">
        <ele>27.7</ele>
        <time>2015-05-17T08:18:11Z</time>
      </trkpt>
      <trkpt lat="47.70849" lon="-2.37108">
        <ele>28.2</ele>
        <time>2015-05-17T08:18:18Z</time>
      </trkpt>
      <trkpt lat="47.70847" lon="-2.37096">
        <ele>28.6</ele>
        <time>2015-05-17T08:18:23Z</time>
      </trkpt>
      <trkpt lat="47.70846" lon="-2.37084">
        <ele>29</ele>
        <time>2015-05-17T08:18:30Z</time>
      </trkpt>
      <trkpt lat="47.70844" lon="-2.37074">
        <ele>29.4</ele>
        <time>2015-05-17T08:18:35Z</time>
      </trkpt>
      <trkpt lat="47.70842" lon="-2.37062">
        <ele>28.7</ele>
        <time>2015-05-17T08:18:40Z</time>
      </trkpt>
      <trkpt lat="47.70841" lon="-2.3705">
        <ele>28.9</ele>
        <time>2015-05-17T08:18:45Z</time>
      </trkpt>
      <trkpt lat="47.70841" lon="-2.37037">
        <ele>28.8</ele>
        <time>2015-05-17T08:18:52Z</time>
      </trkpt>
      <trkpt lat="47.70841" lon="-2.37024">
        <ele>29.3</ele>
        <time>2015-05-17T08:18:57Z</time>
      </trkpt>
      <trkpt lat="47.70841" lon="-2.37013">
        <ele>29.7</ele>
        <time>2015-05-17T08:19:03Z</time>
      </trkpt>
      <trkpt lat="47.70838" lon="-2.37003">
        <ele>29.5</ele>
        <time>2015-05-17T08:19:10Z</time>
      </trkpt>
      <trkpt lat="47.7084" lon="-2.36993">
        <ele>30</ele>
        <time>2015-05-17T08:19:15Z</time>
      </trkpt>
      <trkpt lat="47.7084" lon="-2.36981">
        <ele>30.5</ele>
        <time>2015-05-17T08:19:21Z</time>
      </trkpt>
      <trkpt lat="47.70839" lon="-2.36969">
        <ele>30.8</ele>
        <time>2015-05-17T08:19:28Z</time>
      </trkpt>
      <trkpt lat="47.70839" lon="-2.36957">
        <ele>30.7</ele>
        <time>2015-05-17T08:19:33Z</time>
      </trkpt>
      <trkpt lat="47.70837" lon="-2.36944">
        <ele>30.8</ele>
        <time>2015-05-17T08:19:40Z</time>
      </trkpt>
      <trkpt lat="47.70837" lon="-2.36932">
        <ele>30.6</ele>
        <time>2015-05-17T08:19:45Z</time>
      </trkpt>
      <trkpt lat="47.70834" lon="-2.36921">
        <ele>30.7</ele>
        <time>2015-05-17T08:19:50Z</time>
      </trkpt>
      <trkpt lat="47.70835" lon="-2.36908">
        <ele>31</ele>
        <time>2015-05-17T08:19:55Z</time>
      </trkpt>
      <trkpt lat="47.70834" lon="-2.36897">
        <ele>31</ele>
        <time>2015-05-17T08:20:02Z</time>
      </trkpt>
      <trkpt lat="47.70834" lon="-2.36886">
        <ele>31.4</ele>
        <time>2015-05-17T08:20:07Z</time>
      </trkpt>
      <trkpt lat="47.70835" lon="-2.36876">
        <ele>31.8</ele>
        <time>2015-05-17T08:20:14Z</time>
      </trkpt>
      <trkpt lat="47.70833" lon="-2.36863">
        <ele>31.5</ele>
        <time>2015-05-17T08:20:20Z</time>
      </trkpt>
      <trkpt lat="47.70834" lon="-2.36852">
        <ele>31.6</ele>
        <time>2015-05-17T08:20:25Z</time>
      </trkpt>
      <trkpt lat="47.70834" lon="-2.3684">
        <ele>32</ele>
        <time>2015-05-17T08:20:31Z</time>
      </trkpt>
      <trkpt lat="47.70833" lon="-2.36831">
        <ele>32.3</ele>
        <time>2015-05-17T08:20:38Z</time>
      </trkpt>
      <trkpt lat="47.70834" lon="-2.3682">
        <ele>32.7</ele>
        <time>2015-05-17T08:20:44Z</time>
      </trkpt>
      <trkpt lat="47.70835" lon="-2.36807">
        <ele>32.1</ele>
        <time>2015-05-17T08:20:51Z</time>
      </trkpt>
      <trkpt lat="47.70834" lon="-2.36797">
        <ele>31.5</ele>
        <time>2015-05-17T08:20:58Z</time>
      </trkpt>
      <trkpt lat="47.70835" lon="-2.36786">
        <ele>32.3</ele>
        <time>2015-05-17T08:21:04Z</time>
      </trkpt>
      <trkpt lat="47.70838" lon="-2.36777">
        <ele>33</ele>
        <time>2015-05-17T08:21:11Z</time>
      </trkpt>
      <trkpt lat="47.70839" lon="-2.36767">
        <ele>33.3</ele>
        <time>2015-05-17T08:21:18Z</time>
      </trkpt>
      <trkpt lat="47.7084" lon="-2.36756">
        <ele>33.2</ele>
        <time>2015-05-17T08:21:24Z</time>
      </trkpt>
      <trkpt lat="47.70839" lon="-2.36744">
        <ele>33</ele>
        <time>2015-05-17T08:21:30Z</time>
      </trkpt>
      <trkpt lat="47.70838" lon="-2.36733">
        <ele>32.5</ele>
        <time>2015-05-17T08:21:36Z</time>
      </trkpt>
      <trkpt lat="47.70836" lon="-2.36721">
        <ele>32</ele>
        <time>2015-05-17T08:21:42Z</time>
      </trkpt>
      <trkpt lat="47.70839" lon="-2.36712">
        <ele>31</ele>
        <time>2015-05-17T08:21:49Z</time>
      </trkpt>
      <trkpt lat="47.70838" lon="-2.36708">
        <ele>30.3</ele>
        <time>2015-05-17T08:21:56Z</time>
      </trkpt>
      <trkpt lat="47.7084" lon="-2.36702">
        <ele>30.5</ele>
        <time>2015-05-17T08:22:08Z</time>
      </trkpt>
      <trkpt lat="47.70839" lon="-2.3669">
        <ele>30.1</ele>
        <time>2015-05-17T08:22:14Z</time>
      </trkpt>
      <trkpt lat="47.7084" lon="-2.36677">
        <ele>28.8</ele>
        <time>2015-05-17T08:22:20Z</time>
      </trkpt>
      <trkpt lat="47.70841" lon="-2.36666">
        <ele>28.4</ele>
        <time>2015-05-17T08:22:27Z</time>
      </trkpt>
      <trkpt lat="47.7084" lon="-2.36654">
        <ele>26.9</ele>
        <time>2015-05-17T08:22:34Z</time>
      </trkpt>
      <trkpt lat="47.70839" lon="-2.36642">
        <ele>25.6</ele>
        <time>2015-05-17T08:22:38Z</time>
      </trkpt>
      <trkpt lat="47.70837" lon="-2.36629">
        <ele>25.1</ele>
        <time>2015-05-17T08:22:44Z</time>
      </trkpt>
      <trkpt lat="47.70835" lon="-2.36619">
        <ele>25.2</ele>
        <time>2015-05-17T08:22:50Z</time>
      </trkpt>
      <trkpt lat="47.70835" lon="-2.36608">
        <ele>25.1</ele>
        <time>2015-05-17T08:22:56Z</time>
      </trkpt>
      <trkpt lat="47.70832" lon="-2.36596">
        <ele>24.7</ele>
        <time>2015-05-17T08:23:03Z</time>
      </trkpt>
      <trkpt lat="47.70831" lon="-2.36585">
        <ele>24.6</ele>
        <time>2015-05-17T08:23:08Z</time>
      </trkpt>
      <trkpt lat="47.70832" lon="-2.36575">
        <ele>24</ele>
        <time>2015-05-17T08:23:13Z</time>
      </trkpt>
      <trkpt lat="47.70829" lon="-2.36563">
        <ele>23.6</ele>
        <time>2015-05-17T08:23:18Z</time>
      </trkpt>
      <trkpt lat="47.70833" lon="-2.36552">
        <ele>23.4</ele>
        <time>2015-05-17T08:23:24Z</time>
      </trkpt>
      <trkpt lat="47.70837" lon="-2.36541">
        <ele>23.3</ele>
        <time>2015-05-17T08:23:30Z</time>
      </trkpt>
      <trkpt lat="47.70838" lon="-2.3653">
        <ele>22.9</ele>
        <time>2015-05-17T08:23:36Z</time>
      </trkpt>
      <trkpt lat="47.70839" lon="-2.36519">
        <ele>21.5</ele>
        <time>2015-05-17T08:23:42Z</time>
      </trkpt>
      <trkpt lat="47.70839" lon="-2.36507">
        <ele>19.4</ele>
        <time>2015-05-17T08:23:48Z</time>
      </trkpt>
      <trkpt lat="47.70834" lon="-2.36496">
        <ele>18.9</ele>
        <time>2015-05-17T08:23:54Z</time>
      </trkpt>
      <trkpt lat="47.70832" lon="-2.36484">
        <ele>19.3</ele>
        <time>2015-05-17T08:24:00Z</time>
      </trkpt>
      <trkpt lat="47.70831" lon="-2.36473">
        <ele>19.2</ele>
        <time>2015-05-17T08:24:06Z</time>
      </trkpt>
      <trkpt lat="47.70834" lon="-2.36461">
        <ele>19.3</ele>
        <time>2015-05-17T08:24:12Z</time>
      </trkpt>
      <trkpt lat="47.70832" lon="-2.36449">
        <ele>19.6</ele>
        <time>2015-05-17T08:24:18Z</time>
      </trkpt>
      <trkpt lat="47.70834" lon="-2.36438">
        <ele>19.6</ele>
        <time>2015-05-17T08:24:23Z</time>
      </trkpt>
      <trkpt lat="47.70831" lon="-2.36426">
        <ele>19.7</ele>
        <time>2015-05-17T08:24:29Z</time>
      </trkpt>
      <trkpt lat="47.70831" lon="-2.36414">
        <ele>19.8</ele>
        <time>2015-05-17T08:24:35Z</time>
      </trkpt>
      <trkpt lat="47.70829" lon="-2.36403">
        <ele>20.3</ele>
        <time>2015-05-17T08:24:41Z</time>
      </trkpt>
      <trkpt lat="47.70827" lon="-2.36391">
        <ele>20.5</ele>
        <time>2015-05-17T08:24:47Z</time>
      </trkpt>
      <trkpt lat="47.70826" lon="-2.36383">
        <ele>20.6</ele>
        <time>2015-05-17T08:24:54Z</time>
      </trkpt>
      <trkpt lat="47.70826" lon="-2.36371">
        <ele>21.2</ele>
        <time>2015-05-17T08:25:01Z</time>
      </trkpt>
      <trkpt lat="47.70828" lon="-2.3636">
        <ele>22</ele>
        <time>2015-05-17T08:25:07Z</time>
      </trkpt>
      <trkpt lat="47.70827" lon="-2.36349">
        <ele>23.2</ele>
        <time>2015-05-17T08:25:13Z</time>
      </trkpt>
      <trkpt lat="47.70828" lon="-2.36338">
        <ele>23.8</ele>
        <time>2015-05-17T08:25:19Z</time>
      </trkpt>
      <trkpt lat="47.70826" lon="-2.36326">
        <ele>24.8</ele>
        <time>2015-05-17T08:25:26Z</time>
      </trkpt>
      <trkpt lat="47.70824" lon="-2.36315">
        <ele>25.4</ele>
        <time>2015-05-17T08:25:32Z</time>
      </trkpt>
      <trkpt lat="47.70821" lon="-2.36305">
        <ele>25.7</ele>
        <time>2015-05-17T08:25:39Z</time>
      </trkpt>
      <trkpt lat="47.7082" lon="-2.36294">
        <ele>25.9</ele>
        <time>2015-05-17T08:25:45Z</time>
      </trkpt>
      <trkpt lat="47.70818" lon="-2.36283">
        <ele>26</ele>
        <time>2015-05-17T08:25:50Z</time>
      </trkpt>
      <trkpt lat="47.70818" lon="-2.36271">
        <ele>26.2</ele>
        <time>2015-05-17T08:25:55Z</time>
      </trkpt>
      <trkpt lat="47.70817" lon="-2.3626">
        <ele>26.5</ele>
        <time>2015-05-17T08:26:01Z</time>
      </trkpt>
      <trkpt lat="47.70821" lon="-2.36249">
        <ele>26.6</ele>
        <time>2015-05-17T08:26:08Z</time>
      </trkpt>
      <trkpt lat="47.70822" lon="-2.36237">
        <ele>26.6</ele>
        <time>2015-05-17T08:26:13Z</time>
      </trkpt>
      <trkpt lat="47.70823" lon="-2.36226">
        <ele>26.6</ele>
        <time>2015-05-17T08:26:18Z</time>
      </trkpt>
      <trkpt lat="47.70824" lon="-2.36216">
        <ele>25.9</ele>
        <time>2015-05-17T08:26:25Z</time>
      </trkpt>
      <trkpt lat="47.70828" lon="-2.36205">
        <ele>25.8</ele>
        <time>2015-05-17T08:26:30Z</time>
      </trkpt>
      <trkpt lat="47.70827" lon="-2.36195">
        <ele>25.4</ele>
        <time>2015-05-17T08:26:37Z</time>
      </trkpt>
      <trkpt lat="47.70825" lon="-2.36183">
        <ele>25.1</ele>
        <time>2015-05-17T08:26:42Z</time>
      </trkpt>
      <trkpt lat="47.70824" lon="-2.36171">
        <ele>24.6</ele>
        <time>2015-05-17T08:26:48Z</time>
      </trkpt>
      <trkpt lat="47.70821" lon="-2.36161">
        <ele>24.3</ele>
        <time>2015-05-17T08:26:53Z</time>
      </trkpt>
      <trkpt lat="47.70821" lon="-2.3615">
        <ele>23.7</ele>
        <time>2015-05-17T08:26:59Z</time>
      </trkpt>
      <trkpt lat="47.70821" lon="-2.36139">
        <ele>23.3</ele>
        <time>2015-05-17T08:27:05Z</time>
      </trkpt>
      <trkpt lat="47.7082" lon="-2.36128">
        <ele>23.2</ele>
        <time>2015-05-17T08:27:10Z</time>
      </trkpt>
      <trkpt lat="47.70816" lon="-2.36116">
        <ele>23</ele>
        <time>2015-05-17T08:27:16Z</time>
      </trkpt>
      <trkpt lat="47.70816" lon="-2.36106">
        <ele>22.7</ele>
        <time>2015-05-17T08:27:21Z</time>
      </trkpt>
      <trkpt lat="47.70816" lon="-2.36095">
        <ele>22.7</ele>
        <time>2015-05-17T08:27:28Z</time>
      </trkpt>
      <trkpt lat="47.70813" lon="-2.36085">
        <ele>22.6</ele>
        <time>2015-05-17T08:27:32Z</time>
      </trkpt>
      <trkpt lat="47.70812" lon="-2.36073">
        <ele>22.6</ele>
        <time>2015-05-17T08:27:38Z</time>
      </trkpt>
      <trkpt lat="47.70816" lon="-2.36063">
        <ele>22.4</ele>
        <time>2015-05-17T08:27:43Z</time>
      </trkpt>
      <trkpt lat="47.70816" lon="-2.36053">
        <ele>22.5</ele>
        <time>2015-05-17T08:27:48Z</time>
      </trkpt>
      <trkpt lat="47.70815" lon="-2.36043">
        <ele>22.5</ele>
        <time>2015-05-17T08:27:55Z</time>
      </trkpt>
      <trkpt lat="47.70813" lon="-2.36033">
        <ele>22.5</ele>
        <time>2015-05-17T08:28:00Z</time>
      </trkpt>
      <trkpt lat="47.70813" lon="-2.36022">
        <ele>22.3</ele>
        <time>2015-05-17T08:28:04Z</time>
      </trkpt>
      <trkpt lat="47.70814" lon="-2.36009">
        <ele>22.1</ele>
        <time>2015-05-17T08:28:10Z</time>
      </trkpt>
      <trkpt lat="47.70812" lon="-2.35998">
        <ele>21.9</ele>
        <time>2015-05-17T08:28:16Z</time>
      </trkpt>
      <trkpt lat="47.7081" lon="-2.35988">
        <ele>21.3</ele>
        <time>2015-05-17T08:28:23Z</time>
      </trkpt>
      <trkpt lat="47.7081" lon="-2.35976">
        <ele>21.2</ele>
        <time>2015-05-17T08:28:29Z</time>
      </trkpt>
      <trkpt lat="47.7081" lon="-2.35966">
        <ele>21</ele>
        <time>2015-05-17T08:28:35Z</time>
      </trkpt>
      <trkpt lat="47.70809" lon="-2.35955">
        <ele>20.8</ele>
        <time>2015-05-17T08:28:40Z</time>
      </trkpt>
      <trkpt lat="47.70806" lon="-2.35944">
        <ele>20.7</ele>
        <time>2015-05-17T08:28:45Z</time>
      </trkpt>
      <trkpt lat="47.70804" lon="-2.35933">
        <ele>20.5</ele>
        <time>2015-05-17T08:28:51Z</time>
      </trkpt>
      <trkpt lat="47.70801" lon="-2.35923">
        <ele>20.4</ele>
        <time>2015-05-17T08:28:56Z</time>
      </trkpt>
      <trkpt lat="47.70801" lon="-2.35911">
        <ele>20.2</ele>
        <time>2015-05-17T08:29:02Z</time>
      </trkpt>
      <trkpt lat="47.70798" lon="-2.35899">
        <ele>20.1</ele>
        <time>2015-05-17T08:29:08Z</time>
      </trkpt>
      <trkpt lat="47.70797" lon="-2.35887">
        <ele>20.2</ele>
        <time>2015-05-17T08:29:13Z</time>
      </trkpt>
      <trkpt lat="47.70796" lon="-2.35874">
        <ele>20.2</ele>
        <time>2015-05-17T08:29:20Z</time>
      </trkpt>
      <trkpt lat="47.70795" lon="-2.35864">
        <ele>20.3</ele>
        <time>2015-05-17T08:29:26Z</time>
      </trkpt>
      <trkpt lat="47.70795" lon="-2.35853">
        <ele>20.2</ele>
        <time>2015-05-17T08:29:31Z</time>
      </trkpt>
      <trkpt lat="47.70792" lon="-2.35844">
        <ele>19.9</ele>
        <time>2015-05-17T08:29:38Z</time>
      </trkpt>
      <trkpt lat="47.70792" lon="-2.35833">
        <ele>19.4</ele>
        <time>2015-05-17T08:29:45Z</time>
      </trkpt>
      <trkpt lat="47.70789" lon="-2.35822">
        <ele>18.2</ele>
        <time>2015-05-17T08:29:51Z</time>
      </trkpt>
      <trkpt lat="47.70785" lon="-2.35812">
        <ele>18.2</ele>
        <time>2015-05-17T08:29:58Z</time>
      </trkpt>
      <trkpt lat="47.70783" lon="-2.358">
        <ele>17.8</ele>
        <time>2015-05-17T08:30:05Z</time>
      </trkpt>
      <trkpt lat="47.70782" lon="-2.35787">
        <ele>17.3</ele>
        <time>2015-05-17T08:30:10Z</time>
      </trkpt>
      <trkpt lat="47.70781" lon="-2.35774">
        <ele>17.2</ele>
        <time>2015-05-17T08:30:16Z</time>
      </trkpt>
      <trkpt lat="47.70781" lon="-2.35764">
        <ele>16.9</ele>
        <time>2015-05-17T08:30:23Z</time>
      </trkpt>
      <trkpt lat="47.70779" lon="-2.35753">
        <ele>16.4</ele>
        <time>2015-05-17T08:30:30Z</time>
      </trkpt>
      <trkpt lat="47.70776" lon="-2.35742">
        <ele>16.6</ele>
        <time>2015-05-17T08:30:36Z</time>
      </trkpt>
      <trkpt lat="47.70777" lon="-2.35731">
        <ele>16</ele>
        <time>2015-05-17T08:30:41Z</time>
      </trkpt>
      <trkpt lat="47.70776" lon="-2.35719">
        <ele>15.9</ele>
        <time>2015-05-17T08:30:46Z</time>
      </trkpt>
      <trkpt lat="47.70775" lon="-2.35707">
        <ele>15.6</ele>
        <time>2015-05-17T08:30:53Z</time>
      </trkpt>
      <trkpt lat="47.70775" lon="-2.35695">
        <ele>15.3</ele>
        <time>2015-05-17T08:31:00Z</time>
      </trkpt>
      <trkpt lat="47.70772" lon="-2.35684">
        <ele>15.5</ele>
        <time>2015-05-17T08:31:04Z</time>
      </trkpt>
      <trkpt lat="47.7077" lon="-2.35673">
        <ele>15.9</ele>
        <time>2015-05-17T08:31:09Z</time>
      </trkpt>
      <trkpt lat="47.70765" lon="-2.35663">
        <ele>16.3</ele>
        <time>2015-05-17T08:31:13Z</time>
      </trkpt>
      <trkpt lat="47.70761" lon="-2.35653">
        <ele>16.6</ele>
        <time>2015-05-17T08:31:18Z</time>
      </trkpt>
      <trkpt lat="47.70761" lon="-2.35641">
        <ele>17.2</ele>
        <time>2015-05-17T08:31:25Z</time>
      </trkpt>
      <trkpt lat="47.70759" lon="-2.3563">
        <ele>17.7</ele>
        <time>2015-05-17T08:31:32Z</time>
      </trkpt>
      <trkpt lat="47.70761" lon="-2.35618">
        <ele>17.5</ele>
        <time>2015-05-17T08:31:38Z</time>
      </trkpt>
      <trkpt lat="47.70761" lon="-2.35607">
        <ele>17.3</ele>
        <time>2015-05-17T08:31:44Z</time>
      </trkpt>
      <trkpt lat="47.70763" lon="-2.35596">
        <ele>17.1</ele>
        <time>2015-05-17T08:31:48Z</time>
      </trkpt>
      <trkpt lat="47.70763" lon="-2.35585">
        <ele>17.1</ele>
        <time>2015-05-17T08:31:53Z</time>
      </trkpt>
      <trkpt lat="47.70763" lon="-2.35574">
        <ele>16.8</ele>
        <time>2015-05-17T08:31:59Z</time>
      </trkpt>
      <trkpt lat="47.70763" lon="-2.35566">
        <ele>16.5</ele>
        <time>2015-05-17T08:32:06Z</time>
      </trkpt>
      <trkpt lat="47.70765" lon="-2.35553">
        <ele>16.2</ele>
        <time>2015-05-17T08:32:13Z</time>
      </trkpt>
      <trkpt lat="47.70763" lon="-2.3554">
        <ele>16.1</ele>
        <time>2015-05-17T08:32:16Z</time>
      </trkpt>
      <trkpt lat="47.70765" lon="-2.35529">
        <ele>16.1</ele>
        <time>2015-05-17T08:32:22Z</time>
      </trkpt>
      <trkpt lat="47.70767" lon="-2.35517">
        <ele>16.5</ele>
        <time>2015-05-17T08:32:27Z</time>
      </trkpt>
      <trkpt lat="47.70767" lon="-2.35505">
        <ele>16.6</ele>
        <time>2015-05-17T08:32:32Z</time>
      </trkpt>
      <trkpt lat="47.7077" lon="-2.35495">
        <ele>16.3</ele>
        <time>2015-05-17T08:32:39Z</time>
      </trkpt>
      <trkpt lat="47.70769" lon="-2.35484">
        <ele>16.6</ele>
        <time>2015-05-17T08:32:45Z</time>
      </trkpt>
      <trkpt lat="47.7077" lon="-2.35472">
        <ele>17.1</ele>
        <time>2015-05-17T08:32:50Z</time>
      </trkpt>
      <trkpt lat="47.70775" lon="-2.35464">
        <ele>17.5</ele>
        <time>2015-05-17T08:32:56Z</time>
      </trkpt>
      <trkpt lat="47.70779" lon="-2.35453">
        <ele>17.9</ele>
        <time>2015-05-17T08:33:01Z</time>
      </trkpt>
      <trkpt lat="47.70781" lon="-2.35442">
        <ele>18.4</ele>
        <time>2015-05-17T08:33:07Z</time>
      </trkpt>
      <trkpt lat="47.70783" lon="-2.35432">
        <ele>19</ele>
        <time>2015-05-17T08:33:13Z</time>
      </trkpt>
      <trkpt lat="47.70786" lon="-2.35421">
        <ele>19.3</ele>
        <time>2015-05-17T08:33:19Z</time>
      </trkpt>
      <trkpt lat="47.70789" lon="-2.35413">
        <ele>18.9</ele>
        <time>2015-05-17T08:33:26Z</time>
      </trkpt>
      <trkpt lat="47.70794" lon="-2.35406">
        <ele>18.7</ele>
        <time>2015-05-17T08:33:44Z</time>
      </trkpt>
      <trkpt lat="47.70794" lon="-2.35401">
        <ele>18.2</ele>
        <time>2015-05-17T08:33:51Z</time>
      </trkpt>
      <trkpt lat="47.70786" lon="-2.35401">
        <ele>17.2</ele>
        <time>2015-05-17T08:34:05Z</time>
      </trkpt>
      <trkpt lat="47.70779" lon="-2.35406">
        <ele>17.1</ele>
        <time>2015-05-17T08:34:12Z</time>
      </trkpt>
      <trkpt lat="47.70776" lon="-2.3541">
        <ele>17.5</ele>
        <time>2015-05-17T08:34:19Z</time>
      </trkpt>
      <trkpt lat="47.70772" lon="-2.35414">
        <ele>17.9</ele>
        <time>2015-05-17T08:34:26Z</time>
      </trkpt>
      <trkpt lat="47.70766" lon="-2.35418">
        <ele>18.5</ele>
        <time>2015-05-17T08:34:33Z</time>
      </trkpt>
      <trkpt lat="47.7076" lon="-2.35422">
        <ele>18.7</ele>
        <time>2015-05-17T08:34:40Z</time>
      </trkpt>
      <trkpt lat="47.70756" lon="-2.35429">
        <ele>19.1</ele>
        <time>2015-05-17T08:34:47Z</time>
      </trkpt>
      <trkpt lat="47.70753" lon="-2.35435">
        <ele>19.2</ele>
        <time>2015-05-17T08:34:54Z</time>
      </trkpt>
      <trkpt lat="47.70749" lon="-2.35443">
        <ele>19.2</ele>
        <time>2015-05-17T08:35:01Z</time>
      </trkpt>
      <trkpt lat="47.70747" lon="-2.35445">
        <ele>19.3</ele>
        <time>2015-05-17T08:35:08Z</time>
      </trkpt>
      <trkpt lat="47.7075" lon="-2.35455">
        <ele>19.4</ele>
        <time>2015-05-17T08:35:15Z</time>
      </trkpt>
      <trkpt lat="47.7075" lon="-2.35462">
        <ele>20.1</ele>
        <time>2015-05-17T08:35:22Z</time>
      </trkpt>
      <trkpt lat="47.70747" lon="-2.35471">
        <ele>20.7</ele>
        <time>2015-05-17T08:35:29Z</time>
      </trkpt>
      <trkpt lat="47.70741" lon="-2.35478">
        <ele>21.4</ele>
        <time>2015-05-17T08:35:36Z</time>
      </trkpt>
      <trkpt lat="47.70736" lon="-2.35483">
        <ele>21.5</ele>
        <time>2015-05-17T08:35:43Z</time>
      </trkpt>
      <trkpt lat="47.70733" lon="-2.35493">
        <ele>21.7</ele>
        <time>2015-05-17T08:35:50Z</time>
      </trkpt>
      <trkpt lat="47.7073" lon="-2.35502">
        <ele>22</ele>
        <time>2015-05-17T08:35:57Z</time>
      </trkpt>
      <trkpt lat="47.70729" lon="-2.35507">
        <ele>22.6</ele>
        <time>2015-05-17T08:36:04Z</time>
      </trkpt>
      <trkpt lat="47.70728" lon="-2.35514">
        <ele>22.9</ele>
        <time>2015-05-17T08:36:11Z</time>
      </trkpt>
      <trkpt lat="47.70726" lon="-2.35518">
        <ele>23.3</ele>
        <time>2015-05-17T08:36:18Z</time>
      </trkpt>
      <trkpt lat="47.70722" lon="-2.35523">
        <ele>23.7</ele>
        <time>2015-05-17T08:36:25Z</time>
      </trkpt>
      <trkpt lat="47.70719" lon="-2.35529">
        <ele>24.1</ele>
        <time>2015-05-17T08:36:32Z</time>
      </trkpt>
      <trkpt lat="47.70718" lon="-2.35556">
        <ele>26.7</ele>
        <time>2015-05-17T08:37:15Z</time>
      </trkpt>
      <trkpt lat="47.70718" lon="-2.35564">
        <ele>27.7</ele>
        <time>2015-05-17T08:37:22Z</time>
      </trkpt>
      <trkpt lat="47.70717" lon="-2.35569">
        <ele>28.2</ele>
        <time>2015-05-17T08:37:29Z</time>
      </trkpt>
      <trkpt lat="47.70717" lon="-2.35573">
        <ele>29.4</ele>
        <time>2015-05-17T08:37:36Z</time>
      </trkpt>
      <trkpt lat="47.70712" lon="-2.35582">
        <ele>30.8</ele>
        <time>2015-05-17T08:37:49Z</time>
      </trkpt>
      <trkpt lat="47.70709" lon="-2.35588">
        <ele>31.1</ele>
        <time>2015-05-17T08:37:56Z</time>
      </trkpt>
      <trkpt lat="47.70707" lon="-2.35596">
        <ele>31.6</ele>
        <time>2015-05-17T08:38:03Z</time>
      </trkpt>
      <trkpt lat="47.70703" lon="-2.35604">
        <ele>32.3</ele>
        <time>2015-05-17T08:38:10Z</time>
      </trkpt>
      <trkpt lat="47.707" lon="-2.35611">
        <ele>33.2</ele>
        <time>2015-05-17T08:38:17Z</time>
      </trkpt>
      <trkpt lat="47.70699" lon="-2.35618">
        <ele>34.1</ele>
        <time>2015-05-17T08:38:24Z</time>
      </trkpt>
      <trkpt lat="47.70697" lon="-2.35626">
        <ele>35</ele>
        <time>2015-05-17T08:38:31Z</time>
      </trkpt>
      <trkpt lat="47.70694" lon="-2.35635">
        <ele>36.7</ele>
        <time>2015-05-17T08:38:38Z</time>
      </trkpt>
      <trkpt lat="47.7069" lon="-2.35641">
        <ele>37.5</ele>
        <time>2015-05-17T08:38:45Z</time>
      </trkpt>
      <trkpt lat="47.70688" lon="-2.35647">
        <ele>38.3</ele>
        <time>2015-05-17T08:38:52Z</time>
      </trkpt>
      <trkpt lat="47.70688" lon="-2.3565">
        <ele>39</ele>
        <time>2015-05-17T08:38:59Z</time>
      </trkpt>
      <trkpt lat="47.70684" lon="-2.35658">
        <ele>39.7</ele>
        <time>2015-05-17T08:39:06Z</time>
      </trkpt>
      <trkpt lat="47.70679" lon="-2.35666">
        <ele>40.2</ele>
        <time>2015-05-17T08:39:13Z</time>
      </trkpt>
      <trkpt lat="47.70679" lon="-2.35672">
        <ele>40.4</ele>
        <time>2015-05-17T08:39:20Z</time>
      </trkpt>
      <trkpt lat="47.70679" lon="-2.35678">
        <ele>40.8</ele>
        <time>2015-05-17T08:39:27Z</time>
      </trkpt>
      <trkpt lat="47.70679" lon="-2.35684">
        <ele>41.3</ele>
        <time>2015-05-17T08:39:34Z</time>
      </trkpt>
      <trkpt lat="47.70679" lon="-2.3569">
        <ele>42.1</ele>
        <time>2015-05-17T08:39:41Z</time>
      </trkpt>
      <trkpt lat="47.70675" lon="-2.35692">
        <ele>42.4</ele>
        <time>2015-05-17T08:39:48Z</time>
      </trkpt>
      <trkpt lat="47.70669" lon="-2.35693">
        <ele>43.1</ele>
        <time>2015-05-17T08:39:55Z</time>
      </trkpt>
      <trkpt lat="47.70665" lon="-2.35701">
        <ele>43.4</ele>
        <time>2015-05-17T08:40:02Z</time>
      </trkpt>
      <trkpt lat="47.70663" lon="-2.35713">
        <ele>44.2</ele>
        <time>2015-05-17T08:40:09Z</time>
      </trkpt>
      <trkpt lat="47.70658" lon="-2.35722">
        <ele>44.7</ele>
        <time>2015-05-17T08:40:16Z</time>
      </trkpt>
      <trkpt lat="47.70655" lon="-2.35727">
        <ele>45.7</ele>
        <time>2015-05-17T08:40:23Z</time>
      </trkpt>
      <trkpt lat="47.70649" lon="-2.35731">
        <ele>47.4</ele>
        <time>2015-05-17T08:40:30Z</time>
      </trkpt>
      <trkpt lat="47.70646" lon="-2.35732">
        <ele>48.9</ele>
        <time>2015-05-17T08:40:37Z</time>
      </trkpt>
      <trkpt lat="47.70648" lon="-2.35729">
        <ele>50.7</ele>
        <time>2015-05-17T08:41:07Z</time>
      </trkpt>
      <trkpt lat="47.70647" lon="-2.35726">
        <ele>55.4</ele>
        <time>2015-05-17T08:48:43Z</time>
      </trkpt>
      <trkpt lat="47.70643" lon="-2.35721">
        <ele>55.6</ele>
        <time>2015-05-17T08:48:50Z</time>
      </trkpt>
      <trkpt lat="47.70637" lon="-2.35712">
        <ele>55.9</ele>
        <time>2015-05-17T08:48:57Z</time>
      </trkpt>
      <trkpt lat="47.70633" lon="-2.35704">
        <ele>56.1</ele>
        <time>2015-05-17T08:49:04Z</time>
      </trkpt>
      <trkpt lat="47.70631" lon="-2.35695">
        <ele>56.3</ele>
        <time>2015-05-17T08:49:09Z</time>
      </trkpt>
      <trkpt lat="47.70631" lon="-2.35685">
        <ele>56.7</ele>
        <time>2015-05-17T08:49:16Z</time>
      </trkpt>
      <trkpt lat="47.70625" lon="-2.35677">
        <ele>56.8</ele>
        <time>2015-05-17T08:49:22Z</time>
      </trkpt>
      <trkpt lat="47.7062" lon="-2.35673">
        <ele>56.9</ele>
        <time>2015-05-17T08:49:29Z</time>
      </trkpt>
      <trkpt lat="47.7062" lon="-2.35664">
        <ele>57</ele>
        <time>2015-05-17T08:49:36Z</time>
      </trkpt>
      <trkpt lat="47.70622" lon="-2.35654">
        <ele>56.9</ele>
        <time>2015-05-17T08:49:43Z</time>
      </trkpt>
      <trkpt lat="47.70618" lon="-2.35642">
        <ele>57</ele>
        <time>2015-05-17T08:49:50Z</time>
      </trkpt>
      <trkpt lat="47.70617" lon="-2.35641">
        <ele>57</ele>
        <time>2015-05-17T08:49:57Z</time>
      </trkpt>
      <trkpt lat="47.70616" lon="-2.3564">
        <ele>56.9</ele>
        <time>2015-05-17T08:50:04Z</time>
      </trkpt>
      <trkpt lat="47.70613" lon="-2.35636">
        <ele>57</ele>
        <time>2015-05-17T08:50:11Z</time>
      </trkpt>
      <trkpt lat="47.70607" lon="-2.3563">
        <ele>57.1</ele>
        <time>2015-05-17T08:50:17Z</time>
      </trkpt>
      <trkpt lat="47.70599" lon="-2.35628">
        <ele>57.3</ele>
        <time>2015-05-17T08:50:24Z</time>
      </trkpt>
      <trkpt lat="47.70595" lon="-2.35627">
        <ele>57.5</ele>
        <time>2015-05-17T08:50:31Z</time>
      </trkpt>
      <trkpt lat="47.70588" lon="-2.35629">
        <ele>57.5</ele>
        <time>2015-05-17T08:50:38Z</time>
      </trkpt>
      <trkpt lat="47.7058" lon="-2.35628">
        <ele>57.4</ele>
        <time>2015-05-17T08:50:42Z</time>
      </trkpt>
      <trkpt lat="47.70577" lon="-2.35621">
        <ele>57.4</ele>
        <time>2015-05-17T08:50:49Z</time>
      </trkpt>
      <trkpt lat="47.70577" lon="-2.35617">
        <ele>57.5</ele>
        <time>2015-05-17T08:50:56Z</time>
      </trkpt>
      <trkpt lat="47.70574" lon="-2.35615">
        <ele>57.8</ele>
        <time>2015-05-17T08:51:03Z</time>
      </trkpt>
      <trkpt lat="47.70569" lon="-2.35612">
        <ele>58</ele>
        <time>2015-05-17T08:51:10Z</time>
      </trkpt>
      <trkpt lat="47.70568" lon="-2.35601">
        <ele>58.3</ele>
        <time>2015-05-17T08:51:17Z</time>
      </trkpt>
      <trkpt lat="47.70568" lon="-2.35592">
        <ele>58.6</ele>
        <time>2015-05-17T08:51:24Z</time>
      </trkpt>
      <trkpt lat="47.70565" lon="-2.35587">
        <ele>58.9</ele>
        <time>2015-05-17T08:51:31Z</time>
      </trkpt>
      <trkpt lat="47.70561" lon="-2.35579">
        <ele>58.9</ele>
        <time>2015-05-17T08:51:38Z</time>
      </trkpt>
      <trkpt lat="47.70557" lon="-2.3557">
        <ele>59.2</ele>
        <time>2015-05-17T08:51:42Z</time>
      </trkpt>
      <trkpt lat="47.70558" lon="-2.35558">
        <ele>60.3</ele>
        <time>2015-05-17T08:51:49Z</time>
      </trkpt>
      <trkpt lat="47.70559" lon="-2.35549">
        <ele>60.6</ele>
        <time>2015-05-17T08:51:56Z</time>
      </trkpt>
      <trkpt lat="47.70558" lon="-2.3554">
        <ele>61.1</ele>
        <time>2015-05-17T08:52:03Z</time>
      </trkpt>
      <trkpt lat="47.70554" lon="-2.3553">
        <ele>61.8</ele>
        <time>2015-05-17T08:52:09Z</time>
      </trkpt>
      <trkpt lat="47.70551" lon="-2.35519">
        <ele>62.9</ele>
        <time>2015-05-17T08:52:15Z</time>
      </trkpt>
      <trkpt lat="47.70549" lon="-2.35507">
        <ele>63.6</ele>
        <time>2015-05-17T08:52:20Z</time>
      </trkpt>
      <trkpt lat="47.70552" lon="-2.355">
        <ele>64.7</ele>
        <time>2015-05-17T08:52:27Z</time>
      </trkpt>
      <trkpt lat="47.70551" lon="-2.35492">
        <ele>65.3</ele>
        <time>2015-05-17T08:52:34Z</time>
      </trkpt>
      <trkpt lat="47.7055" lon="-2.3549">
        <ele>65.9</ele>
        <time>2015-05-17T08:52:41Z</time>
      </trkpt>
      <trkpt lat="47.70543" lon="-2.35491">
        <ele>65.9</ele>
        <time>2015-05-17T08:53:16Z</time>
      </trkpt>
      <trkpt lat="47.70538" lon="-2.35486">
        <ele>66</ele>
        <time>2015-05-17T08:53:23Z</time>
      </trkpt>
      <trkpt lat="47.70533" lon="-2.35478">
        <ele>66.2</ele>
        <time>2015-05-17T08:53:28Z</time>
      </trkpt>
      <trkpt lat="47.70529" lon="-2.35466">
        <ele>66.6</ele>
        <time>2015-05-17T08:53:35Z</time>
      </trkpt>
      <trkpt lat="47.70528" lon="-2.35455">
        <ele>67</ele>
        <time>2015-05-17T08:53:40Z</time>
      </trkpt>
      <trkpt lat="47.70529" lon="-2.35444">
        <ele>67.5</ele>
        <time>2015-05-17T08:53:47Z</time>
      </trkpt>
      <trkpt lat="47.7053" lon="-2.35437">
        <ele>67.8</ele>
        <time>2015-05-17T08:53:54Z</time>
      </trkpt>
      <trkpt lat="47.7053" lon="-2.35429">
        <ele>68.2</ele>
        <time>2015-05-17T08:54:01Z</time>
      </trkpt>
      <trkpt lat="47.70529" lon="-2.35419">
        <ele>68.7</ele>
        <time>2015-05-17T08:54:08Z</time>
      </trkpt>
      <trkpt lat="47.70526" lon="-2.35409">
        <ele>69.3</ele>
        <time>2015-05-17T08:54:15Z</time>
      </trkpt>
      <trkpt lat="47.70526" lon="-2.35399">
        <ele>69.4</ele>
        <time>2015-05-17T08:54:22Z</time>
      </trkpt>
      <trkpt lat="47.70523" lon="-2.35389">
        <ele>69.5</ele>
        <time>2015-05-17T08:54:26Z</time>
      </trkpt>
      <trkpt lat="47.70522" lon="-2.35378">
        <ele>70.1</ele>
        <time>2015-05-17T08:54:33Z</time>
      </trkpt>
      <trkpt lat="47.70522" lon="-2.35366">
        <ele>70.5</ele>
        <time>2015-05-17T08:54:40Z</time>
      </trkpt>
      <trkpt lat="47.70523" lon="-2.35356">
        <ele>70.8</ele>
        <time>2015-05-17T08:54:47Z</time>
      </trkpt>
      <trkpt lat="47.70525" lon="-2.35345">
        <ele>71</ele>
        <time>2015-05-17T08:54:53Z</time>
      </trkpt>
      <trkpt lat="47.70525" lon="-2.35334">
        <ele>71.3</ele>
        <time>2015-05-17T08:55:00Z</time>
      </trkpt>
      <trkpt lat="47.70525" lon="-2.35323">
        <ele>71.4</ele>
        <time>2015-05-17T08:55:06Z</time>
      </trkpt>
      <trkpt lat="47.70526" lon="-2.35312">
        <ele>71.6</ele>
        <time>2015-05-17T08:55:13Z</time>
      </trkpt>
      <trkpt lat="47.70529" lon="-2.35305">
        <ele>71.8</ele>
        <time>2015-05-17T08:55:20Z</time>
      </trkpt>
      <trkpt lat="47.70535" lon="-2.35296">
        <ele>72.2</ele>
        <time>2015-05-17T08:55:27Z</time>
      </trkpt>
      <trkpt lat="47.70537" lon="-2.35293">
        <ele>72.3</ele>
        <time>2015-05-17T08:55:34Z</time>
      </trkpt>
      <trkpt lat="47.70539" lon="-2.35282">
        <ele>72.9</ele>
        <time>2015-05-17T08:55:41Z</time>
      </trkpt>
      <trkpt lat="47.70544" lon="-2.35277">
        <ele>72.4</ele>
        <time>2015-05-17T08:55:48Z</time>
      </trkpt>
      <trkpt lat="47.70545" lon="-2.35273">
        <ele>72.3</ele>
        <time>2015-05-17T08:55:55Z</time>
      </trkpt>
      <trkpt lat="47.70544" lon="-2.35268">
        <ele>72.9</ele>
        <time>2015-05-17T08:56:02Z</time>
      </trkpt>
      <trkpt lat="47.70549" lon="-2.35276">
        <ele>72.9</ele>
        <time>2015-05-17T08:56:18Z</time>
      </trkpt>
      <trkpt lat="47.70552" lon="-2.35285">
        <ele>73</ele>
        <time>2015-05-17T08:56:25Z</time>
      </trkpt>
      <trkpt lat="47.70559" lon="-2.35282">
        <ele>74</ele>
        <time>2015-05-17T08:56:32Z</time>
      </trkpt>
      <trkpt lat="47.70565" lon="-2.35276">
        <ele>75.3</ele>
        <time>2015-05-17T08:56:39Z</time>
      </trkpt>
      <trkpt lat="47.70568" lon="-2.35266">
        <ele>76.1</ele>
        <time>2015-05-17T08:56:45Z</time>
      </trkpt>
      <trkpt lat="47.70574" lon="-2.35259">
        <ele>76.1</ele>
        <time>2015-05-17T08:56:50Z</time>
      </trkpt>
      <trkpt lat="47.7058" lon="-2.35253">
        <ele>76.5</ele>
        <time>2015-05-17T08:56:56Z</time>
      </trkpt>
      <trkpt lat="47.70585" lon="-2.35245">
        <ele>77.1</ele>
        <time>2015-05-17T08:57:01Z</time>
      </trkpt>
      <trkpt lat="47.70594" lon="-2.3524">
        <ele>77.3</ele>
        <time>2015-05-17T08:57:07Z</time>
      </trkpt>
      <trkpt lat="47.70596" lon="-2.3523">
        <ele>78.1</ele>
        <time>2015-05-17T08:57:14Z</time>
      </trkpt>
      <trkpt lat="47.70594" lon="-2.3522">
        <ele>78</ele>
        <time>2015-05-17T08:57:21Z</time>
      </trkpt>
      <trkpt lat="47.70591" lon="-2.3521">
        <ele>78.2</ele>
        <time>2015-05-17T08:57:27Z</time>
      </trkpt>
      <trkpt lat="47.70588" lon="-2.35199">
        <ele>78.7</ele>
        <time>2015-05-17T08:57:33Z</time>
      </trkpt>
      <trkpt lat="47.70587" lon="-2.3519">
        <ele>78.9</ele>
        <time>2015-05-17T08:57:40Z</time>
      </trkpt>
      <trkpt lat="47.70585" lon="-2.35179">
        <ele>79.2</ele>
        <time>2015-05-17T08:57:45Z</time>
      </trkpt>
      <trkpt lat="47.70586" lon="-2.35167">
        <ele>80.1</ele>
        <time>2015-05-17T08:57:51Z</time>
      </trkpt>
      <trkpt lat="47.70585" lon="-2.35155">
        <ele>80.2</ele>
        <time>2015-05-17T08:57:56Z</time>
      </trkpt>
      <trkpt lat="47.70586" lon="-2.35146">
        <ele>80.6</ele>
        <time>2015-05-17T08:58:03Z</time>
      </trkpt>
      <trkpt lat="47.70588" lon="-2.35135">
        <ele>81</ele>
        <time>2015-05-17T08:58:09Z</time>
      </trkpt>
      <trkpt lat="47.70589" lon="-2.35125">
        <ele>81.4</ele>
        <time>2015-05-17T08:58:16Z</time>
      </trkpt>
      <trkpt lat="47.70589" lon="-2.35115">
        <ele>81.9</ele>
        <time>2015-05-17T08:58:23Z</time>
      </trkpt>
      <trkpt lat="47.70588" lon="-2.35104">
        <ele>82.5</ele>
        <time>2015-05-17T08:58:29Z</time>
      </trkpt>
      <trkpt lat="47.70588" lon="-2.35093">
        <ele>83.1</ele>
        <time>2015-05-17T08:58:34Z</time>
      </trkpt>
      <trkpt lat="47.70586" lon="-2.35081">
        <ele>82.9</ele>
        <time>2015-05-17T08:58:41Z</time>
      </trkpt>
      <trkpt lat="47.70586" lon="-2.35071">
        <ele>82.7</ele>
        <time>2015-05-17T08:58:48Z</time>
      </trkpt>
      <trkpt lat="47.70584" lon="-2.35063">
        <ele>83.1</ele>
        <time>2015-05-17T08:58:55Z</time>
      </trkpt>
      <trkpt lat="47.70582" lon="-2.3505">
        <ele>83.5</ele>
        <time>2015-05-17T08:59:02Z</time>
      </trkpt>
      <trkpt lat="47.70581" lon="-2.35038">
        <ele>83.5</ele>
        <time>2015-05-17T08:59:09Z</time>
      </trkpt>
      <trkpt lat="47.7058" lon="-2.35028">
        <ele>83.5</ele>
        <time>2015-05-17T08:59:16Z</time>
      </trkpt>
      <trkpt lat="47.70578" lon="-2.35021">
        <ele>83.8</ele>
        <time>2015-05-17T08:59:23Z</time>
      </trkpt>
      <trkpt lat="47.70575" lon="-2.3501">
        <ele>84.3</ele>
        <time>2015-05-17T08:59:28Z</time>
      </trkpt>
      <trkpt lat="47.70573" lon="-2.34997">
        <ele>84.7</ele>
        <time>2015-05-17T08:59:34Z</time>
      </trkpt>
      <trkpt lat="47.70571" lon="-2.34989">
        <ele>85.1</ele>
        <time>2015-05-17T08:59:41Z</time>
      </trkpt>
      <trkpt lat="47.70566" lon="-2.34978">
        <ele>85.4</ele>
        <time>2015-05-17T08:59:48Z</time>
      </trkpt>
      <trkpt lat="47.70567" lon="-2.34967">
        <ele>85.7</ele>
        <time>2015-05-17T08:59:54Z</time>
      </trkpt>
      <trkpt lat="47.70565" lon="-2.34956">
        <ele>86.3</ele>
        <time>2015-05-17T08:59:59Z</time>
      </trkpt>
      <trkpt lat="47.7056" lon="-2.34947">
        <ele>86.8</ele>
        <time>2015-05-17T09:00:06Z</time>
      </trkpt>
      <trkpt lat="47.70558" lon="-2.34939">
        <ele>86.9</ele>
        <time>2015-05-17T09:00:13Z</time>
      </trkpt>
      <trkpt lat="47.70556" lon="-2.34927">
        <ele>87.5</ele>
        <time>2015-05-17T09:00:20Z</time>
      </trkpt>
      <trkpt lat="47.70555" lon="-2.34918">
        <ele>87.8</ele>
        <time>2015-05-17T09:00:27Z</time>
      </trkpt>
      <trkpt lat="47.70553" lon="-2.34908">
        <ele>88</ele>
        <time>2015-05-17T09:00:34Z</time>
      </trkpt>
      <trkpt lat="47.70549" lon="-2.34897">
        <ele>87.9</ele>
        <time>2015-05-17T09:00:39Z</time>
      </trkpt>
      <trkpt lat="47.70544" lon="-2.34888">
        <ele>87.6</ele>
        <time>2015-05-17T09:00:46Z</time>
      </trkpt>
      <trkpt lat="47.7054" lon="-2.34878">
        <ele>87.5</ele>
        <time>2015-05-17T09:00:53Z</time>
      </trkpt>
      <trkpt lat="47.70535" lon="-2.34869">
        <ele>87.7</ele>
        <time>2015-05-17T09:00:58Z</time>
      </trkpt>
      <trkpt lat="47.7053" lon="-2.34862">
        <ele>87.5</ele>
        <time>2015-05-17T09:01:05Z</time>
      </trkpt>
      <trkpt lat="47.70527" lon="-2.34852">
        <ele>87</ele>
        <time>2015-05-17T09:01:11Z</time>
      </trkpt>
      <trkpt lat="47.70525" lon="-2.3484">
        <ele>87.1</ele>
        <time>2015-05-17T09:01:18Z</time>
      </trkpt>
      <trkpt lat="47.70523" lon="-2.34828">
        <ele>87.1</ele>
        <time>2015-05-17T09:01:24Z</time>
      </trkpt>
      <trkpt lat="47.70523" lon="-2.34816">
        <ele>86.7</ele>
        <time>2015-05-17T09:01:31Z</time>
      </trkpt>
      <trkpt lat="47.70525" lon="-2.34804">
        <ele>86.4</ele>
        <time>2015-05-17T09:01:37Z</time>
      </trkpt>
      <trkpt lat="47.7052" lon="-2.34794">
        <ele>85.8</ele>
        <time>2015-05-17T09:01:43Z</time>
      </trkpt>
      <trkpt lat="47.70517" lon="-2.34787">
        <ele>85.6</ele>
        <time>2015-05-17T09:01:50Z</time>
      </trkpt>
      <trkpt lat="47.70508" lon="-2.34786">
        <ele>85.6</ele>
        <time>2015-05-17T09:01:54Z</time>
      </trkpt>
      <trkpt lat="47.70503" lon="-2.34789">
        <ele>85.3</ele>
        <time>2015-05-17T09:02:01Z</time>
      </trkpt>
      <trkpt lat="47.70496" lon="-2.34785">
        <ele>84.9</ele>
        <time>2015-05-17T09:02:08Z</time>
      </trkpt>
      <trkpt lat="47.70494" lon="-2.34779">
        <ele>84.4</ele>
        <time>2015-05-17T09:02:15Z</time>
      </trkpt>
      <trkpt lat="47.7049" lon="-2.3478">
        <ele>83.9</ele>
        <time>2015-05-17T09:02:22Z</time>
      </trkpt>
      <trkpt lat="47.70488" lon="-2.34781">
        <ele>83.2</ele>
        <time>2015-05-17T09:02:29Z</time>
      </trkpt>
      <trkpt lat="47.70481" lon="-2.34777">
        <ele>82.6</ele>
        <time>2015-05-17T09:02:36Z</time>
      </trkpt>
      <trkpt lat="47.70478" lon="-2.34768">
        <ele>82.4</ele>
        <time>2015-05-17T09:02:43Z</time>
      </trkpt>
      <trkpt lat="47.70471" lon="-2.34762">
        <ele>82.4</ele>
        <time>2015-05-17T09:02:50Z</time>
      </trkpt>
      <trkpt lat="47.70468" lon="-2.34759">
        <ele>82.3</ele>
        <time>2015-05-17T09:02:57Z</time>
      </trkpt>
      <trkpt lat="47.70467" lon="-2.34749">
        <ele>82.1</ele>
        <time>2015-05-17T09:03:03Z</time>
      </trkpt>
      <trkpt lat="47.70464" lon="-2.34738">
        <ele>81.7</ele>
        <time>2015-05-17T09:03:09Z</time>
      </trkpt>
      <trkpt lat="47.70456" lon="-2.34738">
        <ele>81.4</ele>
        <time>2015-05-17T09:03:16Z</time>
      </trkpt>
      <trkpt lat="47.70448" lon="-2.34738">
        <ele>80.9</ele>
        <time>2015-05-17T09:03:22Z</time>
      </trkpt>
      <trkpt lat="47.70444" lon="-2.34729">
        <ele>81</ele>
        <time>2015-05-17T09:03:28Z</time>
      </trkpt>
      <trkpt lat="47.70442" lon="-2.34718">
        <ele>81.3</ele>
        <time>2015-05-17T09:03:33Z</time>
      </trkpt>
      <trkpt lat="47.70442" lon="-2.34708">
        <ele>81.5</ele>
        <time>2015-05-17T09:03:37Z</time>
      </trkpt>
      <trkpt lat="47.70443" lon="-2.34695">
        <ele>81.3</ele>
        <time>2015-05-17T09:03:43Z</time>
      </trkpt>
      <trkpt lat="47.70444" lon="-2.34692">
        <ele>81.9</ele>
        <time>2015-05-17T09:03:50Z</time>
      </trkpt>
      <trkpt lat="47.70439" lon="-2.34684">
        <ele>81.7</ele>
        <time>2015-05-17T09:03:57Z</time>
      </trkpt>
      <trkpt lat="47.70437" lon="-2.34678">
        <ele>81.8</ele>
        <time>2015-05-17T09:04:04Z</time>
      </trkpt>
      <trkpt lat="47.70434" lon="-2.34667">
        <ele>82.4</ele>
        <time>2015-05-17T09:04:09Z</time>
      </trkpt>
      <trkpt lat="47.7043" lon="-2.3466">
        <ele>83.1</ele>
        <time>2015-05-17T09:04:16Z</time>
      </trkpt>
      <trkpt lat="47.70426" lon="-2.34649">
        <ele>83</ele>
        <time>2015-05-17T09:04:22Z</time>
      </trkpt>
      <trkpt lat="47.70422" lon="-2.34639">
        <ele>83.3</ele>
        <time>2015-05-17T09:04:28Z</time>
      </trkpt>
      <trkpt lat="47.70419" lon="-2.3463">
        <ele>82.8</ele>
        <time>2015-05-17T09:04:33Z</time>
      </trkpt>
      <trkpt lat="47.70415" lon="-2.34621">
        <ele>82.6</ele>
        <time>2015-05-17T09:04:40Z</time>
      </trkpt>
      <trkpt lat="47.70416" lon="-2.34614">
        <ele>82.4</ele>
        <time>2015-05-17T09:04:47Z</time>
      </trkpt>
      <trkpt lat="47.70411" lon="-2.34604">
        <ele>82.4</ele>
        <time>2015-05-17T09:04:53Z</time>
      </trkpt>
      <trkpt lat="47.70409" lon="-2.34595">
        <ele>82.5</ele>
        <time>2015-05-17T09:05:00Z</time>
      </trkpt>
      <trkpt lat="47.70405" lon="-2.34584">
        <ele>82.9</ele>
        <time>2015-05-17T09:05:07Z</time>
      </trkpt>
      <trkpt lat="47.70403" lon="-2.34574">
        <ele>83</ele>
        <time>2015-05-17T09:05:11Z</time>
      </trkpt>
      <trkpt lat="47.70402" lon="-2.34562">
        <ele>82.9</ele>
        <time>2015-05-17T09:05:15Z</time>
      </trkpt>
      <trkpt lat="47.70402" lon="-2.34555">
        <ele>82.8</ele>
        <time>2015-05-17T09:05:22Z</time>
      </trkpt>
      <trkpt lat="47.70398" lon="-2.34547">
        <ele>83.3</ele>
        <time>2015-05-17T09:05:35Z</time>
      </trkpt>
      <trkpt lat="47.70396" lon="-2.34536">
        <ele>83.4</ele>
        <time>2015-05-17T09:05:40Z</time>
      </trkpt>
      <trkpt lat="47.70392" lon="-2.34525">
        <ele>83.7</ele>
        <time>2015-05-17T09:05:47Z</time>
      </trkpt>
      <trkpt lat="47.70396" lon="-2.34519">
        <ele>83.8</ele>
        <time>2015-05-17T09:05:54Z</time>
      </trkpt>
      <trkpt lat="47.70394" lon="-2.34508">
        <ele>84.8</ele>
        <time>2015-05-17T09:06:17Z</time>
      </trkpt>
      <trkpt lat="47.70389" lon="-2.34507">
        <ele>84.8</ele>
        <time>2015-05-17T09:06:24Z</time>
      </trkpt>
      <trkpt lat="47.70382" lon="-2.34511">
        <ele>84.3</ele>
        <time>2015-05-17T09:06:28Z</time>
      </trkpt>
      <trkpt lat="47.70374" lon="-2.34508">
        <ele>84</ele>
        <time>2015-05-17T09:06:35Z</time>
      </trkpt>
      <trkpt lat="47.70368" lon="-2.34501">
        <ele>83.2</ele>
        <time>2015-05-17T09:06:42Z</time>
      </trkpt>
      <trkpt lat="47.70362" lon="-2.34493">
        <ele>83.3</ele>
        <time>2015-05-17T09:06:48Z</time>
      </trkpt>
      <trkpt lat="47.70364" lon="-2.34481">
        <ele>83</ele>
        <time>2015-05-17T09:06:55Z</time>
      </trkpt>
      <trkpt lat="47.70366" lon="-2.3447">
        <ele>83.6</ele>
        <time>2015-05-17T09:07:00Z</time>
      </trkpt>
      <trkpt lat="47.70371" lon="-2.34461">
        <ele>84</ele>
        <time>2015-05-17T09:07:06Z</time>
      </trkpt>
      <trkpt lat="47.70376" lon="-2.34452">
        <ele>84.5</ele>
        <time>2015-05-17T09:07:12Z</time>
      </trkpt>
      <trkpt lat="47.70371" lon="-2.34445">
        <ele>84.8</ele>
        <time>2015-05-17T09:07:19Z</time>
      </trkpt>
      <trkpt lat="47.7037" lon="-2.34443">
        <ele>84.9</ele>
        <time>2015-05-17T09:07:26Z</time>
      </trkpt>
      <trkpt lat="47.70377" lon="-2.34447">
        <ele>84.8</ele>
        <time>2015-05-17T09:09:21Z</time>
      </trkpt>
      <trkpt lat="47.7038" lon="-2.34442">
        <ele>84.8</ele>
        <time>2015-05-17T09:09:28Z</time>
      </trkpt>
      <trkpt lat="47.70378" lon="-2.3443">
        <ele>84.7</ele>
        <time>2015-05-17T09:09:33Z</time>
      </trkpt>
      <trkpt lat="47.70378" lon="-2.34419">
        <ele>84.9</ele>
        <time>2015-05-17T09:09:38Z</time>
      </trkpt>
      <trkpt lat="47.70375" lon="-2.34408">
        <ele>85.1</ele>
        <time>2015-05-17T09:09:42Z</time>
      </trkpt>
      <trkpt lat="47.70374" lon="-2.34398">
        <ele>85.1</ele>
        <time>2015-05-17T09:09:46Z</time>
      </trkpt>
      <trkpt lat="47.70372" lon="-2.34387">
        <ele>85.1</ele>
        <time>2015-05-17T09:09:51Z</time>
      </trkpt>
      <trkpt lat="47.7037" lon="-2.34381">
        <ele>84.9</ele>
        <time>2015-05-17T09:09:58Z</time>
      </trkpt>
      <trkpt lat="47.70372" lon="-2.34368">
        <ele>84.7</ele>
        <time>2015-05-17T09:10:16Z</time>
      </trkpt>
      <trkpt lat="47.70371" lon="-2.34356">
        <ele>84.8</ele>
        <time>2015-05-17T09:10:21Z</time>
      </trkpt>
      <trkpt lat="47.70368" lon="-2.34345">
        <ele>85</ele>
        <time>2015-05-17T09:10:27Z</time>
      </trkpt>
      <trkpt lat="47.70367" lon="-2.34334">
        <ele>85.2</ele>
        <time>2015-05-17T09:10:34Z</time>
      </trkpt>
      <trkpt lat="47.70366" lon="-2.34325">
        <ele>85.2</ele>
        <time>2015-05-17T09:10:41Z</time>
      </trkpt>
      <trkpt lat="47.70364" lon="-2.34321">
        <ele>85.1</ele>
        <time>2015-05-17T09:10:48Z</time>
      </trkpt>
      <trkpt lat="47.70362" lon="-2.34316">
        <ele>85.2</ele>
        <time>2015-05-17T09:10:55Z</time>
      </trkpt>
      <trkpt lat="47.70361" lon="-2.34304">
        <ele>84.9</ele>
        <time>2015-05-17T09:11:01Z</time>
      </trkpt>
      <trkpt lat="47.70359" lon="-2.34293">
        <ele>84.8</ele>
        <time>2015-05-17T09:11:06Z</time>
      </trkpt>
      <trkpt lat="47.70357" lon="-2.34281">
        <ele>84.8</ele>
        <time>2015-05-17T09:11:12Z</time>
      </trkpt>
      <trkpt lat="47.70351" lon="-2.34274">
        <ele>84.3</ele>
        <time>2015-05-17T09:11:17Z</time>
      </trkpt>
      <trkpt lat="47.70349" lon="-2.34268">
        <ele>83.3</ele>
        <time>2015-05-17T09:11:24Z</time>
      </trkpt>
      <trkpt lat="47.70347" lon="-2.34265">
        <ele>82.2</ele>
        <time>2015-05-17T09:11:31Z</time>
      </trkpt>
      <trkpt lat="47.70344" lon="-2.3426">
        <ele>81.2</ele>
        <time>2015-05-17T09:11:47Z</time>
      </trkpt>
      <trkpt lat="47.70344" lon="-2.34255">
        <ele>81</ele>
        <time>2015-05-17T09:11:54Z</time>
      </trkpt>
      <trkpt lat="47.70344" lon="-2.34244">
        <ele>81.3</ele>
        <time>2015-05-17T09:12:00Z</time>
      </trkpt>
      <trkpt lat="47.70344" lon="-2.34232">
        <ele>81.4</ele>
        <time>2015-05-17T09:12:07Z</time>
      </trkpt>
      <trkpt lat="47.70343" lon="-2.3422">
        <ele>81.3</ele>
        <time>2015-05-17T09:12:14Z</time>
      </trkpt>
      <trkpt lat="47.70342" lon="-2.34209">
        <ele>80.9</ele>
        <time>2015-05-17T09:12:20Z</time>
      </trkpt>
      <trkpt lat="47.70339" lon="-2.34197">
        <ele>80.6</ele>
        <time>2015-05-17T09:12:27Z</time>
      </trkpt>
      <trkpt lat="47.7034" lon="-2.34186">
        <ele>80.4</ele>
        <time>2015-05-17T09:12:33Z</time>
      </trkpt>
      <trkpt lat="47.70338" lon="-2.34177">
        <ele>79.9</ele>
        <time>2015-05-17T09:12:40Z</time>
      </trkpt>
      <trkpt lat="47.70333" lon="-2.34168">
        <ele>79.8</ele>
        <time>2015-05-17T09:12:46Z</time>
      </trkpt>
      <trkpt lat="47.70331" lon="-2.34164">
        <ele>79.7</ele>
        <time>2015-05-17T09:12:53Z</time>
      </trkpt>
      <trkpt lat="47.70335" lon="-2.34171">
        <ele>80</ele>
        <time>2015-05-17T09:13:49Z</time>
      </trkpt>
      <trkpt lat="47.70332" lon="-2.34164">
        <ele>80.2</ele>
        <time>2015-05-17T09:14:23Z</time>
      </trkpt>
      <trkpt lat="47.7033" lon="-2.34162">
        <ele>80.2</ele>
        <time>2015-05-17T09:14:30Z</time>
      </trkpt>
      <trkpt lat="47.70332" lon="-2.34152">
        <ele>80</ele>
        <time>2015-05-17T09:15:00Z</time>
      </trkpt>
      <trkpt lat="47.70329" lon="-2.34145">
        <ele>79.7</ele>
        <time>2015-05-17T09:15:07Z</time>
      </trkpt>
      <trkpt lat="47.70329" lon="-2.34138">
        <ele>79.2</ele>
        <time>2015-05-17T09:15:14Z</time>
      </trkpt>
      <trkpt lat="47.70328" lon="-2.34133">
        <ele>79</ele>
        <time>2015-05-17T09:15:21Z</time>
      </trkpt>
      <trkpt lat="47.70328" lon="-2.34127">
        <ele>78.7</ele>
        <time>2015-05-17T09:15:28Z</time>
      </trkpt>
      <trkpt lat="47.70327" lon="-2.34124">
        <ele>78.8</ele>
        <time>2015-05-17T09:15:35Z</time>
      </trkpt>
      <trkpt lat="47.70324" lon="-2.34119">
        <ele>78.3</ele>
        <time>2015-05-17T09:15:46Z</time>
      </trkpt>
      <trkpt lat="47.70321" lon="-2.34109">
        <ele>78.2</ele>
        <time>2015-05-17T09:16:02Z</time>
      </trkpt>
      <trkpt lat="47.70316" lon="-2.341">
        <ele>78.1</ele>
        <time>2015-05-17T09:16:08Z</time>
      </trkpt>
      <trkpt lat="47.70309" lon="-2.34093">
        <ele>77.4</ele>
        <time>2015-05-17T09:16:14Z</time>
      </trkpt>
      <trkpt lat="47.70304" lon="-2.34087">
        <ele>77.2</ele>
        <time>2015-05-17T09:16:19Z</time>
      </trkpt>
      <trkpt lat="47.70297" lon="-2.3408">
        <ele>77.4</ele>
        <time>2015-05-17T09:16:25Z</time>
      </trkpt>
      <trkpt lat="47.70292" lon="-2.34073">
        <ele>77.7</ele>
        <time>2015-05-17T09:16:32Z</time>
      </trkpt>
      <trkpt lat="47.70288" lon="-2.34063">
        <ele>77.9</ele>
        <time>2015-05-17T09:16:38Z</time>
      </trkpt>
      <trkpt lat="47.70288" lon="-2.34053">
        <ele>78.3</ele>
        <time>2015-05-17T09:16:44Z</time>
      </trkpt>
      <trkpt lat="47.70291" lon="-2.34043">
        <ele>78.3</ele>
        <time>2015-05-17T09:16:49Z</time>
      </trkpt>
      <trkpt lat="47.70293" lon="-2.34032">
        <ele>78.6</ele>
        <time>2015-05-17T09:16:55Z</time>
      </trkpt>
      <trkpt lat="47.70294" lon="-2.34022">
        <ele>78.9</ele>
        <time>2015-05-17T09:17:02Z</time>
      </trkpt>
      <trkpt lat="47.70295" lon="-2.34011">
        <ele>79.4</ele>
        <time>2015-05-17T09:17:08Z</time>
      </trkpt>
      <trkpt lat="47.70294" lon="-2.34003">
        <ele>79.3</ele>
        <time>2015-05-17T09:17:15Z</time>
      </trkpt>
      <trkpt lat="47.70293" lon="-2.33992">
        <ele>79.6</ele>
        <time>2015-05-17T09:17:22Z</time>
      </trkpt>
      <trkpt lat="47.70294" lon="-2.33984">
        <ele>80.1</ele>
        <time>2015-05-17T09:17:29Z</time>
      </trkpt>
      <trkpt lat="47.70295" lon="-2.33978">
        <ele>80.9</ele>
        <time>2015-05-17T09:17:36Z</time>
      </trkpt>
      <trkpt lat="47.70299" lon="-2.33967">
        <ele>81.6</ele>
        <time>2015-05-17T09:17:42Z</time>
      </trkpt>
      <trkpt lat="47.70301" lon="-2.33954">
        <ele>82.1</ele>
        <time>2015-05-17T09:17:48Z</time>
      </trkpt>
      <trkpt lat="47.70303" lon="-2.33943">
        <ele>82.3</ele>
        <time>2015-05-17T09:17:55Z</time>
      </trkpt>
      <trkpt lat="47.70301" lon="-2.33938">
        <ele>82.3</ele>
        <time>2015-05-17T09:18:02Z</time>
      </trkpt>
      <trkpt lat="47.70304" lon="-2.33926">
        <ele>82.1</ele>
        <time>2015-05-17T09:19:16Z</time>
      </trkpt>
      <trkpt lat="47.70306" lon="-2.33916">
        <ele>82.1</ele>
        <time>2015-05-17T09:19:23Z</time>
      </trkpt>
      <trkpt lat="47.70303" lon="-2.33907">
        <ele>82.1</ele>
        <time>2015-05-17T09:19:30Z</time>
      </trkpt>
      <trkpt lat="47.70305" lon="-2.33897">
        <ele>82.3</ele>
        <time>2015-05-17T09:19:37Z</time>
      </trkpt>
      <trkpt lat="47.70311" lon="-2.3389">
        <ele>82.3</ele>
        <time>2015-05-17T09:19:44Z</time>
      </trkpt>
      <trkpt lat="47.70319" lon="-2.33889">
        <ele>82.3</ele>
        <time>2015-05-17T09:19:51Z</time>
      </trkpt>
      <trkpt lat="47.70326" lon="-2.33889">
        <ele>82.3</ele>
        <time>2015-05-17T09:19:58Z</time>
      </trkpt>
      <trkpt lat="47.70326" lon="-2.33886">
        <ele>82.3</ele>
        <time>2015-05-17T09:20:05Z</time>
      </trkpt>
      <trkpt lat="47.70334" lon="-2.3389">
        <ele>81.9</ele>
        <time>2015-05-17T09:20:37Z</time>
      </trkpt>
      <trkpt lat="47.70337" lon="-2.33898">
        <ele>82.5</ele>
        <time>2015-05-17T09:20:44Z</time>
      </trkpt>
      <trkpt lat="47.70344" lon="-2.33896">
        <ele>82.2</ele>
        <time>2015-05-17T09:20:51Z</time>
      </trkpt>
      <trkpt lat="47.70351" lon="-2.33896">
        <ele>81.8</ele>
        <time>2015-05-17T09:20:58Z</time>
      </trkpt>
      <trkpt lat="47.70357" lon="-2.33896">
        <ele>81.4</ele>
        <time>2015-05-17T09:21:05Z</time>
      </trkpt>
      <trkpt lat="47.70362" lon="-2.33897">
        <ele>81.5</ele>
        <time>2015-05-17T09:21:12Z</time>
      </trkpt>
      <trkpt lat="47.70367" lon="-2.33894">
        <ele>81.5</ele>
        <time>2015-05-17T09:21:19Z</time>
      </trkpt>
      <trkpt lat="47.70371" lon="-2.33892">
        <ele>81.3</ele>
        <time>2015-05-17T09:21:26Z</time>
      </trkpt>
      <trkpt lat="47.70379" lon="-2.33887">
        <ele>81.4</ele>
        <time>2015-05-17T09:21:33Z</time>
      </trkpt>
      <trkpt lat="47.70383" lon="-2.33879">
        <ele>81.4</ele>
        <time>2015-05-17T09:21:40Z</time>
      </trkpt>
      <trkpt lat="47.70391" lon="-2.3388">
        <ele>81.5</ele>
        <time>2015-05-17T09:21:46Z</time>
      </trkpt>
      <trkpt lat="47.70393" lon="-2.33872">
        <ele>81.3</ele>
        <time>2015-05-17T09:21:53Z</time>
      </trkpt>
      <trkpt lat="47.70396" lon="-2.33863">
        <ele>81</ele>
        <time>2015-05-17T09:22:00Z</time>
      </trkpt>
      <trkpt lat="47.70398" lon="-2.33855">
        <ele>80.5</ele>
        <time>2015-05-17T09:22:07Z</time>
      </trkpt>
      <trkpt lat="47.70398" lon="-2.33848">
        <ele>79.9</ele>
        <time>2015-05-17T09:22:14Z</time>
      </trkpt>
      <trkpt lat="47.70399" lon="-2.3384">
        <ele>79.7</ele>
        <time>2015-05-17T09:22:21Z</time>
      </trkpt>
      <trkpt lat="47.70404" lon="-2.33833">
        <ele>79.9</ele>
        <time>2015-05-17T09:22:28Z</time>
      </trkpt>
      <trkpt lat="47.7041" lon="-2.33824">
        <ele>79.8</ele>
        <time>2015-05-17T09:22:34Z</time>
      </trkpt>
      <trkpt lat="47.70415" lon="-2.33816">
        <ele>79.1</ele>
        <time>2015-05-17T09:22:41Z</time>
      </trkpt>
      <trkpt lat="47.7042" lon="-2.33806">
        <ele>78.6</ele>
        <time>2015-05-17T09:22:46Z</time>
      </trkpt>
      <trkpt lat="47.70424" lon="-2.33798">
        <ele>78.1</ele>
        <time>2015-05-17T09:22:53Z</time>
      </trkpt>
      <trkpt lat="47.70428" lon="-2.33794">
        <ele>77.9</ele>
        <time>2015-05-17T09:23:00Z</time>
      </trkpt>
      <trkpt lat="47.70432" lon="-2.33785">
        <ele>77.5</ele>
        <time>2015-05-17T09:23:07Z</time>
      </trkpt>
      <trkpt lat="47.70439" lon="-2.33782">
        <ele>76.8</ele>
        <time>2015-05-17T09:23:14Z</time>
      </trkpt>
      <trkpt lat="47.70448" lon="-2.33782">
        <ele>76.2</ele>
        <time>2015-05-17T09:23:20Z</time>
      </trkpt>
      <trkpt lat="47.70457" lon="-2.33783">
        <ele>76.1</ele>
        <time>2015-05-17T09:23:25Z</time>
      </trkpt>
      <trkpt lat="47.70463" lon="-2.3378">
        <ele>75.9</ele>
        <time>2015-05-17T09:23:32Z</time>
      </trkpt>
      <trkpt lat="47.70467" lon="-2.33779">
        <ele>75.4</ele>
        <time>2015-05-17T09:23:39Z</time>
      </trkpt>
      <trkpt lat="47.70468" lon="-2.33774">
        <ele>75.1</ele>
        <time>2015-05-17T09:23:46Z</time>
      </trkpt>
      <trkpt lat="47.70468" lon="-2.33763">
        <ele>75</ele>
        <time>2015-05-17T09:23:53Z</time>
      </trkpt>
      <trkpt lat="47.70468" lon="-2.33752">
        <ele>74.9</ele>
        <time>2015-05-17T09:24:00Z</time>
      </trkpt>
      <trkpt lat="47.70471" lon="-2.33745">
        <ele>75</ele>
        <time>2015-05-17T09:24:07Z</time>
      </trkpt>
      <trkpt lat="47.70473" lon="-2.33739">
        <ele>75.1</ele>
        <time>2015-05-17T09:24:14Z</time>
      </trkpt>
      <trkpt lat="47.70479" lon="-2.33733">
        <ele>75</ele>
        <time>2015-05-17T09:24:21Z</time>
      </trkpt>
      <trkpt lat="47.70483" lon="-2.33726">
        <ele>73.4</ele>
        <time>2015-05-17T09:24:28Z</time>
      </trkpt>
      <trkpt lat="47.70483" lon="-2.33719">
        <ele>72.2</ele>
        <time>2015-05-17T09:24:35Z</time>
      </trkpt>
      <trkpt lat="47.70485" lon="-2.33715">
        <ele>71.7</ele>
        <time>2015-05-17T09:24:42Z</time>
      </trkpt>
      <trkpt lat="47.70494" lon="-2.33718">
        <ele>70.1</ele>
        <time>2015-05-17T09:25:31Z</time>
      </trkpt>
      <trkpt lat="47.70499" lon="-2.33714">
        <ele>69.2</ele>
        <time>2015-05-17T09:25:38Z</time>
      </trkpt>
      <trkpt lat="47.70502" lon="-2.33711">
        <ele>68.7</ele>
        <time>2015-05-17T09:25:45Z</time>
      </trkpt>
      <trkpt lat="47.70504" lon="-2.33707">
        <ele>68.3</ele>
        <time>2015-05-17T09:25:52Z</time>
      </trkpt>
      <trkpt lat="47.70508" lon="-2.33703">
        <ele>67.6</ele>
        <time>2015-05-17T09:25:59Z</time>
      </trkpt>
      <trkpt lat="47.7051" lon="-2.33692">
        <ele>66.9</ele>
        <time>2015-05-17T09:26:05Z</time>
      </trkpt>
      <trkpt lat="47.70513" lon="-2.33683">
        <ele>66.3</ele>
        <time>2015-05-17T09:26:12Z</time>
      </trkpt>
      <trkpt lat="47.70518" lon="-2.33681">
        <ele>65.7</ele>
        <time>2015-05-17T09:26:19Z</time>
      </trkpt>
      <trkpt lat="47.70523" lon="-2.33684">
        <ele>65.3</ele>
        <time>2015-05-17T09:26:26Z</time>
      </trkpt>
      <trkpt lat="47.70529" lon="-2.33685">
        <ele>64.7</ele>
        <time>2015-05-17T09:26:33Z</time>
      </trkpt>
      <trkpt lat="47.70536" lon="-2.33684">
        <ele>64.2</ele>
        <time>2015-05-17T09:26:40Z</time>
      </trkpt>
      <trkpt lat="47.70542" lon="-2.33684">
        <ele>63.8</ele>
        <time>2015-05-17T09:26:47Z</time>
      </trkpt>
      <trkpt lat="47.70544" lon="-2.33682">
        <ele>63.5</ele>
        <time>2015-05-17T09:26:54Z</time>
      </trkpt>
      <trkpt lat="47.70542" lon="-2.33679">
        <ele>63.1</ele>
        <time>2015-05-17T09:27:01Z</time>
      </trkpt>
      <trkpt lat="47.70539" lon="-2.33667">
        <ele>62.4</ele>
        <time>2015-05-17T09:27:07Z</time>
      </trkpt>
      <trkpt lat="47.70535" lon="-2.33659">
        <ele>62</ele>
        <time>2015-05-17T09:27:14Z</time>
      </trkpt>
      <trkpt lat="47.70528" lon="-2.33653">
        <ele>61.7</ele>
        <time>2015-05-17T09:27:19Z</time>
      </trkpt>
      <trkpt lat="47.70523" lon="-2.33647">
        <ele>61.1</ele>
        <time>2015-05-17T09:27:26Z</time>
      </trkpt>
      <trkpt lat="47.70518" lon="-2.33641">
        <ele>60.6</ele>
        <time>2015-05-17T09:27:33Z</time>
      </trkpt>
      <trkpt lat="47.70511" lon="-2.33634">
        <ele>60.4</ele>
        <time>2015-05-17T09:27:40Z</time>
      </trkpt>
      <trkpt lat="47.70509" lon="-2.33632">
        <ele>60.2</ele>
        <time>2015-05-17T09:27:47Z</time>
      </trkpt>
      <trkpt lat="47.70505" lon="-2.33625">
        <ele>59.6</ele>
        <time>2015-05-17T09:27:54Z</time>
      </trkpt>
      <trkpt lat="47.70501" lon="-2.3362">
        <ele>59</ele>
        <time>2015-05-17T09:28:01Z</time>
      </trkpt>
      <trkpt lat="47.70493" lon="-2.33622">
        <ele>58.5</ele>
        <time>2015-05-17T09:28:08Z</time>
      </trkpt>
      <trkpt lat="47.70486" lon="-2.33623">
        <ele>58.3</ele>
        <time>2015-05-17T09:28:13Z</time>
      </trkpt>
      <trkpt lat="47.70478" lon="-2.33622">
        <ele>57.9</ele>
        <time>2015-05-17T09:28:17Z</time>
      </trkpt>
      <trkpt lat="47.7047" lon="-2.33621">
        <ele>57.6</ele>
        <time>2015-05-17T09:28:23Z</time>
      </trkpt>
      <trkpt lat="47.70461" lon="-2.33625">
        <ele>57.2</ele>
        <time>2015-05-17T09:28:29Z</time>
      </trkpt>
      <trkpt lat="47.70454" lon="-2.33628">
        <ele>56.7</ele>
        <time>2015-05-17T09:28:34Z</time>
      </trkpt>
      <trkpt lat="47.70446" lon="-2.33633">
        <ele>56</ele>
        <time>2015-05-17T09:28:39Z</time>
      </trkpt>
      <trkpt lat="47.70438" lon="-2.33639">
        <ele>55.2</ele>
        <time>2015-05-17T09:28:44Z</time>
      </trkpt>
      <trkpt lat="47.70432" lon="-2.33645">
        <ele>54.3</ele>
        <time>2015-05-17T09:28:49Z</time>
      </trkpt>
      <trkpt lat="47.70425" lon="-2.3365">
        <ele>53.3</ele>
        <time>2015-05-17T09:28:55Z</time>
      </trkpt>
      <trkpt lat="47.7042" lon="-2.33658">
        <ele>52.3</ele>
        <time>2015-05-17T09:29:00Z</time>
      </trkpt>
      <trkpt lat="47.70412" lon="-2.33662">
        <ele>51.3</ele>
        <time>2015-05-17T09:29:06Z</time>
      </trkpt>
      <trkpt lat="47.70407" lon="-2.33669">
        <ele>49.4</ele>
        <time>2015-05-17T09:29:13Z</time>
      </trkpt>
      <trkpt lat="47.70398" lon="-2.33672">
        <ele>47.7</ele>
        <time>2015-05-17T09:29:19Z</time>
      </trkpt>
      <trkpt lat="47.70392" lon="-2.33678">
        <ele>46.8</ele>
        <time>2015-05-17T09:29:24Z</time>
      </trkpt>
      <trkpt lat="47.70385" lon="-2.33683">
        <ele>45.8</ele>
        <time>2015-05-17T09:29:29Z</time>
      </trkpt>
      <trkpt lat="47.7038" lon="-2.33692">
        <ele>44.8</ele>
        <time>2015-05-17T09:29:34Z</time>
      </trkpt>
      <trkpt lat="47.70375" lon="-2.33696">
        <ele>42.9</ele>
        <time>2015-05-17T09:29:41Z</time>
      </trkpt>
      <trkpt lat="47.70368" lon="-2.33702">
        <ele>41.5</ele>
        <time>2015-05-17T09:29:47Z</time>
      </trkpt>
      <trkpt lat="47.70362" lon="-2.33709">
        <ele>40.1</ele>
        <time>2015-05-17T09:29:53Z</time>
      </trkpt>
      <trkpt lat="47.70355" lon="-2.33714">
        <ele>39.1</ele>
        <time>2015-05-17T09:29:58Z</time>
      </trkpt>
      <trkpt lat="47.70351" lon="-2.33722">
        <ele>37.5</ele>
        <time>2015-05-17T09:30:05Z</time>
      </trkpt>
      <trkpt lat="47.70344" lon="-2.33725">
        <ele>36.4</ele>
        <time>2015-05-17T09:30:10Z</time>
      </trkpt>
      <trkpt lat="47.70337" lon="-2.33728">
        <ele>35.3</ele>
        <time>2015-05-17T09:30:15Z</time>
      </trkpt>
      <trkpt lat="47.70331" lon="-2.33736">
        <ele>33.7</ele>
        <time>2015-05-17T09:30:21Z</time>
      </trkpt>
      <trkpt lat="47.70323" lon="-2.33738">
        <ele>32.9</ele>
        <time>2015-05-17T09:30:26Z</time>
      </trkpt>
      <trkpt lat="47.70316" lon="-2.33741">
        <ele>31.4</ele>
        <time>2015-05-17T09:30:33Z</time>
      </trkpt>
      <trkpt lat="47.70309" lon="-2.33743">
        <ele>30.6</ele>
        <time>2015-05-17T09:30:39Z</time>
      </trkpt>
      <trkpt lat="47.70308" lon="-2.33745">
        <ele>29.9</ele>
        <time>2015-05-17T09:30:46Z</time>
      </trkpt>
      <trkpt lat="47.70307" lon="-2.33752">
        <ele>28.3</ele>
        <time>2015-05-17T09:30:53Z</time>
      </trkpt>
      <trkpt lat="47.70302" lon="-2.33752">
        <ele>27.9</ele>
        <time>2015-05-17T09:31:00Z</time>
      </trkpt>
      <trkpt lat="47.70295" lon="-2.33756">
        <ele>28.2</ele>
        <time>2015-05-17T09:31:07Z</time>
      </trkpt>
      <trkpt lat="47.70286" lon="-2.33758">
        <ele>28.2</ele>
        <time>2015-05-17T09:31:14Z</time>
      </trkpt>
      <trkpt lat="47.70278" lon="-2.33758">
        <ele>28.1</ele>
        <time>2015-05-17T09:31:20Z</time>
      </trkpt>
      <trkpt lat="47.70271" lon="-2.33757">
        <ele>28.4</ele>
        <time>2015-05-17T09:31:25Z</time>
      </trkpt>
      <trkpt lat="47.70262" lon="-2.33757">
        <ele>28.8</ele>
        <time>2015-05-17T09:31:31Z</time>
      </trkpt>
      <trkpt lat="47.70254" lon="-2.33758">
        <ele>28.7</ele>
        <time>2015-05-17T09:31:37Z</time>
      </trkpt>
      <trkpt lat="47.70245" lon="-2.33758">
        <ele>28.6</ele>
        <time>2015-05-17T09:31:41Z</time>
      </trkpt>
      <trkpt lat="47.70238" lon="-2.3376">
        <ele>28.5</ele>
        <time>2015-05-17T09:31:45Z</time>
      </trkpt>
      <trkpt lat="47.7023" lon="-2.33761">
        <ele>28.6</ele>
        <time>2015-05-17T09:31:52Z</time>
      </trkpt>
      <trkpt lat="47.70221" lon="-2.33763">
        <ele>28.9</ele>
        <time>2015-05-17T09:31:58Z</time>
      </trkpt>
      <trkpt lat="47.70214" lon="-2.33764">
        <ele>28.5</ele>
        <time>2015-05-17T09:32:03Z</time>
      </trkpt>
      <trkpt lat="47.70211" lon="-2.33775">
        <ele>28.2</ele>
        <time>2015-05-17T09:32:10Z</time>
      </trkpt>
      <trkpt lat="47.70203" lon="-2.33769">
        <ele>28.6</ele>
        <time>2015-05-17T09:32:13Z</time>
      </trkpt>
      <trkpt lat="47.70195" lon="-2.33764">
        <ele>29.3</ele>
        <time>2015-05-17T09:32:17Z</time>
      </trkpt>
      <trkpt lat="47.70186" lon="-2.33759">
        <ele>29.3</ele>
        <time>2015-05-17T09:32:21Z</time>
      </trkpt>
      <trkpt lat="47.70178" lon="-2.33758">
        <ele>28.8</ele>
        <time>2015-05-17T09:32:26Z</time>
      </trkpt>
      <trkpt lat="47.70171" lon="-2.33753">
        <ele>28.5</ele>
        <time>2015-05-17T09:32:30Z</time>
      </trkpt>
      <trkpt lat="47.70165" lon="-2.33752">
        <ele>27.7</ele>
        <time>2015-05-17T09:32:37Z</time>
      </trkpt>
      <trkpt lat="47.70158" lon="-2.33753">
        <ele>27.3</ele>
        <time>2015-05-17T09:32:44Z</time>
      </trkpt>
      <trkpt lat="47.70152" lon="-2.33748">
        <ele>27.2</ele>
        <time>2015-05-17T09:32:49Z</time>
      </trkpt>
      <trkpt lat="47.70149" lon="-2.33754">
        <ele>26.8</ele>
        <time>2015-05-17T09:32:56Z</time>
      </trkpt>
      <trkpt lat="47.70142" lon="-2.33758">
        <ele>26.8</ele>
        <time>2015-05-17T09:33:02Z</time>
      </trkpt>
      <trkpt lat="47.70136" lon="-2.33763">
        <ele>26.7</ele>
        <time>2015-05-17T09:33:09Z</time>
      </trkpt>
      <trkpt lat="47.7013" lon="-2.33759">
        <ele>26.7</ele>
        <time>2015-05-17T09:33:16Z</time>
      </trkpt>
      <trkpt lat="47.70121" lon="-2.33756">
        <ele>26.6</ele>
        <time>2015-05-17T09:33:20Z</time>
      </trkpt>
      <trkpt lat="47.70113" lon="-2.33755">
        <ele>26.7</ele>
        <time>2015-05-17T09:33:26Z</time>
      </trkpt>
      <trkpt lat="47.70112" lon="-2.33747">
        <ele>27.4</ele>
        <time>2015-05-17T09:33:33Z</time>
      </trkpt>
      <trkpt lat="47.70105" lon="-2.33743">
        <ele>27.5</ele>
        <time>2015-05-17T09:33:40Z</time>
      </trkpt>
      <trkpt lat="47.70097" lon="-2.33742">
        <ele>27.6</ele>
        <time>2015-05-17T09:33:44Z</time>
      </trkpt>
      <trkpt lat="47.70089" lon="-2.33741">
        <ele>28.3</ele>
        <time>2015-05-17T09:33:49Z</time>
      </trkpt>
      <trkpt lat="47.70082" lon="-2.33738">
        <ele>28.6</ele>
        <time>2015-05-17T09:33:53Z</time>
      </trkpt>
      <trkpt lat="47.70075" lon="-2.33732">
        <ele>29</ele>
        <time>2015-05-17T09:33:57Z</time>
      </trkpt>
      <trkpt lat="47.7007" lon="-2.33724">
        <ele>30.2</ele>
        <time>2015-05-17T09:34:04Z</time>
      </trkpt>
      <trkpt lat="47.70065" lon="-2.33714">
        <ele>30.4</ele>
        <time>2015-05-17T09:34:09Z</time>
      </trkpt>
      <trkpt lat="47.70057" lon="-2.33706">
        <ele>30.5</ele>
        <time>2015-05-17T09:34:13Z</time>
      </trkpt>
      <trkpt lat="47.70051" lon="-2.33697">
        <ele>30.7</ele>
        <time>2015-05-17T09:34:17Z</time>
      </trkpt>
      <trkpt lat="47.70045" lon="-2.3369">
        <ele>31.1</ele>
        <time>2015-05-17T09:34:22Z</time>
      </trkpt>
      <trkpt lat="47.70054" lon="-2.33688">
        <ele>32</ele>
        <time>2015-05-17T09:34:28Z</time>
      </trkpt>
      <trkpt lat="47.70051" lon="-2.3368">
        <ele>32.5</ele>
        <time>2015-05-17T09:34:35Z</time>
      </trkpt>
      <trkpt lat="47.70044" lon="-2.33673">
        <ele>32.7</ele>
        <time>2015-05-17T09:34:39Z</time>
      </trkpt>
      <trkpt lat="47.70034" lon="-2.33665">
        <ele>33.4</ele>
        <time>2015-05-17T09:34:45Z</time>
      </trkpt>
      <trkpt lat="47.70029" lon="-2.33656">
        <ele>34</ele>
        <time>2015-05-17T09:34:51Z</time>
      </trkpt>
      <trkpt lat="47.70024" lon="-2.33649">
        <ele>34.5</ele>
        <time>2015-05-17T09:34:57Z</time>
      </trkpt>
      <trkpt lat="47.7002" lon="-2.3364">
        <ele>35.2</ele>
        <time>2015-05-17T09:35:04Z</time>
      </trkpt>
      <trkpt lat="47.70013" lon="-2.33634">
        <ele>35.9</ele>
        <time>2015-05-17T09:35:10Z</time>
      </trkpt>
      <trkpt lat="47.70005" lon="-2.33631">
        <ele>36.5</ele>
        <time>2015-05-17T09:35:15Z</time>
      </trkpt>
      <trkpt lat="47.70005" lon="-2.33627">
        <ele>37</ele>
        <time>2015-05-17T09:35:22Z</time>
      </trkpt>
      <trkpt lat="47.69998" lon="-2.33619">
        <ele>37.3</ele>
        <time>2015-05-17T09:35:29Z</time>
      </trkpt>
      <trkpt lat="47.69991" lon="-2.33614">
        <ele>37.5</ele>
        <time>2015-05-17T09:35:32Z</time>
      </trkpt>
      <trkpt lat="47.69984" lon="-2.33609">
        <ele>37.7</ele>
        <time>2015-05-17T09:35:37Z</time>
      </trkpt>
      <trkpt lat="47.69977" lon="-2.33604">
        <ele>37.8</ele>
        <time>2015-05-17T09:35:41Z</time>
      </trkpt>
      <trkpt lat="47.69967" lon="-2.33603">
        <ele>38.1</ele>
        <time>2015-05-17T09:35:47Z</time>
      </trkpt>
      <trkpt lat="47.6996" lon="-2.336">
        <ele>38.2</ele>
        <time>2015-05-17T09:35:51Z</time>
      </trkpt>
      <trkpt lat="47.69953" lon="-2.33599">
        <ele>38.5</ele>
        <time>2015-05-17T09:35:54Z</time>
      </trkpt>
      <trkpt lat="47.69945" lon="-2.33595">
        <ele>38.7</ele>
        <time>2015-05-17T09:35:59Z</time>
      </trkpt>
      <trkpt lat="47.69963" lon="-2.33598">
        <ele>39.4</ele>
        <time>2015-05-17T09:36:04Z</time>
      </trkpt>
      <trkpt lat="47.69959" lon="-2.33595">
        <ele>40.3</ele>
        <time>2015-05-17T09:36:11Z</time>
      </trkpt>
      <trkpt lat="47.69958" lon="-2.33607">
        <ele>41.3</ele>
        <time>2015-05-17T09:36:16Z</time>
      </trkpt>
      <trkpt lat="47.69961" lon="-2.3362">
        <ele>42.8</ele>
        <time>2015-05-17T09:36:23Z</time>
      </trkpt>
      <trkpt lat="47.69959" lon="-2.33619">
        <ele>44.1</ele>
        <time>2015-05-17T09:36:30Z</time>
      </trkpt>
      <trkpt lat="47.69952" lon="-2.33616">
        <ele>44.7</ele>
        <time>2015-05-17T09:37:26Z</time>
      </trkpt>
      <trkpt lat="47.69946" lon="-2.33614">
        <ele>44.8</ele>
        <time>2015-05-17T09:37:33Z</time>
      </trkpt>
      <trkpt lat="47.69941" lon="-2.33621">
        <ele>45.1</ele>
        <time>2015-05-17T09:37:40Z</time>
      </trkpt>
      <trkpt lat="47.69937" lon="-2.33629">
        <ele>45.4</ele>
        <time>2015-05-17T09:37:47Z</time>
      </trkpt>
      <trkpt lat="47.69938" lon="-2.33634">
        <ele>45.6</ele>
        <time>2015-05-17T09:37:54Z</time>
      </trkpt>
      <trkpt lat="47.69935" lon="-2.33627">
        <ele>45.8</ele>
        <time>2015-05-17T09:38:10Z</time>
      </trkpt>
      <trkpt lat="47.69943" lon="-2.33635">
        <ele>46</ele>
        <time>2015-05-17T09:38:17Z</time>
      </trkpt>
      <trkpt lat="47.69945" lon="-2.33647">
        <ele>46.4</ele>
        <time>2015-05-17T09:38:24Z</time>
      </trkpt>
      <trkpt lat="47.69946" lon="-2.33659">
        <ele>47.4</ele>
        <time>2015-05-17T09:38:30Z</time>
      </trkpt>
      <trkpt lat="47.69949" lon="-2.33668">
        <ele>47.8</ele>
        <time>2015-05-17T09:38:37Z</time>
      </trkpt>
      <trkpt lat="47.69953" lon="-2.33676">
        <ele>48</ele>
        <time>2015-05-17T09:38:42Z</time>
      </trkpt>
      <trkpt lat="47.69956" lon="-2.33688">
        <ele>48.2</ele>
        <time>2015-05-17T09:38:47Z</time>
      </trkpt>
      <trkpt lat="47.69959" lon="-2.33699">
        <ele>48.4</ele>
        <time>2015-05-17T09:38:54Z</time>
      </trkpt>
      <trkpt lat="47.6996" lon="-2.33704">
        <ele>48.6</ele>
        <time>2015-05-17T09:39:01Z</time>
      </trkpt>
      <trkpt lat="47.69959" lon="-2.33709">
        <ele>49</ele>
        <time>2015-05-17T09:39:08Z</time>
      </trkpt>
      <trkpt lat="47.69959" lon="-2.33716">
        <ele>49.2</ele>
        <time>2015-05-17T09:39:15Z</time>
      </trkpt>
      <trkpt lat="47.69955" lon="-2.33721">
        <ele>49.4</ele>
        <time>2015-05-17T09:39:22Z</time>
      </trkpt>
      <trkpt lat="47.69953" lon="-2.33725">
        <ele>49.5</ele>
        <time>2015-05-17T09:39:29Z</time>
      </trkpt>
      <trkpt lat="47.69944" lon="-2.33725">
        <ele>48.2</ele>
        <time>2015-05-17T09:41:14Z</time>
      </trkpt>
      <trkpt lat="47.69952" lon="-2.3372">
        <ele>49.1</ele>
        <time>2015-05-17T09:41:20Z</time>
      </trkpt>
      <trkpt lat="47.69954" lon="-2.33717">
        <ele>49.4</ele>
        <time>2015-05-17T09:41:27Z</time>
      </trkpt>
      <trkpt lat="47.69949" lon="-2.33715">
        <ele>49.9</ele>
        <time>2015-05-17T09:43:23Z</time>
      </trkpt>
      <trkpt lat="47.69949" lon="-2.33715">
        <ele>50</ele>
        <time>2015-05-17T09:43:30Z</time>
      </trkpt>
      <trkpt lat="47.69948" lon="-2.33724">
        <ele>50.7</ele>
        <time>2015-05-17T09:46:46Z</time>
      </trkpt>
      <trkpt lat="47.69953" lon="-2.33718">
        <ele>50.5</ele>
        <time>2015-05-17T09:46:49Z</time>
      </trkpt>
      <trkpt lat="47.69957" lon="-2.33707">
        <ele>50.5</ele>
        <time>2015-05-17T09:46:54Z</time>
      </trkpt>
      <trkpt lat="47.69953" lon="-2.33696">
        <ele>50.8</ele>
        <time>2015-05-17T09:47:00Z</time>
      </trkpt>
      <trkpt lat="47.69954" lon="-2.33685">
        <ele>50.4</ele>
        <time>2015-05-17T09:47:06Z</time>
      </trkpt>
      <trkpt lat="47.69955" lon="-2.33671">
        <ele>51.1</ele>
        <time>2015-05-17T09:47:11Z</time>
      </trkpt>
      <trkpt lat="47.69953" lon="-2.33658">
        <ele>51.7</ele>
        <time>2015-05-17T09:47:15Z</time>
      </trkpt>
      <trkpt lat="47.69953" lon="-2.33646">
        <ele>51.8</ele>
        <time>2015-05-17T09:47:21Z</time>
      </trkpt>
      <trkpt lat="47.69954" lon="-2.33635">
        <ele>52.1</ele>
        <time>2015-05-17T09:47:28Z</time>
      </trkpt>
      <trkpt lat="47.69948" lon="-2.33642">
        <ele>50.6</ele>
        <time>2015-05-17T09:48:23Z</time>
      </trkpt>
      <trkpt lat="47.69948" lon="-2.33642">
        <ele>50.2</ele>
        <time>2015-05-17T09:48:30Z</time>
      </trkpt>
      <trkpt lat="47.69951" lon="-2.33649">
        <ele>50.9</ele>
        <time>2015-05-17T09:55:38Z</time>
      </trkpt>
      <trkpt lat="47.69953" lon="-2.33661">
        <ele>50.9</ele>
        <time>2015-05-17T09:55:45Z</time>
      </trkpt>
      <trkpt lat="47.69952" lon="-2.33673">
        <ele>51.1</ele>
        <time>2015-05-17T09:55:52Z</time>
      </trkpt>
      <trkpt lat="47.69955" lon="-2.33684">
        <ele>51.1</ele>
        <time>2015-05-17T09:55:58Z</time>
      </trkpt>
      <trkpt lat="47.69955" lon="-2.33696">
        <ele>51.2</ele>
        <time>2015-05-17T09:56:05Z</time>
      </trkpt>
      <trkpt lat="47.69955" lon="-2.33708">
        <ele>51.2</ele>
        <time>2015-05-17T09:56:12Z</time>
      </trkpt>
      <trkpt lat="47.69959" lon="-2.3371">
        <ele>51.2</ele>
        <time>2015-05-17T09:56:19Z</time>
      </trkpt>
      <trkpt lat="47.69937" lon="-2.3374">
        <ele>85.3</ele>
        <time>2015-05-17T10:01:31Z</time>
      </trkpt>
      <trkpt lat="47.69936" lon="-2.33741">
        <ele>86.7</ele>
        <time>2015-05-17T10:01:38Z</time>
      </trkpt>
      <trkpt lat="47.69939" lon="-2.33708">
        <ele>78</ele>
        <time>2015-05-17T10:08:29Z</time>
      </trkpt>
      <trkpt lat="47.69949" lon="-2.33715">
        <ele>74.4</ele>
        <time>2015-05-17T10:12:31Z</time>
      </trkpt>
    </trkseg>
  </trk>
</gpx>